Provisional Data: Sugar Run near Sugar Run, PA


Please select a monitoring station.
Please select start date.
Please select start date.

Toggle Unit: C/F Toggle Unit: C/F
Sample Time Temperature (C) Temperature (F) Specific Conductivity (mS/cm) pH   Turbidity (NTU+) DO (mg/L)
12/4/2020 12:00:00 AM 3.93 39.074 0.162 7.62 3.62 13.23
12/4/2020 12:15:00 AM 3.91 39.038 0.162 7.63 3.67 13.24
12/4/2020 12:30:00 AM 3.91 39.038 0.162 7.63 3.62 13.23
12/4/2020 12:45:00 AM 3.89 39.002 0.162 7.64 3.82 13.24
12/4/2020 1:00:00 AM 3.89 39.002 0.162 7.63 3.69 13.23
12/4/2020 1:15:00 AM 3.89 39.002 0.162 7.63 3.67 13.23
12/4/2020 1:30:00 AM 3.88 38.984 0.162 7.62 3.66 13.22
12/4/2020 1:45:00 AM 3.85 38.93 0.162 7.63 3.78 13.22
12/4/2020 2:00:00 AM 3.84 38.912 0.162 7.63 3.65 13.23
12/4/2020 2:15:00 AM 3.83 38.894 0.162 7.62 3.74 13.23
12/4/2020 2:30:00 AM 3.82 38.876 0.162 7.62 3.7 13.23
12/4/2020 2:45:00 AM 3.81 38.858 0.162 7.62 3.72 13.22
12/4/2020 3:00:00 AM 3.8 38.84 0.162 7.62 3.68 13.24
12/4/2020 3:15:00 AM 3.8 38.84 0.162 7.61 3.76 13.22
12/4/2020 3:30:00 AM 3.79 38.822 0.162 7.61 3.64 13.23
12/4/2020 3:45:00 AM 3.79 38.822 0.162 7.61 3.67 13.22
12/4/2020 4:00:00 AM 3.78 38.804 0.162 7.61 3.61 13.24
12/4/2020 4:15:00 AM 3.79 38.822 0.162 7.61 3.7 13.23
12/4/2020 4:30:00 AM 3.78 38.804 0.162 7.61 3.68 13.23
12/4/2020 4:45:00 AM 3.77 38.786 0.162 7.61 3.63 13.23
12/4/2020 5:00:00 AM 3.77 38.786 0.162 7.61 3.59 13.22
12/4/2020 5:15:00 AM 3.76 38.768 0.162 7.6 3.64 13.22
12/4/2020 5:30:00 AM 3.75 38.75 0.162 7.61 3.71 13.22
12/4/2020 5:45:00 AM 3.74 38.732 0.162 7.61 3.62 13.24
12/4/2020 6:00:00 AM 3.74 38.732 0.162 7.61 3.63 13.23
12/4/2020 6:15:00 AM 3.74 38.732 0.162 7.61 3.63 13.24
12/4/2020 6:30:00 AM 3.73 38.714 0.162 7.6 3.71 13.23
12/4/2020 6:45:00 AM 3.73 38.714 0.162 7.61 3.71 13.23
12/4/2020 7:00:00 AM 3.73 38.714 0.162 7.6 3.58 13.23
12/4/2020 7:15:00 AM 3.73 38.714 0.162 7.6 3.63 13.23
12/4/2020 7:30:00 AM 3.74 38.732 0.162 7.6 3.79 13.23
12/4/2020 7:45:00 AM 3.72 38.696 0.162 7.61 3.61 13.29
12/4/2020 8:00:00 AM 3.74 38.732 0.161 7.64 3.62 13.43
12/4/2020 8:15:00 AM 3.76 38.768 0.161 7.65 3.83 13.53
12/4/2020 8:30:00 AM 3.79 38.822 0.161 7.67 3.65 13.67
12/4/2020 8:45:00 AM 3.81 38.858 0.161 7.7 3.7 13.78
12/4/2020 9:00:00 AM 3.84 38.912 0.161 7.72 3.75 13.9
12/4/2020 9:15:00 AM 3.88 38.984 0.161 7.75 3.65 13.98
12/4/2020 9:30:00 AM 3.92 39.056 0.161 7.78 3.67 14.12
12/4/2020 9:45:00 AM 3.96 39.128 0.161 7.82 3.66 14.2
12/4/2020 10:00:00 AM 4.02 39.236 0.16 7.84 3.66 14.32
12/4/2020 10:15:00 AM 4.11 39.398 0.16 7.87 3.6 14.43
12/4/2020 10:30:00 AM 4.22 39.596 0.16 7.92 3.79 14.52
12/4/2020 10:45:00 AM 4.31 39.758 0.16 7.95 3.64 14.6
12/4/2020 11:00:00 AM 4.45 40.01 0.16 8 3.56 14.67
12/4/2020 11:15:00 AM 4.54 40.172 0.159 8.01 3.6 14.66
12/4/2020 11:30:00 AM 4.68 40.424 0.159 8.07 3.56 14.7
12/4/2020 11:45:00 AM 4.81 40.658 0.159 8.08 3.74 14.69
12/4/2020 12:00:00 PM 4.93 40.874 0.159 8.13 3.86 14.71
12/4/2020 12:15:00 PM 5.02 41.036 0.159 8.16 3.58 14.7
12/4/2020 12:30:00 PM 5.09 41.162 0.159 8.18 3.56 14.66
12/4/2020 12:45:00 PM 5.16 41.288 0.159 8.19 3.72 14.63
12/4/2020 1:00:00 PM 5.18 41.324 0.159 8.2 3.55 14.61
12/4/2020 1:15:00 PM 5.22 41.396 0.158 8.23 3.65 14.6
12/4/2020 1:30:00 PM 5.25 41.45 0.158 8.25 3.73 14.56
12/4/2020 1:45:00 PM 5.27 41.486 0.158 8.26 3.62 14.54
12/4/2020 2:00:00 PM 5.27 41.486 0.158 8.24 3.61 14.49
12/4/2020 2:15:00 PM 5.29 41.522 0.158 8.24 3.56 14.46
12/4/2020 2:30:00 PM 5.31 41.558 0.159 8.27 3.73 14.46
12/4/2020 2:45:00 PM 5.31 41.558 0.159 8.26 3.69 14.41
12/4/2020 3:00:00 PM 5.28 41.504 0.159 8.21 3.67 14.32
12/4/2020 3:15:00 PM 5.29 41.522 0.159 8.22 3.5 14.28
12/4/2020 3:30:00 PM 5.26 41.468 0.159 8.19 3.53 14.19
12/4/2020 3:45:00 PM 5.25 41.45 0.159 8.13 3.68 14.07
12/4/2020 4:00:00 PM 5.22 41.396 0.159 8.05 3.53 13.91
12/4/2020 4:15:00 PM 5.19 41.342 0.159 8 3.69 13.77
12/4/2020 4:30:00 PM 5.16 41.288 0.159 7.96 3.66 13.66
12/4/2020 4:45:00 PM 5.14 41.252 0.159 7.93 3.48 13.59
12/4/2020 5:00:00 PM 5.1 41.18 0.16 7.91 3.54 13.51
12/4/2020 5:15:00 PM 5.06 41.108 0.16 7.87 3.53 13.42
12/4/2020 5:30:00 PM 5 41 0.16 7.83 3.63 13.34
12/4/2020 5:45:00 PM 4.97 40.946 0.16 7.82 3.6 13.29
12/4/2020 6:00:00 PM 4.95 40.91 0.16 7.8 3.49 13.23
12/4/2020 6:15:00 PM 4.9 40.82 0.16 7.78 3.55 13.19
12/4/2020 6:30:00 PM 4.84 40.712 0.161 7.77 3.7 13.14
12/4/2020 6:45:00 PM 4.81 40.658 0.161 7.75 3.59 13.09
12/4/2020 7:00:00 PM 4.78 40.604 0.161 7.72 3.58 13.05
12/4/2020 7:15:00 PM 4.72 40.496 0.161 7.71 3.54 13.01
12/4/2020 7:30:00 PM 4.71 40.478 0.161 7.7 3.63 13
12/4/2020 7:45:00 PM 4.67 40.406 0.162 7.69 3.55 12.96
12/4/2020 8:00:00 PM 4.64 40.352 0.162 7.68 3.56 12.95
12/4/2020 8:15:00 PM 4.61 40.298 0.162 7.67 3.51 12.93
12/4/2020 8:30:00 PM 4.59 40.262 0.162 7.66 3.78 12.93
12/4/2020 8:45:00 PM 4.59 40.262 0.162 7.66 3.65 12.9
12/4/2020 9:00:00 PM 4.58 40.244 0.162 7.65 3.84 12.9
12/4/2020 9:15:00 PM 4.58 40.244 0.162 7.64 3.63 12.9
12/4/2020 9:30:00 PM 4.6 40.28 0.162 7.64 3.88 12.88
12/4/2020 9:45:00 PM 4.6 40.28 0.162 7.63 5.4 12.88
12/4/2020 10:00:00 PM 4.62 40.316 0.162 7.63 3.94 12.86
12/4/2020 10:15:00 PM 4.62 40.316 0.163 7.62 3.87 12.87
12/4/2020 10:30:00 PM 4.63 40.334 0.163 7.63 3.72 12.83
12/4/2020 10:45:00 PM 4.63 40.334 0.163 7.63 3.69 12.81
12/4/2020 11:00:00 PM 4.64 40.352 0.163 7.63 3.86 12.83
12/4/2020 11:15:00 PM 4.64 40.352 0.163 7.62 3.53 12.81
12/4/2020 11:30:00 PM 4.65 40.37 0.163 7.63 3.82 12.8
12/4/2020 11:45:00 PM 4.65 40.37 0.163 7.62 3.67 12.78
12/5/2020 12:00:00 AM 4.64 40.352 0.163 7.61 5.38 12.78
12/5/2020 12:15:00 AM 4.64 40.352 0.163 7.61 3.83 12.78
12/5/2020 12:30:00 AM 4.64 40.352 0.163 7.61 3.58 12.77
12/5/2020 12:45:00 AM 4.64 40.352 0.164 7.61 5.38 12.77
12/5/2020 1:00:00 AM 4.63 40.334 0.164 7.61 4.87 12.77
12/5/2020 1:15:00 AM 4.63 40.334 0.164 7.6 4.74 12.76
12/5/2020 1:30:00 AM 4.63 40.334 0.164 7.6 3.59 12.76
12/5/2020 1:45:00 AM 4.61 40.298 0.164 7.6 3.6 12.75
12/5/2020 2:00:00 AM 4.58 40.244 0.164 7.6 4.82 12.77
12/5/2020 2:15:00 AM 4.55 40.19 0.164 7.6 3.88 12.76
12/5/2020 2:30:00 AM 4.52 40.136 0.164 7.6 3.75 12.78
12/5/2020 2:45:00 AM 4.5 40.1 0.164 7.6 3.57 12.78
12/5/2020 3:00:00 AM 4.47 40.046 0.164 7.6 3.63 12.77
12/5/2020 3:15:00 AM 4.46 40.028 0.164 7.59 3.64 12.78
12/5/2020 3:30:00 AM 4.43 39.974 0.165 7.59 5.96 12.78
12/5/2020 3:45:00 AM 4.41 39.938 0.165 7.6 6 12.81
12/5/2020 4:00:00 AM 4.4 39.92 0.165 7.59 5.37 12.79
12/5/2020 4:15:00 AM 4.37 39.866 0.165 7.59 4.17 12.79
12/5/2020 4:30:00 AM 4.35 39.83 0.165 7.6 3.72 12.8
12/5/2020 4:45:00 AM 4.32 39.776 0.165 7.6 4.52 12.84
12/5/2020 5:00:00 AM 4.31 39.758 0.165 7.59 3.66 12.81
12/5/2020 5:15:00 AM 4.31 39.758 0.165 7.59 4.1 12.8
12/5/2020 5:30:00 AM 4.29 39.722 0.165 7.59 4.08 12.81
12/5/2020 5:45:00 AM 4.28 39.704 0.165 7.59 3.66 12.82
12/5/2020 6:00:00 AM 4.27 39.686 0.165 7.59 3.71 12.82
12/5/2020 6:15:00 AM 4.28 39.704 0.165 7.58 3.6 12.81
12/5/2020 6:30:00 AM 4.28 39.704 0.165 7.58 4.08 12.8
12/5/2020 6:45:00 AM 4.27 39.686 0.165 7.59 3.62 12.82
12/5/2020 7:00:00 AM 4.26 39.668 0.165 7.59 3.62 12.83
12/5/2020 7:15:00 AM 4.27 39.686 0.165 7.58 3.77 12.82
12/5/2020 7:30:00 AM 4.26 39.668 0.165 7.59 3.73 12.83
12/5/2020 7:45:00 AM 4.26 39.668 0.166 7.59 3.71 12.84
12/5/2020 8:00:00 AM 4.26 39.668 0.166 7.59 3.66 12.87
12/5/2020 8:15:00 AM 4.26 39.668 0.166 7.61 3.68 12.98
12/5/2020 8:30:00 AM 4.26 39.668 0.166 7.61 3.7 13
12/5/2020 8:45:00 AM 4.26 39.668 0.166 7.62 3.62 13.03
12/5/2020 9:00:00 AM 4.27 39.686 0.166 7.63 3.57 13.06
12/5/2020 9:15:00 AM 4.26 39.668 0.166 7.64 3.64 13.1
12/5/2020 9:30:00 AM 4.27 39.686 0.166 7.63 3.64 13.12
12/5/2020 9:45:00 AM 4.27 39.686 0.166 7.64 3.56 13.16
12/5/2020 10:00:00 AM 4.26 39.668 0.166 7.66 3.58 13.22
12/5/2020 10:15:00 AM 4.27 39.686 0.166 7.66 3.64 13.24
12/5/2020 10:30:00 AM 4.27 39.686 0.166 7.68 3.59 13.31
12/5/2020 10:45:00 AM 4.28 39.704 0.166 7.69 3.57 13.42
12/5/2020 11:00:00 AM 4.29 39.722 0.165 7.7 3.65 13.51
12/5/2020 11:15:00 AM 4.33 39.794 0.165 7.75 3.59 13.72
12/5/2020 11:30:00 AM 4.34 39.812 0.165 7.78 3.57 13.82
12/5/2020 11:45:00 AM 4.33 39.794 0.165 7.77 3.6 13.73
12/5/2020 12:00:00 PM 4.32 39.776 0.165 7.78 3.58 13.74
12/5/2020 12:15:00 PM 4.33 39.794 0.165 7.79 3.6 13.84
12/5/2020 12:30:00 PM 4.37 39.866 0.165 7.84 3.75 14.02
12/5/2020 12:45:00 PM 4.42 39.956 0.165 7.9 3.64 14.19
12/5/2020 1:00:00 PM 4.43 39.974 0.165 7.93 3.6 14.26
12/5/2020 1:15:00 PM 4.44 39.992 0.165 7.92 3.66 14.2
12/5/2020 1:30:00 PM 4.44 39.992 0.165 7.92 3.71 14.17
12/5/2020 1:45:00 PM 4.42 39.956 0.165 7.9 3.65 14.06
12/5/2020 2:00:00 PM 4.41 39.938 0.165 7.87 3.69 13.97
12/5/2020 2:15:00 PM 4.42 39.956 0.165 7.88 3.7 13.97
12/5/2020 2:30:00 PM 4.42 39.956 0.165 7.87 3.62 13.94
12/5/2020 2:45:00 PM 4.42 39.956 0.165 7.88 3.59 13.94
12/5/2020 3:00:00 PM 4.41 39.938 0.165 7.88 3.66 13.95
12/5/2020 3:15:00 PM 4.39 39.902 0.165 7.88 3.62 13.91
12/5/2020 3:30:00 PM 4.39 39.902 0.165 7.88 3.73 13.86
12/5/2020 3:45:00 PM 4.37 39.866 0.165 7.86 3.64 13.81
12/5/2020 4:00:00 PM 4.35 39.83 0.165 7.87 3.64 13.8
12/5/2020 4:15:00 PM 4.34 39.812 0.165 7.86 3.72 13.77
12/5/2020 4:30:00 PM 4.33 39.794 0.165 7.83 3.6 13.69
12/5/2020 4:45:00 PM 4.31 39.758 0.165 7.81 3.74 13.58
12/5/2020 5:00:00 PM 4.3 39.74 0.165 7.79 3.79 13.49
12/5/2020 5:15:00 PM 4.28 39.704 0.165 7.76 3.74 13.41
12/5/2020 5:30:00 PM 4.26 39.668 0.166 7.75 3.61 13.36
12/5/2020 5:45:00 PM 4.25 39.65 0.166 7.74 3.69 13.31
12/5/2020 6:00:00 PM 4.22 39.596 0.166 7.73 3.67 13.28
12/5/2020 6:15:00 PM 4.21 39.578 0.166 7.72 3.61 13.25
12/5/2020 6:30:00 PM 4.18 39.524 0.166 7.71 3.66 13.21
12/5/2020 6:45:00 PM 4.16 39.488 0.166 7.71 3.69 13.19
12/5/2020 7:00:00 PM 4.14 39.452 0.166 7.7 3.78 13.17
12/5/2020 7:15:00 PM 4.11 39.398 0.166 7.69 3.7 13.14
12/5/2020 7:30:00 PM 4.08 39.344 0.166 7.68 3.7 13.11
12/5/2020 7:45:00 PM 4.06 39.308 0.166 7.68 3.79 13.11
12/5/2020 8:00:00 PM 4.07 39.326 0.166 7.66 3.66 13.09
12/5/2020 8:15:00 PM 4.07 39.326 0.166 7.66 3.67 13.07
12/5/2020 8:30:00 PM 4.06 39.308 0.166 7.67 3.71 13.07
12/5/2020 8:45:00 PM 4.06 39.308 0.166 7.65 3.64 13.04
12/5/2020 9:00:00 PM 4.04 39.272 0.166 7.66 3.66 13.04
12/5/2020 9:15:00 PM 4.05 39.29 0.166 7.65 3.75 13.02
12/5/2020 9:30:00 PM 4.02 39.236 0.166 7.65 3.62 13.02
12/5/2020 9:45:00 PM 4 39.2 0.166 7.65 3.71 13.01
12/5/2020 10:00:00 PM 3.99 39.182 0.166 7.64 3.72 13
12/5/2020 10:15:00 PM 3.97 39.146 0.166 7.64 3.71 13.01
12/5/2020 10:30:00 PM 3.97 39.146 0.166 7.64 3.7 13.01
12/5/2020 10:45:00 PM 3.96 39.128 0.166 7.64 3.8 13.02
12/5/2020 11:00:00 PM 3.95 39.11 0.166 7.64 3.71 13.01
12/5/2020 11:15:00 PM 3.94 39.092 0.167 7.64 3.61 13.01
12/5/2020 11:30:00 PM 3.92 39.056 0.167 7.63 3.88 13.02
12/5/2020 11:45:00 PM 3.91 39.038 0.167 7.63 3.71 13.01
12/6/2020 12:00:00 AM 3.89 39.002 0.167 7.64 3.71 13.02
12/6/2020 12:15:00 AM 3.89 39.002 0.167 7.64 3.7 13.01
12/6/2020 12:30:00 AM 3.87 38.966 0.167 7.63 3.72 13.03
12/6/2020 12:45:00 AM 3.85 38.93 0.167 7.63 3.86 13.02
12/6/2020 1:00:00 AM 3.83 38.894 0.167 7.63 3.77 13.02
12/6/2020 1:15:00 AM 3.81 38.858 0.167 7.63 3.7 13.04
12/6/2020 1:30:00 AM 3.79 38.822 0.167 7.63 3.68 13.04
12/6/2020 1:45:00 AM 3.77 38.786 0.167 7.63 3.71 13.03
12/6/2020 2:00:00 AM 3.75 38.75 0.167 7.62 3.76 13.03
12/6/2020 2:15:00 AM 3.73 38.714 0.168 7.62 3.75 13.05
12/6/2020 2:30:00 AM 3.7 38.66 0.168 7.62 3.69 13.05
12/6/2020 2:45:00 AM 3.68 38.624 0.168 7.62 3.58 13.05
12/6/2020 3:00:00 AM 3.66 38.588 0.168 7.62 3.73 13.07
12/6/2020 3:15:00 AM 3.64 38.552 0.168 7.62 3.77 13.07
12/6/2020 3:30:00 AM 3.61 38.498 0.168 7.62 3.76 13.07
12/6/2020 3:45:00 AM 3.58 38.444 0.168 7.62 3.65 13.1
12/6/2020 4:00:00 AM 3.57 38.426 0.168 7.62 3.62 13.09
12/6/2020 4:15:00 AM 3.54 38.372 0.168 7.63 3.66 13.09
12/6/2020 4:30:00 AM 3.51 38.318 0.168 7.62 3.66 13.12
12/6/2020 4:45:00 AM 3.49 38.282 0.168 7.62 3.66 13.13
12/6/2020 5:00:00 AM 3.47 38.246 0.168 7.62 3.64 13.12
12/6/2020 5:15:00 AM 3.44 38.192 0.168 7.62 3.74 13.14
12/6/2020 5:30:00 AM 3.4 38.12 0.168 7.62 3.66 13.15
12/6/2020 5:45:00 AM 3.37 38.066 0.169 7.62 3.66 13.18
12/6/2020 6:00:00 AM 3.34 38.012 0.169 7.62 3.61 13.18
12/6/2020 6:15:00 AM 3.32 37.976 0.169 7.62 3.71 13.18
12/6/2020 6:30:00 AM 3.29 37.922 0.169 7.62 3.6 13.19
12/6/2020 6:45:00 AM 3.24 37.832 0.169 7.62 3.65 13.21
12/6/2020 7:00:00 AM 3.23 37.814 0.169 7.62 3.63 13.21
12/6/2020 7:15:00 AM 3.21 37.778 0.169 7.61 3.58 13.23
12/6/2020 7:30:00 AM 3.19 37.742 0.169 7.62 3.58 13.23
12/6/2020 7:45:00 AM 3.16 37.688 0.169 7.62 3.7 13.25
12/6/2020 8:00:00 AM 3.14 37.652 0.169 7.63 3.65 13.3
12/6/2020 8:15:00 AM 3.13 37.634 0.169 7.64 3.66 13.37
12/6/2020 8:30:00 AM 3.1 37.58 0.169 7.65 3.64 13.49
12/6/2020 8:45:00 AM 3.09 37.562 0.169 7.68 3.73 13.64
12/6/2020 9:00:00 AM 3.07 37.526 0.169 7.7 3.62 13.8
12/6/2020 9:15:00 AM 3.07 37.526 0.169 7.73 3.66 13.92
12/6/2020 9:30:00 AM 3.07 37.526 0.169 7.75 3.69 14.02
12/6/2020 9:45:00 AM 3.08 37.544 0.168 7.77 3.75 14.1
12/6/2020 10:00:00 AM 3.08 37.544 0.168 7.79 3.61 14.22
12/6/2020 10:15:00 AM 3.08 37.544 0.168 7.82 3.63 14.31
12/6/2020 10:30:00 AM 3.09 37.562 0.168 7.84 3.71 14.4
12/6/2020 10:45:00 AM 3.1 37.58 0.168 7.86 3.71 14.47
12/6/2020 11:00:00 AM 3.1 37.58 0.168 7.88 3.62 14.54
12/6/2020 11:15:00 AM 3.12 37.616 0.168 7.89 3.6 14.6
12/6/2020 11:30:00 AM 3.13 37.634 0.168 7.92 3.59 14.69
12/6/2020 11:45:00 AM 3.15 37.67 0.168 7.96 3.7 14.79
12/6/2020 12:00:00 PM 3.19 37.742 0.167 7.99 3.75 14.85
12/6/2020 12:15:00 PM 3.22 37.796 0.167 8.03 3.73 14.94
12/6/2020 12:30:00 PM 3.25 37.85 0.167 8.05 3.57 14.99
12/6/2020 12:45:00 PM 3.29 37.922 0.167 8.08 3.62 15.03
12/6/2020 1:00:00 PM 3.32 37.976 0.167 8.12 3.7 15.08
12/6/2020 1:15:00 PM 3.33 37.994 0.167 8.12 3.65 15.04
12/6/2020 1:30:00 PM 3.34 38.012 0.167 8.14 3.68 15.06
12/6/2020 1:45:00 PM 3.35 38.03 0.167 8.14 3.65 15.03
12/6/2020 2:00:00 PM 3.37 38.066 0.167 8.18 4.36 15.08
12/6/2020 2:15:00 PM 3.4 38.12 0.166 8.21 3.7 15.11
12/6/2020 2:30:00 PM 3.4 38.12 0.166 8.22 3.72 15.11
12/6/2020 2:45:00 PM 3.41 38.138 0.166 8.24 3.66 15.11
12/6/2020 3:00:00 PM 3.4 38.12 0.166 8.26 3.6 15.1
12/6/2020 3:15:00 PM 3.39 38.102 0.166 8.26 3.76 15.08
12/6/2020 3:30:00 PM 3.36 38.048 0.166 8.26 3.87 15.03
12/6/2020 3:45:00 PM 3.34 38.012 0.166 8.23 3.62 14.96
12/6/2020 4:00:00 PM 3.32 37.976 0.166 8.21 3.64 14.91
12/6/2020 4:15:00 PM 3.28 37.904 0.166 8.17 3.66 14.8
12/6/2020 4:30:00 PM 3.24 37.832 0.167 8.12 3.66 14.64
12/6/2020 4:45:00 PM 3.22 37.796 0.167 8.06 3.63 14.51
12/6/2020 5:00:00 PM 3.17 37.706 0.167 8 3.67 14.37
12/6/2020 5:15:00 PM 3.15 37.67 0.167 7.97 3.63 14.27
12/6/2020 5:30:00 PM 3.1 37.58 0.167 7.94 3.61 14.2
12/6/2020 5:45:00 PM 3.08 37.544 0.167 7.91 3.61 14.14
12/6/2020 6:00:00 PM 3.05 37.49 0.167 7.89 3.81 14.08
12/6/2020 6:15:00 PM 3.01 37.418 0.167 7.86 3.65 14.04
12/6/2020 6:30:00 PM 2.98 37.364 0.168 7.85 3.62 13.99
12/6/2020 6:45:00 PM 2.96 37.328 0.168 7.83 3.65 13.94
12/6/2020 7:00:00 PM 2.95 37.31 0.168 7.81 3.68 13.88
12/6/2020 7:15:00 PM 2.94 37.292 0.168 7.79 3.66 13.84
12/6/2020 7:30:00 PM 2.93 37.274 0.168 7.78 3.7 13.79
12/6/2020 7:45:00 PM 2.93 37.274 0.168 7.77 3.68 13.74
12/6/2020 8:00:00 PM 2.91 37.238 0.168 7.76 3.69 13.7
12/6/2020 8:15:00 PM 2.9 37.22 0.168 7.74 3.67 13.67
12/6/2020 8:30:00 PM 2.87 37.166 0.168 7.72 3.62 13.64
12/6/2020 8:45:00 PM 2.87 37.166 0.168 7.72 3.63 13.62
12/6/2020 9:00:00 PM 2.84 37.112 0.168 7.71 3.63 13.61
12/6/2020 9:15:00 PM 2.84 37.112 0.168 7.7 3.66 13.59
12/6/2020 9:30:00 PM 2.83 37.094 0.168 7.7 3.87 13.58
12/6/2020 9:45:00 PM 2.83 37.094 0.168 7.69 3.67 13.57
12/6/2020 10:00:00 PM 2.8 37.04 0.168 7.69 3.68 13.56
12/6/2020 10:15:00 PM 2.8 37.04 0.168 7.68 3.71 13.56
12/6/2020 10:30:00 PM 2.79 37.022 0.168 7.69 3.66 13.54
12/6/2020 10:45:00 PM 2.77 36.986 0.168 7.68 3.69 13.54
12/6/2020 11:00:00 PM 2.76 36.968 0.168 7.67 3.68 13.53
12/6/2020 11:15:00 PM 2.74 36.932 0.169 7.68 3.75 13.52
12/6/2020 11:30:00 PM 2.73 36.914 0.169 7.68 3.7 13.54
12/6/2020 11:45:00 PM 2.73 36.914 0.169 7.67 3.72 13.54
12/7/2020 12:00:00 AM 2.73 36.914 0.169 7.67 3.7 13.52
12/7/2020 12:15:00 AM 2.72 36.896 0.169 7.66 3.72 13.51
12/7/2020 12:30:00 AM 2.7 36.86 0.169 7.66 3.7 13.52
12/7/2020 12:45:00 AM 2.69 36.842 0.169 7.66 3.73 13.53
12/7/2020 1:00:00 AM 2.68 36.824 0.169 7.66 3.83 13.52
12/7/2020 1:15:00 AM 2.67 36.806 0.169 7.66 3.62 13.5
12/7/2020 1:30:00 AM 2.64 36.752 0.169 7.65 3.73 13.52
12/7/2020 1:45:00 AM 2.64 36.752 0.169 7.65 3.75 13.51
12/7/2020 2:00:00 AM 2.63 36.734 0.169 7.65 3.77 13.52
12/7/2020 2:15:00 AM 2.61 36.698 0.169 7.65 3.67 13.53
12/7/2020 2:30:00 AM 2.61 36.698 0.169 7.65 3.78 13.51
12/7/2020 2:45:00 AM 2.59 36.662 0.169 7.65 3.63 13.51
12/7/2020 3:00:00 AM 2.57 36.626 0.17 7.65 3.71 13.53
12/7/2020 3:15:00 AM 2.56 36.608 0.17 7.65 3.78 13.52
12/7/2020 3:30:00 AM 2.55 36.59 0.17 7.65 3.69 13.53
12/7/2020 3:45:00 AM 2.53 36.554 0.17 7.65 3.75 13.52
12/7/2020 4:00:00 AM 2.53 36.554 0.17 7.65 3.64 13.53
12/7/2020 4:15:00 AM 2.51 36.518 0.17 7.65 3.74 13.54
12/7/2020 4:30:00 AM 2.5 36.5 0.17 7.65 3.63 13.54
12/7/2020 4:45:00 AM 2.49 36.482 0.17 7.64 3.78 13.54
12/7/2020 5:00:00 AM 2.48 36.464 0.17 7.63 3.7 13.54
12/7/2020 5:15:00 AM 2.47 36.446 0.17 7.63 3.78 13.55
12/7/2020 5:30:00 AM 2.45 36.41 0.17 7.63 3.7 13.55
12/7/2020 5:45:00 AM 2.44 36.392 0.17 7.64 3.71 13.55
12/7/2020 6:00:00 AM 2.41 36.338 0.17 7.64 3.64 13.57
12/7/2020 6:15:00 AM 2.4 36.32 0.17 7.63 3.6 13.56
12/7/2020 6:30:00 AM 2.38 36.284 0.17 7.63 3.7 13.56
12/7/2020 6:45:00 AM 2.37 36.266 0.17 7.63 3.64 13.57
12/7/2020 7:00:00 AM 2.36 36.248 0.17 7.63 3.68 13.58
12/7/2020 7:15:00 AM 2.35 36.23 0.171 7.63 3.67 13.58
12/7/2020 7:30:00 AM 2.34 36.212 0.171 7.63 3.63 13.58
12/7/2020 7:45:00 AM 2.33 36.194 0.171 7.64 3.63 13.61
12/7/2020 8:00:00 AM 2.31 36.158 0.171 7.64 3.64 13.66
12/7/2020 8:15:00 AM 2.31 36.158 0.171 7.65 3.66 13.73
12/7/2020 8:30:00 AM 2.29 36.122 0.171 7.68 3.62 13.83
12/7/2020 8:45:00 AM 2.3 36.14 0.17 7.69 3.58 13.98
12/7/2020 9:00:00 AM 2.32 36.176 0.17 7.71 3.68 14.08
12/7/2020 9:15:00 AM 2.31 36.158 0.17 7.74 3.65 14.24
12/7/2020 9:30:00 AM 2.32 36.176 0.17 7.75 3.71 14.33
12/7/2020 9:45:00 AM 2.33 36.194 0.17 7.77 3.68 14.41
12/7/2020 10:00:00 AM 2.35 36.23 0.17 7.79 3.59 14.51
12/7/2020 10:15:00 AM 2.36 36.248 0.17 7.82 3.6 14.59
12/7/2020 10:30:00 AM 2.39 36.302 0.17 7.86 3.69 14.73
12/7/2020 10:45:00 AM 2.44 36.392 0.17 7.88 3.75 14.82
12/7/2020 11:00:00 AM 2.48 36.464 0.17 7.91 3.6 14.92
12/7/2020 11:15:00 AM 2.55 36.59 0.169 7.94 3.67 15
12/7/2020 11:30:00 AM 2.61 36.698 0.169 7.99 3.63 15.1
12/7/2020 11:45:00 AM 2.67 36.806 0.169 7.99 3.59 15.16
12/7/2020 12:00:00 PM 2.71 36.878 0.169 8.02 3.62 15.21
12/7/2020 12:15:00 PM 2.77 36.986 0.169 8.07 3.67 15.26
12/7/2020 12:30:00 PM 2.82 37.076 0.169 8.08 3.63 15.27
12/7/2020 12:45:00 PM 2.87 37.166 0.168 8.11 3.63 15.32
12/7/2020 1:00:00 PM 2.92 37.256 0.168 8.15 3.65 15.34
12/7/2020 1:15:00 PM 2.95 37.31 0.168 8.16 3.75 15.36
12/7/2020 1:30:00 PM 2.94 37.292 0.168 8.18 3.61 15.36
12/7/2020 1:45:00 PM 2.94 37.292 0.168 8.2 3.74 15.36
12/7/2020 2:00:00 PM 2.95 37.31 0.168 8.22 3.57 15.33
12/7/2020 2:15:00 PM 2.96 37.328 0.168 8.25 4.18 15.36
12/7/2020 2:30:00 PM 2.98 37.364 0.168 8.28 3.65 15.36
12/7/2020 2:45:00 PM 2.98 37.364 0.168 8.28 3.64 15.37
12/7/2020 3:00:00 PM 2.98 37.364 0.168 8.31 3.65 15.34
12/7/2020 3:15:00 PM 2.96 37.328 0.168 8.3 3.63 15.29
12/7/2020 3:30:00 PM 2.94 37.292 0.168 8.29 3.66 15.24
12/7/2020 3:45:00 PM 2.92 37.256 0.168 8.27 3.58 15.16
12/7/2020 4:00:00 PM 2.89 37.202 0.168 8.24 3.6 15.07
12/7/2020 4:15:00 PM 2.87 37.166 0.168 8.19 3.65 14.97
12/7/2020 4:30:00 PM 2.82 37.076 0.168 8.15 3.66 14.83
12/7/2020 4:45:00 PM 2.8 37.04 0.168 8.1 3.65 14.71
12/7/2020 5:00:00 PM 2.74 36.932 0.169 8.05 3.66 14.6
12/7/2020 5:15:00 PM 2.7 36.86 0.169 8 3.69 14.48
12/7/2020 5:30:00 PM 2.68 36.824 0.169 7.97 3.64 14.42
12/7/2020 5:45:00 PM 2.64 36.752 0.169 7.96 3.67 14.36
12/7/2020 6:00:00 PM 2.58 36.644 0.169 7.93 3.68 14.3
12/7/2020 6:15:00 PM 2.55 36.59 0.169 7.91 3.63 14.25
12/7/2020 6:30:00 PM 2.52 36.536 0.169 7.88 3.81 14.19
12/7/2020 6:45:00 PM 2.48 36.464 0.169 7.86 3.67 14.15
12/7/2020 7:00:00 PM 2.47 36.446 0.169 7.84 3.73 14.09
12/7/2020 7:15:00 PM 2.44 36.392 0.17 7.82 3.74 14.05
12/7/2020 7:30:00 PM 2.42 36.356 0.17 7.8 3.65 14
12/7/2020 7:45:00 PM 2.41 36.338 0.17 7.79 4.04 13.95
12/7/2020 8:00:00 PM 2.38 36.284 0.17 7.77 3.69 13.93
12/7/2020 8:15:00 PM 2.35 36.23 0.17 7.77 3.7 13.9
12/7/2020 8:30:00 PM 2.33 36.194 0.17 7.75 3.59 13.86
12/7/2020 8:45:00 PM 2.3 36.14 0.17 7.74 3.68 13.84
12/7/2020 9:00:00 PM 2.3 36.14 0.17 7.72 3.66 13.8
12/7/2020 9:15:00 PM 2.29 36.122 0.17 7.72 3.64 13.79
12/7/2020 9:30:00 PM 2.27 36.086 0.17 7.72 3.62 13.78
12/7/2020 9:45:00 PM 2.27 36.086 0.17 7.7 3.67 13.77
12/7/2020 10:00:00 PM 2.25 36.05 0.17 7.7 3.75 13.76
12/7/2020 10:15:00 PM 2.26 36.068 0.17 7.7 3.65 13.75
12/7/2020 10:30:00 PM 2.24 36.032 0.171 7.69 3.71 13.75
12/7/2020 10:45:00 PM 2.24 36.032 0.171 7.68 3.74 13.73
12/7/2020 11:00:00 PM 2.23 36.014 0.171 7.69 3.66 13.74
12/7/2020 11:15:00 PM 2.23 36.014 0.171 7.69 3.63 13.73
12/7/2020 11:30:00 PM 2.22 35.996 0.171 7.69 3.66 13.71
12/7/2020 11:45:00 PM 2.21 35.978 0.171 7.68 3.72 13.72
12/8/2020 12:00:00 AM 2.2 35.96 0.171 7.68 3.73 13.71
12/8/2020 12:15:00 AM 2.2 35.96 0.171 7.68 3.66 13.71
12/8/2020 12:30:00 AM 2.19 35.942 0.171 7.67 3.63 13.7
12/8/2020 12:45:00 AM 2.17 35.906 0.171 7.68 3.68 13.7
12/8/2020 1:00:00 AM 2.17 35.906 0.171 7.67 3.63 13.7
12/8/2020 1:15:00 AM 2.16 35.888 0.171 7.67 3.61 13.7
12/8/2020 1:30:00 AM 2.16 35.888 0.171 7.67 3.62 13.69
12/8/2020 1:45:00 AM 2.14 35.852 0.171 7.67 3.67 13.71
12/8/2020 2:00:00 AM 2.13 35.834 0.171 7.67 3.83 13.71
12/8/2020 2:15:00 AM 2.12 35.816 0.171 7.67 3.74 13.72
12/8/2020 2:30:00 AM 2.1 35.78 0.172 7.67 3.62 13.71
12/8/2020 2:45:00 AM 2.1 35.78 0.172 7.67 3.63 13.7
12/8/2020 3:00:00 AM 2.08 35.744 0.172 7.66 3.67 13.71
12/8/2020 3:15:00 AM 2.06 35.708 0.172 7.66 3.66 13.71
12/8/2020 3:30:00 AM 2.06 35.708 0.172 7.66 3.72 13.74
12/8/2020 3:45:00 AM 2.05 35.69 0.172 7.66 3.64 13.71
12/8/2020 4:00:00 AM 2.03 35.654 0.172 7.66 3.61 13.72
12/8/2020 4:15:00 AM 2.01 35.618 0.172 7.66 3.64 13.73
12/8/2020 4:30:00 AM 1.98 35.564 0.172 7.66 3.67 13.76
12/8/2020 4:45:00 AM 1.97 35.546 0.172 7.65 3.67 13.75
12/8/2020 5:00:00 AM 1.96 35.528 0.172 7.65 3.65 13.75
12/8/2020 5:15:00 AM 1.93 35.474 0.172 7.65 3.68 13.75
12/8/2020 5:30:00 AM 1.9 35.42 0.172 7.66 3.6 13.77
12/8/2020 5:45:00 AM 1.89 35.402 0.172 7.65 3.58 13.76
12/8/2020 6:00:00 AM 1.88 35.384 0.172 7.65 3.68 13.77
12/8/2020 6:15:00 AM 1.86 35.348 0.172 7.65 3.69 13.77
12/8/2020 6:30:00 AM 1.85 35.33 0.172 7.65 3.87 13.79
12/8/2020 6:45:00 AM 1.84 35.312 0.172 7.65 3.58 13.78
12/8/2020 7:00:00 AM 1.82 35.276 0.173 7.65 3.56 13.78
12/8/2020 7:15:00 AM 1.8 35.24 0.173 7.65 3.72 13.8
12/8/2020 7:30:00 AM 1.77 35.186 0.173 7.66 3.6 13.82
12/8/2020 7:45:00 AM 1.75 35.15 0.173 7.65 3.57 13.84
12/8/2020 8:00:00 AM 1.73 35.114 0.173 7.66 3.63 13.88
12/8/2020 8:15:00 AM 1.72 35.096 0.173 7.66 3.61 13.96
12/8/2020 8:30:00 AM 1.71 35.078 0.173 7.69 3.59 14.09
12/8/2020 8:45:00 AM 1.71 35.078 0.173 7.7 3.7 14.18
12/8/2020 9:00:00 AM 1.72 35.096 0.172 7.73 3.59 14.37
12/8/2020 9:15:00 AM 1.75 35.15 0.172 7.75 3.57 14.52
12/8/2020 9:30:00 AM 1.78 35.204 0.172 7.78 3.56 14.66
12/8/2020 9:45:00 AM 1.8 35.24 0.172 7.82 3.55 14.83
12/8/2020 10:00:00 AM 1.81 35.258 0.172 7.85 3.63 14.93
12/8/2020 10:15:00 AM 1.82 35.276 0.172 7.87 3.61 15
12/8/2020 10:30:00 AM 1.85 35.33 0.172 7.88 3.63 15.07
12/8/2020 10:45:00 AM 1.96 35.528 0.172 7.9 3.58 15.13
12/8/2020 11:00:00 AM 2.06 35.708 0.171 7.93 3.61 15.21
12/8/2020 11:15:00 AM 2.13 35.834 0.171 7.95 3.58 15.25
12/8/2020 11:30:00 AM 2.21 35.978 0.171 7.97 3.54 15.31
12/8/2020 11:45:00 AM 2.3 36.14 0.171 7.99 3.58 15.35
12/8/2020 12:00:00 PM 2.36 36.248 0.171 8.01 3.61 15.36
12/8/2020 12:15:00 PM 2.41 36.338 0.171 8.02 3.57 15.36
12/8/2020 12:30:00 PM 2.47 36.446 0.171 8.05 3.57 15.4
12/8/2020 12:45:00 PM 2.51 36.518 0.17 8.06 3.54 15.41
12/8/2020 1:00:00 PM 2.55 36.59 0.17 8.08 3.62 15.42
12/8/2020 1:15:00 PM 2.58 36.644 0.17 8.09 3.59 15.43
12/8/2020 1:30:00 PM 2.59 36.662 0.17 8.12 3.48 15.43
12/8/2020 1:45:00 PM 2.59 36.662 0.17 8.13 3.55 15.43
12/8/2020 2:00:00 PM 2.58 36.644 0.17 8.16 3.58 15.43
12/8/2020 2:15:00 PM 2.58 36.644 0.17 8.16 3.59 15.41
12/8/2020 2:30:00 PM 2.57 36.626 0.17 8.18 3.61 15.41
12/8/2020 2:45:00 PM 2.56 36.608 0.17 8.17 3.59 15.37
12/8/2020 3:00:00 PM 2.52 36.536 0.17 8.15 3.58 15.31
12/8/2020 3:15:00 PM 2.47 36.446 0.17 8.15 3.6 15.28
12/8/2020 3:30:00 PM 2.42 36.356 0.17 8.13 3.58 15.22
12/8/2020 3:45:00 PM 2.36 36.248 0.17 8.11 3.54 15.16
12/8/2020 4:00:00 PM 2.31 36.158 0.171 8.09 3.55 15.11
12/8/2020 4:15:00 PM 2.25 36.05 0.171 8.05 3.56 14.99
12/8/2020 4:30:00 PM 2.2 35.96 0.171 8 3.56 14.89
12/8/2020 4:45:00 PM 2.13 35.834 0.171 7.97 3.57 14.8
12/8/2020 5:00:00 PM 2.07 35.726 0.171 7.95 3.57 14.71
12/8/2020 5:15:00 PM 1.98 35.564 0.171 7.91 3.52 14.61
12/8/2020 5:30:00 PM 1.91 35.438 0.172 7.88 3.67 14.53
12/8/2020 5:45:00 PM 1.87 35.366 0.172 7.85 3.61 14.48
12/8/2020 6:00:00 PM 1.83 35.294 0.172 7.84 3.68 14.44
12/8/2020 6:15:00 PM 1.78 35.204 0.172 7.82 3.64 14.41
12/8/2020 6:30:00 PM 1.73 35.114 0.172 7.81 3.62 14.38
12/8/2020 6:45:00 PM 1.7 35.06 0.172 7.79 3.64 14.34
12/8/2020 7:00:00 PM 1.67 35.006 0.172 7.78 3.61 14.31
12/8/2020 7:15:00 PM 1.63 34.934 0.172 7.77 3.71 14.28
12/8/2020 7:30:00 PM 1.57 34.826 0.172 7.75 3.62 14.27
12/8/2020 7:45:00 PM 1.56 34.808 0.172 7.74 3.61 14.23
12/8/2020 8:00:00 PM 1.52 34.736 0.172 7.74 3.55 14.21
12/8/2020 8:15:00 PM 1.48 34.664 0.172 7.73 3.59 14.2
12/8/2020 8:30:00 PM 1.42 34.556 0.173 7.72 3.7 14.2
12/8/2020 8:45:00 PM 1.39 34.502 0.173 7.72 3.65 14.19
12/8/2020 9:00:00 PM 1.35 34.43 0.173 7.71 3.58 14.19
12/8/2020 9:15:00 PM 1.31 34.358 0.173 7.7 3.77 14.19
12/8/2020 9:30:00 PM 1.27 34.286 0.173 7.7 3.55 14.18
12/8/2020 9:45:00 PM 1.23 34.214 0.173 7.69 3.64 14.2
12/8/2020 10:00:00 PM 1.19 34.142 0.173 7.69 3.67 14.2
12/8/2020 10:15:00 PM 1.16 34.088 0.173 7.68 3.57 14.21
12/8/2020 10:30:00 PM 1.14 34.052 0.173 7.68 3.63 14.21
12/8/2020 10:45:00 PM 1.11 33.998 0.173 7.68 3.61 14.2
12/8/2020 11:00:00 PM 1.09 33.962 0.173 7.68 3.67 14.21
12/8/2020 11:15:00 PM 1.08 33.944 0.173 7.68 3.66 14.21
12/8/2020 11:30:00 PM 1.06 33.908 0.173 7.68 3.65 14.23
12/8/2020 11:45:00 PM 1.06 33.908 0.173 7.67 3.62 14.21
12/9/2020 12:00:00 AM 1.05 33.89 0.173 7.67 3.56 14.19
12/9/2020 12:15:00 AM 1.04 33.872 0.173 7.66 3.63 14.22
12/9/2020 12:30:00 AM 1.01 33.818 0.173 7.67 3.62 14.2
12/9/2020 12:45:00 AM 1 33.8 0.173 7.67 3.64 14.2
12/9/2020 1:00:00 AM 0.98 33.764 0.173 7.66 3.56 14.24
12/9/2020 1:15:00 AM 0.99 33.782 0.173 7.66 3.56 14.22
12/9/2020 1:30:00 AM 0.98 33.764 0.173 7.66 3.61 14.23
12/9/2020 1:45:00 AM 0.98 33.764 0.173 7.66 3.65 14.23
12/9/2020 2:00:00 AM 0.99 33.782 0.173 7.66 3.62 14.22
12/9/2020 2:15:00 AM 0.98 33.764 0.174 7.65 3.65 14.21
12/9/2020 2:30:00 AM 0.98 33.764 0.174 7.65 3.63 14.22
12/9/2020 2:45:00 AM 0.96 33.728 0.174 7.65 3.68 14.22
12/9/2020 3:00:00 AM 0.97 33.746 0.174 7.65 3.58 14.23
12/9/2020 3:15:00 AM 0.98 33.764 0.174 7.65 3.7 14.21
12/9/2020 3:30:00 AM 0.98 33.764 0.174 7.65 3.7 14.21
12/9/2020 3:45:00 AM 0.99 33.782 0.174 7.64 3.58 14.21
12/9/2020 4:00:00 AM 0.99 33.782 0.174 7.64 3.61 14.19
12/9/2020 4:15:00 AM 0.98 33.764 0.174 7.64 3.64 14.21
12/9/2020 4:30:00 AM 0.98 33.764 0.174 7.65 3.67 14.21
12/9/2020 4:45:00 AM 0.99 33.782 0.174 7.65 3.6 14.2
12/9/2020 5:00:00 AM 0.99 33.782 0.174 7.64 3.55 14.2
12/9/2020 5:15:00 AM 0.99 33.782 0.174 7.65 3.62 14.23
12/9/2020 5:30:00 AM 0.99 33.782 0.174 7.64 3.63 14.2
12/9/2020 5:45:00 AM 1 33.8 0.174 7.64 3.59 14.21
12/9/2020 6:00:00 AM 1 33.8 0.174 7.64 3.56 14.19
12/9/2020 6:15:00 AM 1 33.8 0.174 7.64 3.58 14.2
12/9/2020 6:30:00 AM 1 33.8 0.174 7.64 3.6 14.2
12/9/2020 6:45:00 AM 1.01 33.818 0.174 7.64 3.58 14.2
12/9/2020 7:00:00 AM 1.02 33.836 0.174 7.64 3.66 14.21
12/9/2020 7:15:00 AM 1.01 33.818 0.175 7.65 3.69 14.22
12/9/2020 7:30:00 AM 1.04 33.872 0.174 7.65 3.57 14.18
12/9/2020 7:45:00 AM 1.02 33.836 0.174 7.64 3.62 14.18
12/9/2020 8:00:00 AM 0.97 33.746 0.174 7.65 3.62 14.2
12/9/2020 8:15:00 AM 0.91 33.638 0.174 7.65 3.62 14.24
12/9/2020 8:30:00 AM 0.88 33.584 0.174 7.65 3.61 14.26
12/9/2020 8:45:00 AM 0.83 33.494 0.174 7.66 3.69 14.31
12/9/2020 9:00:00 AM 0.81 33.458 0.174 7.67 3.61 14.37
12/9/2020 9:15:00 AM 0.8 33.44 0.174 7.68 3.68 14.47
12/9/2020 9:30:00 AM 0.81 33.458 0.174 7.69 3.69 14.56
12/9/2020 9:45:00 AM 0.85 33.53 0.174 7.72 3.65 14.66
12/9/2020 10:00:00 AM 0.87 33.566 0.174 7.73 3.59 14.72
12/9/2020 10:15:00 AM 0.84 33.512 0.174 7.75 3.61 14.81
12/9/2020 10:30:00 AM 0.87 33.566 0.174 7.77 3.54 14.94
12/9/2020 10:45:00 AM 0.91 33.638 0.173 7.8 3.59 15.05
12/9/2020 11:00:00 AM 0.93 33.674 0.173 7.81 3.58 15.1
12/9/2020 11:15:00 AM 0.92 33.656 0.173 7.81 3.52 15.14
12/9/2020 11:30:00 AM 0.93 33.674 0.173 7.83 3.56 15.19
12/9/2020 11:45:00 AM 0.95 33.71 0.173 7.85 3.58 15.26
12/9/2020 12:00:00 PM 1.02 33.836 0.173 7.87 3.55 15.39
12/9/2020 12:15:00 PM 1.05 33.89 0.172 7.89 3.48 15.43
12/9/2020 12:30:00 PM 1.06 33.908 0.172 7.9 3.58 15.45
12/9/2020 12:45:00 PM 1.09 33.962 0.172 7.91 3.59 15.44
12/9/2020 1:00:00 PM 1.13 34.034 0.172 7.93 3.57 15.52
12/9/2020 1:15:00 PM 1.15 34.07 0.172 7.96 3.55 15.56
12/9/2020 1:30:00 PM 1.18 34.124 0.172 7.97 3.57 15.59
12/9/2020 1:45:00 PM 1.21 34.178 0.172 7.98 3.6 15.61
12/9/2020 2:00:00 PM 1.23 34.214 0.172 7.99 3.6 15.61
12/9/2020 2:15:00 PM 1.25 34.25 0.172 7.98 3.6 15.58
12/9/2020 2:30:00 PM 1.27 34.286 0.172 7.99 3.63 15.51
12/9/2020 2:45:00 PM 1.29 34.322 0.172 7.98 3.55 15.44
12/9/2020 3:00:00 PM 1.32 34.376 0.172 7.97 3.61 15.42
12/9/2020 3:15:00 PM 1.34 34.412 0.172 7.96 3.56 15.33
12/9/2020 3:30:00 PM 1.36 34.448 0.172 7.94 3.66 15.29
12/9/2020 3:45:00 PM 1.37 34.466 0.172 7.94 3.56 15.2
12/9/2020 4:00:00 PM 1.38 34.484 0.172 7.93 3.6 15.14
12/9/2020 4:15:00 PM 1.38 34.484 0.172 7.91 3.56 15.06
12/9/2020 4:30:00 PM 1.4 34.52 0.172 7.89 3.58 14.98
12/9/2020 4:45:00 PM 1.39 34.502 0.172 7.87 3.58 14.91
12/9/2020 5:00:00 PM 1.41 34.538 0.172 7.86 3.56 14.84
12/9/2020 5:15:00 PM 1.42 34.556 0.172 7.84 3.64 14.76
12/9/2020 5:30:00 PM 1.43 34.574 0.172 7.83 3.59 14.7
12/9/2020 5:45:00 PM 1.43 34.574 0.173 7.82 3.58 14.65
12/9/2020 6:00:00 PM 1.43 34.574 0.173 7.81 3.6 14.6
12/9/2020 6:15:00 PM 1.43 34.574 0.173 7.81 3.52 14.56
12/9/2020 6:30:00 PM 1.44 34.592 0.173 7.8 3.59 14.51
12/9/2020 6:45:00 PM 1.44 34.592 0.173 7.78 3.55 14.47
12/9/2020 7:00:00 PM 1.46 34.628 0.173 7.76 3.61 14.41
12/9/2020 7:15:00 PM 1.47 34.646 0.173 7.75 3.66 14.37
12/9/2020 7:30:00 PM 1.48 34.664 0.173 7.74 3.59 14.34
12/9/2020 7:45:00 PM 1.49 34.682 0.173 7.73 3.58 14.3
12/9/2020 8:00:00 PM 1.5 34.7 0.173 7.73 3.58 14.28
12/9/2020 8:15:00 PM 1.51 34.718 0.173 7.72 3.53 14.24
12/9/2020 8:30:00 PM 1.52 34.736 0.174 7.72 3.62 14.21
12/9/2020 8:45:00 PM 1.52 34.736 0.174 7.71 3.53 14.2
12/9/2020 9:00:00 PM 1.55 34.79 0.174 7.7 3.52 14.16
12/9/2020 9:15:00 PM 1.56 34.808 0.174 7.7 3.58 14.14
12/9/2020 9:30:00 PM 1.57 34.826 0.174 7.7 3.54 14.12
12/9/2020 9:45:00 PM 1.58 34.844 0.174 7.7 3.62 14.11
12/9/2020 10:00:00 PM 1.61 34.898 0.174 7.69 3.56 14.09
12/9/2020 10:15:00 PM 1.62 34.916 0.174 7.69 3.55 14.08
12/9/2020 10:30:00 PM 1.63 34.934 0.174 7.69 3.55 14.07
12/9/2020 10:45:00 PM 1.64 34.952 0.174 7.69 3.53 14.06
12/9/2020 11:00:00 PM 1.65 34.97 0.174 7.68 3.55 14.05
12/9/2020 11:15:00 PM 1.66 34.988 0.174 7.68 3.54 14.04
12/9/2020 11:30:00 PM 1.69 35.042 0.174 7.68 3.58 14.03
12/9/2020 11:45:00 PM 1.7 35.06 0.174 7.68 3.55 14.01
12/10/2020 12:00:00 AM 1.72 35.096 0.174 7.67 3.52 14
12/10/2020 12:15:00 AM 1.73 35.114 0.174 7.68 3.54 13.99
12/10/2020 12:30:00 AM 1.74 35.132 0.174 7.68 3.63 13.98
12/10/2020 12:45:00 AM 1.75 35.15 0.174 7.67 3.55 13.98
12/10/2020 1:00:00 AM 1.76 35.168 0.174 7.67 3.5 13.97
12/10/2020 1:15:00 AM 1.77 35.186 0.174 7.67 3.51 13.97
12/10/2020 1:30:00 AM 1.78 35.204 0.174 7.67 3.61 13.95
12/10/2020 1:45:00 AM 1.79 35.222 0.174 7.67 3.52 13.95
12/10/2020 2:00:00 AM 1.8 35.24 0.174 7.67 3.54 13.93
12/10/2020 2:15:00 AM 1.82 35.276 0.174 7.66 3.53 13.92
12/10/2020 2:30:00 AM 1.82 35.276 0.174 7.66 3.48 13.92
12/10/2020 2:45:00 AM 1.83 35.294 0.175 7.67 3.5 13.93
12/10/2020 3:00:00 AM 1.83 35.294 0.175 7.66 3.49 13.92
12/10/2020 3:15:00 AM 1.83 35.294 0.175 7.66 3.53 13.92
12/10/2020 3:30:00 AM 1.83 35.294 0.175 7.66 3.55 13.92
12/10/2020 3:45:00 AM 1.84 35.312 0.175 7.66 3.46 13.91
12/10/2020 4:00:00 AM 1.85 35.33 0.175 7.66 3.44 13.92
12/10/2020 4:15:00 AM 1.85 35.33 0.175 7.66 3.45 13.91
12/10/2020 4:30:00 AM 1.86 35.348 0.175 7.66 3.46 13.9
12/10/2020 4:45:00 AM 1.86 35.348 0.175 7.66 3.44 13.92
12/10/2020 5:00:00 AM 1.87 35.366 0.175 7.66 3.44 13.91
12/10/2020 5:15:00 AM 1.88 35.384 0.175 7.66 3.55 13.92
12/10/2020 5:30:00 AM 1.88 35.384 0.175 7.66 3.43 13.92
12/10/2020 5:45:00 AM 1.89 35.402 0.175 7.65 3.51 13.92
12/10/2020 6:00:00 AM 1.9 35.42 0.175 7.65 3.52 13.9
12/10/2020 6:15:00 AM 1.91 35.438 0.175 7.65 3.44 13.9
12/10/2020 6:30:00 AM 1.9 35.42 0.175 7.66 3.4 13.92
12/10/2020 6:45:00 AM 1.91 35.438 0.175 7.65 3.43 13.91
12/10/2020 7:00:00 AM 1.91 35.438 0.175 7.65 3.45 13.91
12/10/2020 7:15:00 AM 1.92 35.456 0.175 7.65 3.46 13.9
12/10/2020 7:30:00 AM 1.91 35.438 0.175 7.65 3.41 13.91
12/10/2020 7:45:00 AM 1.91 35.438 0.175 7.65 3.46 13.95
12/10/2020 8:00:00 AM 1.92 35.456 0.175 7.66 3.5 14
12/10/2020 8:15:00 AM 1.93 35.474 0.175 7.67 3.45 14.13
12/10/2020 8:30:00 AM 1.94 35.492 0.175 7.69 3.56 14.27
12/10/2020 8:45:00 AM 1.96 35.528 0.175 7.72 3.66 14.4
12/10/2020 9:00:00 AM 1.99 35.582 0.175 7.75 3.44 14.59
12/10/2020 9:15:00 AM 2.04 35.672 0.174 7.79 3.48 14.75
12/10/2020 9:30:00 AM 2.11 35.798 0.174 7.8 3.46 14.85
12/10/2020 9:45:00 AM 2.19 35.942 0.174 7.84 3.41 15.01
12/10/2020 10:00:00 AM 2.25 36.05 0.174 7.87 3.44 15.06
12/10/2020 10:15:00 AM 2.27 36.086 0.174 7.88 3.49 15.09
12/10/2020 10:30:00 AM 2.33 36.194 0.174 7.9 3.44 15.16
12/10/2020 10:45:00 AM 2.38 36.284 0.174 7.92 3.45 15.21
12/10/2020 11:00:00 AM 2.44 36.392 0.173 7.95 3.41 15.28
12/10/2020 11:15:00 AM 2.51 36.518 0.173 7.98 3.67 15.37
12/10/2020 11:30:00 AM 2.57 36.626 0.173 8 3.39 15.42
12/10/2020 11:45:00 AM 2.62 36.716 0.173 8.03 3.44 15.46
12/10/2020 12:00:00 PM 2.69 36.842 0.173 8.06 3.37 15.5
12/10/2020 12:15:00 PM 2.82 37.076 0.173 8.08 3.39 15.57
12/10/2020 12:30:00 PM 2.88 37.184 0.172 8.11 3.47 15.57
12/10/2020 12:45:00 PM 2.91 37.238 0.172 8.14 3.46 15.61
12/10/2020 1:00:00 PM 2.95 37.31 0.172 8.18 3.41 15.6
12/10/2020 1:15:00 PM 2.96 37.328 0.172 8.17 3.47 15.57
12/10/2020 1:30:00 PM 2.98 37.364 0.172 8.19 3.42 15.6
12/10/2020 1:45:00 PM 3.01 37.418 0.172 8.24 3.49 15.62
12/10/2020 2:00:00 PM 3.03 37.454 0.171 8.25 3.48 15.6
12/10/2020 2:15:00 PM 3.02 37.436 0.171 8.27 3.43 15.57
12/10/2020 2:30:00 PM 3.01 37.418 0.171 8.25 3.48 15.52
12/10/2020 2:45:00 PM 3.05 37.49 0.171 8.27 3.4 15.52
12/10/2020 3:00:00 PM 3.06 37.508 0.171 8.27 3.41 15.5
12/10/2020 3:15:00 PM 3.05 37.49 0.171 8.3 3.42 15.5
12/10/2020 3:30:00 PM 3.04 37.472 0.171 8.28 3.51 15.43
12/10/2020 3:45:00 PM 3.01 37.418 0.171 8.26 3.45 15.36
12/10/2020 4:00:00 PM 2.95 37.31 0.171 8.23 3.52 15.26
12/10/2020 4:15:00 PM 2.92 37.256 0.171 8.19 3.45 15.18
12/10/2020 4:30:00 PM 2.85 37.13 0.172 8.14 3.45 15.05
12/10/2020 4:45:00 PM 2.8 37.04 0.172 8.11 3.47 14.96
12/10/2020 5:00:00 PM 2.72 36.896 0.172 8.05 3.64 14.82
12/10/2020 5:15:00 PM 2.65 36.77 0.172 8.01 3.46 14.73
12/10/2020 5:30:00 PM 2.58 36.644 0.172 7.97 3.48 14.63
12/10/2020 5:45:00 PM 2.5 36.5 0.173 7.93 3.5 14.58
12/10/2020 6:00:00 PM 2.46 36.428 0.173 7.91 3.49 14.52
12/10/2020 6:15:00 PM 2.4 36.32 0.173 7.89 3.6 14.48
12/10/2020 6:30:00 PM 2.34 36.212 0.173 7.86 3.44 14.43
12/10/2020 6:45:00 PM 2.27 36.086 0.173 7.84 3.45 14.4
12/10/2020 7:00:00 PM 2.22 35.996 0.173 7.82 3.46 14.34
12/10/2020 7:15:00 PM 2.16 35.888 0.173 7.81 3.53 14.32
12/10/2020 7:30:00 PM 2.14 35.852 0.174 7.8 3.5 14.29
12/10/2020 7:45:00 PM 2.08 35.744 0.174 7.79 3.47 14.26
12/10/2020 8:00:00 PM 2.05 35.69 0.174 7.78 3.57 14.23
12/10/2020 8:15:00 PM 2.02 35.636 0.174 7.76 3.49 14.2
12/10/2020 8:30:00 PM 2 35.6 0.174 7.75 3.49 14.17
12/10/2020 8:45:00 PM 1.96 35.528 0.174 7.74 3.45 14.17
12/10/2020 9:00:00 PM 1.92 35.456 0.174 7.74 3.55 14.14
12/10/2020 9:15:00 PM 1.89 35.402 0.174 7.73 3.55 14.13
12/10/2020 9:30:00 PM 1.86 35.348 0.174 7.72 3.6 14.12
12/10/2020 9:45:00 PM 1.82 35.276 0.174 7.72 3.47 14.12
12/10/2020 10:00:00 PM 1.81 35.258 0.174 7.71 3.55 14.12
12/10/2020 10:15:00 PM 1.79 35.222 0.174 7.7 3.64 14.1
12/10/2020 10:30:00 PM 1.76 35.168 0.174 7.7 3.61 14.12
12/10/2020 10:45:00 PM 1.73 35.114 0.174 7.7 3.69 14.12
12/10/2020 11:00:00 PM 1.72 35.096 0.174 7.7 3.53 14.1
12/10/2020 11:15:00 PM 1.67 35.006 0.174 7.69 3.58 14.12
12/10/2020 11:30:00 PM 1.64 34.952 0.174 7.69 3.65 14.12
12/10/2020 11:45:00 PM 1.61 34.898 0.174 7.68 3.59 14.13
12/11/2020 12:00:00 AM 1.59 34.862 0.174 7.69 3.55 14.13
12/11/2020 12:15:00 AM 1.55 34.79 0.174 7.68 3.55 14.13
12/11/2020 12:30:00 AM 1.53 34.754 0.174 7.68 3.71 14.13
12/11/2020 12:45:00 AM 1.5 34.7 0.174 7.68 3.62 14.13
12/11/2020 1:00:00 AM 1.47 34.646 0.174 7.68 3.54 14.16
12/11/2020 1:15:00 AM 1.44 34.592 0.175 7.67 3.63 14.16
12/11/2020 1:30:00 AM 1.4 34.52 0.175 7.67 3.54 14.17
12/11/2020 1:45:00 AM 1.36 34.448 0.175 7.67 3.6 14.2
12/11/2020 2:00:00 AM 1.35 34.43 0.175 7.68 3.51 14.19
12/11/2020 2:15:00 AM 1.31 34.358 0.175 7.67 3.64 14.21
12/11/2020 2:30:00 AM 1.28 34.304 0.175 7.67 3.63 14.22
12/11/2020 2:45:00 AM 1.25 34.25 0.175 7.67 3.61 14.23
12/11/2020 3:00:00 AM 1.22 34.196 0.175 7.66 3.56 14.25
12/11/2020 3:15:00 AM 1.19 34.142 0.175 7.66 3.52 14.26
12/11/2020 3:30:00 AM 1.15 34.07 0.175 7.66 3.5 14.27
12/11/2020 3:45:00 AM 1.11 33.998 0.175 7.66 3.67 14.3
12/11/2020 4:00:00 AM 1.08 33.944 0.175 7.66 3.57 14.31
12/11/2020 4:15:00 AM 1.04 33.872 0.175 7.66 3.52 14.32
12/11/2020 4:30:00 AM 1.01 33.818 0.176 7.66 3.5 14.34
12/11/2020 4:45:00 AM 0.98 33.764 0.176 7.66 3.59 14.34
12/11/2020 5:00:00 AM 0.96 33.728 0.176 7.67 3.53 14.35
12/11/2020 5:15:00 AM 0.92 33.656 0.176 7.67 3.54 14.37
12/11/2020 5:30:00 AM 0.89 33.602 0.176 7.67 3.52 14.38
12/11/2020 5:45:00 AM 0.87 33.566 0.176 7.65 3.57 14.4
12/11/2020 6:00:00 AM 0.83 33.494 0.176 7.66 3.61 14.42
12/11/2020 6:15:00 AM 0.81 33.458 0.176 7.66 3.65 14.44
12/11/2020 6:30:00 AM 0.8 33.44 0.176 7.66 3.55 14.44
12/11/2020 6:45:00 AM 0.77 33.386 0.176 7.66 3.55 14.42
12/11/2020 7:00:00 AM 0.76 33.368 0.176 7.67 3.54 14.44
12/11/2020 7:15:00 AM 0.74 33.332 0.176 7.66 3.63 14.46
12/11/2020 7:30:00 AM 0.71 33.278 0.176 7.67 3.62 14.49
12/11/2020 7:45:00 AM 0.69 33.242 0.176 7.67 3.6 14.55
12/11/2020 8:00:00 AM 0.68 33.224 0.176 7.68 3.65 14.61
12/11/2020 8:15:00 AM 0.69 33.242 0.176 7.69 3.61 14.68
12/11/2020 8:30:00 AM 0.68 33.224 0.176 7.71 3.55 14.8
12/11/2020 8:45:00 AM 0.71 33.278 0.176 7.72 3.61 14.93
12/11/2020 9:00:00 AM 0.73 33.314 0.176 7.74 3.63 15.06
12/11/2020 9:15:00 AM 0.78 33.404 0.176 7.77 3.57 15.17
12/11/2020 9:30:00 AM 0.82 33.476 0.176 7.8 3.52 15.34
12/11/2020 9:45:00 AM 0.88 33.584 0.176 7.8 3.54 15.37
12/11/2020 10:00:00 AM 0.92 33.656 0.175 7.83 3.52 15.45
12/11/2020 10:15:00 AM 0.99 33.782 0.175 7.84 3.58 15.5
12/11/2020 10:30:00 AM 1.07 33.926 0.175 7.85 3.53 15.57
12/11/2020 10:45:00 AM 1.18 34.124 0.175 7.88 3.56 15.62
12/11/2020 11:00:00 AM 1.28 34.304 0.175 7.9 3.53 15.69
12/11/2020 11:15:00 AM 1.42 34.556 0.175 7.92 3.67 15.77
12/11/2020 11:30:00 AM 1.49 34.682 0.174 7.95 3.61 15.77
12/11/2020 11:45:00 AM 1.59 34.862 0.174 7.96 3.52 15.79
12/11/2020 12:00:00 PM 1.69 35.042 0.174 7.98 3.65 15.8
12/11/2020 12:15:00 PM 1.72 35.096 0.174 8 3.59 15.82
12/11/2020 12:30:00 PM 1.81 35.258 0.174 8.01 3.54 15.84
12/11/2020 12:45:00 PM 1.94 35.492 0.174 8.05 3.48 15.88
12/11/2020 1:00:00 PM 1.99 35.582 0.173 8.06 3.56 15.87
12/11/2020 1:15:00 PM 2.1 35.78 0.173 8.08 3.59 15.87
12/11/2020 1:30:00 PM 2.17 35.906 0.173 8.11 3.59 15.84
12/11/2020 1:45:00 PM 2.23 36.014 0.173 8.12 3.61 15.83
12/11/2020 2:00:00 PM 2.31 36.158 0.173 8.13 3.47 15.81
12/11/2020 2:15:00 PM 2.4 36.32 0.173 8.17 3.51 15.8
12/11/2020 2:30:00 PM 2.47 36.446 0.173 8.19 3.54 15.77
12/11/2020 2:45:00 PM 2.52 36.536 0.173 8.2 3.58 15.76
12/11/2020 3:00:00 PM 2.59 36.662 0.173 8.25 3.5 15.78
12/11/2020 3:15:00 PM 2.62 36.716 0.173 8.25 3.55 15.69
12/11/2020 3:30:00 PM 2.62 36.716 0.173 8.21 3.47 15.64
12/11/2020 3:45:00 PM 2.61 36.698 0.173 8.18 3.47 15.53
12/11/2020 4:00:00 PM 2.57 36.626 0.173 8.16 3.51 15.41
12/11/2020 4:15:00 PM 2.53 36.554 0.173 8.12 3.55 15.28
12/11/2020 4:30:00 PM 2.49 36.482 0.173 8.08 3.48 15.19
12/11/2020 4:45:00 PM 2.45 36.41 0.173 8.05 3.48 15.09
12/11/2020 5:00:00 PM 2.41 36.338 0.173 8.01 3.49 14.97
12/11/2020 5:15:00 PM 2.35 36.23 0.174 7.96 3.57 14.82
12/11/2020 5:30:00 PM 2.31 36.158 0.174 7.93 3.58 14.74
12/11/2020 5:45:00 PM 2.29 36.122 0.174 7.9 3.55 14.68
12/11/2020 6:00:00 PM 2.26 36.068 0.174 7.89 3.53 14.61
12/11/2020 6:15:00 PM 2.24 36.032 0.174 7.88 3.63 14.57
12/11/2020 6:30:00 PM 2.2 35.96 0.174 7.86 3.56 14.53
12/11/2020 6:45:00 PM 2.17 35.906 0.174 7.84 3.63 14.47
12/11/2020 7:00:00 PM 2.14 35.852 0.174 7.84 3.51 14.41
12/11/2020 7:15:00 PM 2.11 35.798 0.175 7.82 3.53 14.39
12/11/2020 7:30:00 PM 2.09 35.762 0.175 7.81 3.65 14.34
12/11/2020 7:45:00 PM 2.05 35.69 0.175 7.79 3.45 14.3
12/11/2020 8:00:00 PM 2.02 35.636 0.175 7.77 3.5 14.25
12/11/2020 8:15:00 PM 2 35.6 0.175 7.77 3.48 14.22
12/11/2020 8:30:00 PM 1.97 35.546 0.175 7.77 3.47 14.2
12/11/2020 8:45:00 PM 1.96 35.528 0.175 7.75 3.48 14.18
12/11/2020 9:00:00 PM 1.95 35.51 0.175 7.75 3.46 14.17
12/11/2020 9:15:00 PM 1.93 35.474 0.175 7.74 3.46 14.15
12/11/2020 9:30:00 PM 1.92 35.456 0.175 7.73 3.5 14.12
12/11/2020 9:45:00 PM 1.91 35.438 0.176 7.73 3.54 14.11
12/11/2020 10:00:00 PM 1.92 35.456 0.175 7.72 3.56 14.09
12/11/2020 10:15:00 PM 1.94 35.492 0.175 7.71 3.48 14.08
12/11/2020 10:30:00 PM 1.93 35.474 0.175 7.7 3.48 14.06
12/11/2020 10:45:00 PM 1.94 35.492 0.175 7.7 3.49 14.05
12/11/2020 11:00:00 PM 1.95 35.51 0.175 7.71 3.55 14.04
12/11/2020 11:15:00 PM 1.95 35.51 0.175 7.7 3.48 14.03
12/11/2020 11:30:00 PM 1.96 35.528 0.175 7.69 3.47 14.01
12/11/2020 11:45:00 PM 1.96 35.528 0.175 7.69 3.43 14
12/12/2020 12:00:00 AM 1.96 35.528 0.175 7.7 3.44 13.99
12/12/2020 12:15:00 AM 1.96 35.528 0.175 7.68 3.38 14.01
12/12/2020 12:30:00 AM 1.95 35.51 0.175 7.68 3.51 14.01
12/12/2020 12:45:00 AM 1.95 35.51 0.176 7.69 3.43 13.99
12/12/2020 1:00:00 AM 1.96 35.528 0.175 7.68 3.45 13.97
12/12/2020 1:15:00 AM 1.95 35.51 0.175 7.69 3.48 13.96
12/12/2020 1:30:00 AM 1.94 35.492 0.175 7.67 3.47 13.96
12/12/2020 1:45:00 AM 1.92 35.456 0.176 7.67 3.39 13.96
12/12/2020 2:00:00 AM 1.9 35.42 0.176 7.69 3.46 14
12/12/2020 2:15:00 AM 1.91 35.438 0.176 7.67 3.44 13.97
12/12/2020 2:30:00 AM 1.9 35.42 0.176 7.68 3.49 13.96
12/12/2020 2:45:00 AM 1.89 35.402 0.176 7.67 3.4 13.96
12/12/2020 3:00:00 AM 1.88 35.384 0.176 7.67 3.36 13.98
12/12/2020 3:15:00 AM 1.88 35.384 0.176 7.66 3.4 13.96
12/12/2020 3:30:00 AM 1.87 35.366 0.176 7.68 3.42 13.99
12/12/2020 3:45:00 AM 1.87 35.366 0.176 7.67 3.4 13.99
12/12/2020 4:00:00 AM 1.84 35.312 0.176 7.66 3.39 13.98
12/12/2020 4:15:00 AM 1.81 35.258 0.176 7.67 3.4 13.99
12/12/2020 4:30:00 AM 1.79 35.222 0.176 7.67 3.43 14.01
12/12/2020 4:45:00 AM 1.79 35.222 0.176 7.66 3.35 14
12/12/2020 5:00:00 AM 1.75 35.15 0.176 7.67 3.37 14.03
12/12/2020 5:15:00 AM 1.74 35.132 0.176 7.65 3.34 14.01
12/12/2020 5:30:00 AM 1.71 35.078 0.176 7.66 3.37 14.03
12/12/2020 5:45:00 AM 1.7 35.06 0.176 7.66 3.38 14.04
12/12/2020 6:00:00 AM 1.67 35.006 0.176 7.66 3.38 14.03
12/12/2020 6:15:00 AM 1.66 34.988 0.176 7.66 3.39 14.05
12/12/2020 6:30:00 AM 1.64 34.952 0.176 7.66 3.37 14.05
12/12/2020 6:45:00 AM 1.63 34.934 0.176 7.65 3.37 14.06
12/12/2020 7:00:00 AM 1.62 34.916 0.176 7.66 3.43 14.08
12/12/2020 7:15:00 AM 1.62 34.916 0.176 7.66 3.38 14.07
12/12/2020 7:30:00 AM 1.61 34.898 0.176 7.65 3.36 14.08
12/12/2020 7:45:00 AM 1.61 34.898 0.176 7.65 3.37 14.09
12/12/2020 8:00:00 AM 1.62 34.916 0.176 7.66 3.32 14.12
12/12/2020 8:15:00 AM 1.62 34.916 0.176 7.67 3.38 14.18
12/12/2020 8:30:00 AM 1.63 34.934 0.176 7.68 3.36 14.26
12/12/2020 8:45:00 AM 1.65 34.97 0.175 7.7 3.31 14.39
12/12/2020 9:00:00 AM 1.66 34.988 0.175 7.7 3.37 14.43
12/12/2020 9:15:00 AM 1.7 35.06 0.175 7.72 3.44 14.58
12/12/2020 9:30:00 AM 1.73 35.114 0.175 7.75 3.42 14.76
12/12/2020 9:45:00 AM 1.75 35.15 0.175 7.78 3.39 14.87
12/12/2020 10:00:00 AM 1.79 35.222 0.175 7.8 3.38 14.98
12/12/2020 10:15:00 AM 1.84 35.312 0.175 7.82 3.54 15.06
12/12/2020 10:30:00 AM 1.87 35.366 0.174 7.85 3.41 15.16
12/12/2020 10:45:00 AM 1.92 35.456 0.174 7.86 3.35 15.18
12/12/2020 11:00:00 AM 1.97 35.546 0.174 7.88 3.37 15.27
12/12/2020 11:15:00 AM 2.02 35.636 0.174 7.89 3.4 15.25
12/12/2020 11:30:00 AM 2.05 35.69 0.174 7.89 3.38 15.29
12/12/2020 11:45:00 AM 2.09 35.762 0.174 7.91 3.41 15.31
12/12/2020 12:00:00 PM 2.12 35.816 0.174 7.93 3.31 15.35
12/12/2020 12:15:00 PM 2.17 35.906 0.173 7.95 3.32 15.39
12/12/2020 12:30:00 PM 2.21 35.978 0.173 7.98 3.36 15.47
12/12/2020 12:45:00 PM 2.33 36.194 0.173 8 3.43 15.57
12/12/2020 1:00:00 PM 2.5 36.5 0.173 8.05 3.35 15.66
12/12/2020 1:15:00 PM 2.63 36.734 0.172 8.09 3.36 15.7
12/12/2020 1:30:00 PM 2.77 36.986 0.172 8.11 3.36 15.7
12/12/2020 1:45:00 PM 2.89 37.202 0.172 8.16 3.29 15.73
12/12/2020 2:00:00 PM 2.93 37.274 0.172 8.19 3.38 15.68
12/12/2020 2:15:00 PM 3 37.4 0.172 8.2 3.45 15.67
12/12/2020 2:30:00 PM 3.05 37.49 0.172 8.23 3.32 15.67
12/12/2020 2:45:00 PM 3.15 37.67 0.171 8.22 3.41 15.65
12/12/2020 3:00:00 PM 3.18 37.724 0.171 8.25 3.39 15.6
12/12/2020 3:15:00 PM 3.21 37.778 0.172 8.25 3.39 15.57
12/12/2020 3:30:00 PM 3.21 37.778 0.172 8.25 3.45 15.48
12/12/2020 3:45:00 PM 3.21 37.778 0.172 8.22 3.39 15.39
12/12/2020 4:00:00 PM 3.22 37.796 0.172 8.22 3.37 15.31
12/12/2020 4:15:00 PM 3.23 37.814 0.172 8.19 3.37 15.23
12/12/2020 4:30:00 PM 3.24 37.832 0.172 8.16 3.43 15.1
12/12/2020 4:45:00 PM 3.24 37.832 0.172 8.1 3.43 14.91
12/12/2020 5:00:00 PM 3.26 37.868 0.172 8.06 3.43 14.78
12/12/2020 5:15:00 PM 3.24 37.832 0.172 8.03 3.42 14.63
12/12/2020 5:30:00 PM 3.23 37.814 0.172 8 3.51 14.51
12/12/2020 5:45:00 PM 3.24 37.832 0.172 7.97 3.41 14.42
12/12/2020 6:00:00 PM 3.25 37.85 0.172 7.96 3.31 14.35
12/12/2020 6:15:00 PM 3.25 37.85 0.172 7.94 3.42 14.29
12/12/2020 6:30:00 PM 3.26 37.868 0.172 7.93 3.38 14.21
12/12/2020 6:45:00 PM 3.26 37.868 0.172 7.9 3.47 14.15
12/12/2020 7:00:00 PM 3.25 37.85 0.173 7.88 3.5 14.08
12/12/2020 7:15:00 PM 3.27 37.886 0.173 7.86 3.39 14.02
12/12/2020 7:30:00 PM 3.26 37.868 0.173 7.84 3.53 13.95
12/12/2020 7:45:00 PM 3.25 37.85 0.173 7.81 3.56 13.88
12/12/2020 8:00:00 PM 3.25 37.85 0.173 7.81 3.53 13.84
12/12/2020 8:15:00 PM 3.24 37.832 0.173 7.8 3.4 13.79
12/12/2020 8:30:00 PM 3.21 37.778 0.174 7.78 3.4 13.75
12/12/2020 8:45:00 PM 3.2 37.76 0.174 7.77 3.43 13.71
12/12/2020 9:00:00 PM 3.21 37.778 0.174 7.75 3.4 13.67
12/12/2020 9:15:00 PM 3.21 37.778 0.174 7.74 3.43 13.64
12/12/2020 9:30:00 PM 3.22 37.796 0.174 7.73 3.35 13.61
12/12/2020 9:45:00 PM 3.23 37.814 0.174 7.73 3.43 13.58
12/12/2020 10:00:00 PM 3.24 37.832 0.174 7.73 3.44 13.57
12/12/2020 10:15:00 PM 3.24 37.832 0.174 7.72 3.43 13.54
12/12/2020 10:30:00 PM 3.26 37.868 0.174 7.71 3.53 13.51
12/12/2020 10:45:00 PM 3.27 37.886 0.174 7.71 3.4 13.49
12/12/2020 11:00:00 PM 3.29 37.922 0.174 7.7 3.49 13.47
12/12/2020 11:15:00 PM 3.31 37.958 0.174 7.71 3.48 13.44
12/12/2020 11:30:00 PM 3.33 37.994 0.174 7.7 3.41 13.42
12/12/2020 11:45:00 PM 3.33 37.994 0.174 7.7 3.35 13.4
12/13/2020 12:00:00 AM 3.33 37.994 0.174 7.7 3.43 13.39
12/13/2020 12:15:00 AM 3.33 37.994 0.174 7.68 3.4 13.37
12/13/2020 12:30:00 AM 3.32 37.976 0.174 7.69 3.45 13.36
12/13/2020 12:45:00 AM 3.32 37.976 0.174 7.68 3.46 13.35
12/13/2020 1:00:00 AM 3.32 37.976 0.174 7.69 3.39 13.35
12/13/2020 1:15:00 AM 3.33 37.994 0.174 7.67 3.35 13.32
12/13/2020 1:30:00 AM 3.33 37.994 0.174 7.67 3.36 13.31
12/13/2020 1:45:00 AM 3.34 38.012 0.174 7.67 3.47 13.31
12/13/2020 2:00:00 AM 3.34 38.012 0.174 7.67 3.38 13.3
12/13/2020 2:15:00 AM 3.33 37.994 0.174 7.67 3.35 13.3
12/13/2020 2:30:00 AM 3.33 37.994 0.174 7.67 3.43 13.3
12/13/2020 2:45:00 AM 3.32 37.976 0.174 7.67 3.39 13.29
12/13/2020 3:00:00 AM 3.31 37.958 0.174 7.66 3.4 13.29
12/13/2020 3:15:00 AM 3.31 37.958 0.174 7.66 3.4 13.28
12/13/2020 3:30:00 AM 3.3 37.94 0.174 7.67 3.41 13.29
12/13/2020 3:45:00 AM 3.29 37.922 0.174 7.66 3.38 13.27
12/13/2020 4:00:00 AM 3.27 37.886 0.174 7.67 3.35 13.28
12/13/2020 4:15:00 AM 3.26 37.868 0.174 7.66 3.4 13.27
12/13/2020 4:30:00 AM 3.25 37.85 0.174 7.65 3.43 13.27
12/13/2020 4:45:00 AM 3.23 37.814 0.175 7.65 3.41 13.28
12/13/2020 5:00:00 AM 3.2 37.76 0.175 7.66 3.35 13.28
12/13/2020 5:15:00 AM 3.18 37.724 0.175 7.65 3.31 13.28
12/13/2020 5:30:00 AM 3.16 37.688 0.175 7.65 3.42 13.28
12/13/2020 5:45:00 AM 3.13 37.634 0.175 7.66 3.38 13.3
12/13/2020 6:00:00 AM 3.12 37.616 0.175 7.64 3.33 13.3
12/13/2020 6:15:00 AM 3.09 37.562 0.175 7.65 3.35 13.3
12/13/2020 6:30:00 AM 3.07 37.526 0.175 7.64 3.38 13.31
12/13/2020 6:45:00 AM 3.04 37.472 0.175 7.66 3.35 13.32
12/13/2020 7:00:00 AM 3.01 37.418 0.175 7.65 3.36 13.34
12/13/2020 7:15:00 AM 3.01 37.418 0.175 7.65 3.34 13.33
12/13/2020 7:30:00 AM 3 37.4 0.175 7.65 3.34 13.35
12/13/2020 7:45:00 AM 2.98 37.364 0.175 7.66 3.34 13.39
12/13/2020 8:00:00 AM 2.96 37.328 0.175 7.66 3.37 13.47
12/13/2020 8:15:00 AM 2.94 37.292 0.175 7.68 3.4 13.54
12/13/2020 8:30:00 AM 2.93 37.274 0.175 7.69 3.51 13.67
12/13/2020 8:45:00 AM 2.94 37.292 0.175 7.71 3.36 13.83
12/13/2020 9:00:00 AM 2.99 37.382 0.175 7.74 3.45 13.93
12/13/2020 9:15:00 AM 3.05 37.49 0.175 7.74 3.33 13.94
12/13/2020 9:30:00 AM 3.09 37.562 0.174 7.76 3.38 14.02
12/13/2020 9:45:00 AM 3.13 37.634 0.174 7.77 3.39 14.09
12/13/2020 10:00:00 AM 3.18 37.724 0.174 7.8 3.34 14.22
12/13/2020 10:15:00 AM 3.24 37.832 0.174 7.81 3.33 14.28
12/13/2020 10:30:00 AM 3.28 37.904 0.174 7.83 3.39 14.31
12/13/2020 10:45:00 AM 3.32 37.976 0.174 7.85 3.31 14.43
12/13/2020 11:00:00 AM 3.43 38.174 0.174 7.9 3.31 14.65
12/13/2020 11:15:00 AM 3.52 38.336 0.173 7.95 3.36 14.79
12/13/2020 11:30:00 AM 3.61 38.498 0.173 7.99 3.36 14.91
12/13/2020 11:45:00 AM 3.68 38.624 0.173 8.01 3.36 14.99
12/13/2020 12:00:00 PM 3.76 38.768 0.173 8.07 3.47 15.04
12/13/2020 12:15:00 PM 3.83 38.894 0.172 8.07 3.26 15.06
12/13/2020 12:30:00 PM 3.88 38.984 0.172 8.11 3.42 15.11
12/13/2020 12:45:00 PM 3.93 39.074 0.172 8.14 3.3 15.13
12/13/2020 1:00:00 PM 3.97 39.146 0.172 8.12 3.34 15.1
12/13/2020 1:15:00 PM 4 39.2 0.172 8.17 3.34 15.15
12/13/2020 1:30:00 PM 4.08 39.344 0.172 8.19 3.35 15.16
12/13/2020 1:45:00 PM 4.15 39.47 0.172 8.24 3.33 15.2
12/13/2020 2:00:00 PM 4.17 39.506 0.171 8.25 3.35 15.14
12/13/2020 2:15:00 PM 4.18 39.524 0.171 8.22 3.3 15.05
12/13/2020 2:30:00 PM 4.17 39.506 0.171 8.2 3.4 14.93
12/13/2020 2:45:00 PM 4.17 39.506 0.171 8.2 3.29 14.86
12/13/2020 3:00:00 PM 4.17 39.506 0.171 8.16 3.29 14.76
12/13/2020 3:15:00 PM 4.17 39.506 0.171 8.15 3.28 14.73
12/13/2020 3:30:00 PM 4.16 39.488 0.171 8.14 3.3 14.65
12/13/2020 3:45:00 PM 4.14 39.452 0.171 8.12 3.35 14.55
12/13/2020 4:00:00 PM 4.13 39.434 0.171 8.09 3.33 14.45
12/13/2020 4:15:00 PM 4.1 39.38 0.172 8.07 3.38 14.35
12/13/2020 4:30:00 PM 4.08 39.344 0.172 8.04 3.29 14.26
12/13/2020 4:45:00 PM 4.06 39.308 0.172 8.01 3.3 14.18
12/13/2020 5:00:00 PM 4.02 39.236 0.172 7.98 3.38 14.09
12/13/2020 5:15:00 PM 4 39.2 0.172 7.95 3.28 14.01
12/13/2020 5:30:00 PM 3.98 39.164 0.172 7.93 3.38 13.94
12/13/2020 5:45:00 PM 3.96 39.128 0.173 7.9 3.37 13.87
12/13/2020 6:00:00 PM 3.92 39.056 0.173 7.88 3.32 13.82
12/13/2020 6:15:00 PM 3.9 39.02 0.173 7.87 3.57 13.76
12/13/2020 6:30:00 PM 3.88 38.984 0.173 7.84 3.37 13.71
12/13/2020 6:45:00 PM 3.86 38.948 0.173 7.83 3.3 13.65
12/13/2020 7:00:00 PM 3.83 38.894 0.173 7.81 3.45 13.61
12/13/2020 7:15:00 PM 3.82 38.876 0.173 7.79 3.43 13.57
12/13/2020 7:30:00 PM 3.8 38.84 0.173 7.78 3.4 13.53
12/13/2020 7:45:00 PM 3.79 38.822 0.173 7.77 3.35 13.5
12/13/2020 8:00:00 PM 3.77 38.786 0.173 7.76 3.4 13.47
12/13/2020 8:15:00 PM 3.77 38.786 0.173 7.76 3.42 13.43
12/13/2020 8:30:00 PM 3.76 38.768 0.173 7.74 3.36 13.42
12/13/2020 8:45:00 PM 3.74 38.732 0.173 7.75 3.3 13.4
12/13/2020 9:00:00 PM 3.75 38.75 0.173 7.73 3.4 13.36
12/13/2020 9:15:00 PM 3.74 38.732 0.173 7.73 3.31 13.36
12/13/2020 9:30:00 PM 3.74 38.732 0.173 7.72 3.31 13.34
12/13/2020 9:45:00 PM 3.74 38.732 0.173 7.71 3.33 13.33
12/13/2020 10:00:00 PM 3.73 38.714 0.173 7.7 3.51 13.31
12/13/2020 10:15:00 PM 3.72 38.696 0.173 7.71 3.37 13.3
12/13/2020 10:30:00 PM 3.72 38.696 0.173 7.71 3.35 13.29
12/13/2020 10:45:00 PM 3.73 38.714 0.173 7.7 3.4 13.28
12/13/2020 11:00:00 PM 3.72 38.696 0.173 7.7 3.37 13.27
12/13/2020 11:15:00 PM 3.71 38.678 0.173 7.7 3.34 13.27
12/13/2020 11:30:00 PM 3.72 38.696 0.173 7.69 3.37 13.25
12/13/2020 11:45:00 PM 3.72 38.696 0.173 7.69 3.35 13.25
12/14/2020 12:00:00 AM 3.72 38.696 0.173 7.69 3.33 13.24
12/14/2020 12:15:00 AM 3.71 38.678 0.174 7.69 3.34 13.23
12/14/2020 12:30:00 AM 3.7 38.66 0.174 7.7 3.41 13.23
12/14/2020 12:45:00 AM 3.7 38.66 0.174 7.69 3.36 13.21
12/14/2020 1:00:00 AM 3.7 38.66 0.174 7.68 3.43 13.21
12/14/2020 1:15:00 AM 3.7 38.66 0.174 7.68 3.39 13.2
12/14/2020 1:30:00 AM 3.7 38.66 0.174 7.69 3.33 13.2
12/14/2020 1:45:00 AM 3.68 38.624 0.174 7.68 3.33 13.21
12/14/2020 2:00:00 AM 3.68 38.624 0.174 7.68 3.33 13.2
12/14/2020 2:15:00 AM 3.67 38.606 0.174 7.68 3.43 13.19
12/14/2020 2:30:00 AM 3.66 38.588 0.174 7.67 3.42 13.18
12/14/2020 2:45:00 AM 3.65 38.57 0.174 7.66 3.34 13.19
12/14/2020 3:00:00 AM 3.63 38.534 0.174 7.67 3.36 13.2
12/14/2020 3:15:00 AM 3.63 38.534 0.174 7.67 3.34 13.18
12/14/2020 3:30:00 AM 3.61 38.498 0.174 7.67 3.33 13.18
12/14/2020 3:45:00 AM 3.59 38.462 0.174 7.66 3.4 13.17
12/14/2020 4:00:00 AM 3.57 38.426 0.174 7.66 3.58 13.18
12/14/2020 4:15:00 AM 3.57 38.426 0.174 7.66 3.35 13.18
12/14/2020 4:30:00 AM 3.56 38.408 0.174 7.65 3.39 13.17
12/14/2020 4:45:00 AM 3.54 38.372 0.174 7.67 3.34 13.2
12/14/2020 5:00:00 AM 3.54 38.372 0.174 7.66 3.36 13.19
12/14/2020 5:15:00 AM 3.54 38.372 0.174 7.66 3.4 13.17
12/14/2020 5:30:00 AM 3.53 38.354 0.174 7.64 3.39 13.18
12/14/2020 5:45:00 AM 3.53 38.354 0.174 7.65 3.4 13.17
12/14/2020 6:00:00 AM 3.51 38.318 0.174 7.65 3.32 13.17
12/14/2020 6:15:00 AM 3.49 38.282 0.174 7.64 3.29 13.17
12/14/2020 6:30:00 AM 3.48 38.264 0.174 7.65 3.32 13.17
12/14/2020 6:45:00 AM 3.46 38.228 0.174 7.64 3.33 13.16
12/14/2020 7:00:00 AM 3.43 38.174 0.174 7.64 3.43 13.17
12/14/2020 7:15:00 AM 3.39 38.102 0.174 7.64 3.28 13.14
12/14/2020 7:30:00 AM 3.33 37.994 0.174 7.64 3.31 13.17
12/14/2020 7:45:00 AM 3.3 37.94 0.174 7.64 3.34 13.17
12/14/2020 8:00:00 AM 3.26 37.868 0.174 7.64 3.32 13.21
12/14/2020 8:15:00 AM 3.23 37.814 0.174 7.65 3.31 13.25
12/14/2020 8:30:00 AM 3.22 37.796 0.174 7.65 3.36 13.32
12/14/2020 8:45:00 AM 3.21 37.778 0.174 7.66 3.33 13.39
12/14/2020 9:00:00 AM 3.22 37.796 0.174 7.68 3.26 13.5
12/14/2020 9:15:00 AM 3.22 37.796 0.174 7.7 3.3 13.61
12/14/2020 9:30:00 AM 3.21 37.778 0.174 7.72 3.3 13.72
12/14/2020 9:45:00 AM 3.22 37.796 0.173 7.73 3.32 13.79
12/14/2020 10:00:00 AM 3.2 37.76 0.173 7.74 3.34 13.88
12/14/2020 10:15:00 AM 3.2 37.76 0.173 7.75 3.37 13.97
12/14/2020 10:30:00 AM 3.2 37.76 0.173 7.79 3.32 14.07
12/14/2020 10:45:00 AM 3.23 37.814 0.173 7.8 3.27 14.2
12/14/2020 11:00:00 AM 3.25 37.85 0.173 7.84 3.29 14.34
12/14/2020 11:15:00 AM 3.26 37.868 0.172 7.86 3.3 14.39
12/14/2020 11:30:00 AM 3.26 37.868 0.172 7.86 3.31 14.39
12/14/2020 11:45:00 AM 3.28 37.904 0.172 7.87 3.27 14.47
12/14/2020 12:00:00 PM 3.3 37.94 0.172 7.92 3.3 14.6
12/14/2020 12:15:00 PM 3.32 37.976 0.172 7.95 3.29 14.67
12/14/2020 12:30:00 PM 3.36 38.048 0.172 7.95 3.34 14.72
12/14/2020 12:45:00 PM 3.37 38.066 0.172 7.99 3.29 14.77
12/14/2020 1:00:00 PM 3.39 38.102 0.172 7.98 3.4 14.76
12/14/2020 1:15:00 PM 3.4 38.12 0.172 7.97 3.4 14.68
12/14/2020 1:30:00 PM 3.41 38.138 0.172 7.96 3.35 14.62
12/14/2020 1:45:00 PM 3.43 38.174 0.172 7.98 3.43 14.63
12/14/2020 2:00:00 PM 3.43 38.174 0.172 8 3.39 14.64
12/14/2020 2:15:00 PM 3.46 38.228 0.171 8.01 3.34 14.68
12/14/2020 2:30:00 PM 3.47 38.246 0.171 8.03 3.32 14.72
12/14/2020 2:45:00 PM 3.48 38.264 0.171 8.02 3.34 14.71
12/14/2020 3:00:00 PM 3.49 38.282 0.171 8.05 3.37 14.75
12/14/2020 3:15:00 PM 3.5 38.3 0.171 8.05 3.5 14.74
12/14/2020 3:30:00 PM 3.5 38.3 0.171 8.06 3.43 14.69
12/14/2020 3:45:00 PM 3.5 38.3 0.171 8.07 3.42 14.69
12/14/2020 4:00:00 PM 3.5 38.3 0.171 8.04 3.41 14.61
12/14/2020 4:15:00 PM 3.48 38.264 0.171 8.01 3.4 14.49
12/14/2020 4:30:00 PM 3.46 38.228 0.172 7.98 3.38 14.4
12/14/2020 4:45:00 PM 3.44 38.192 0.172 7.95 3.37 14.3
12/14/2020 5:00:00 PM 3.43 38.174 0.172 7.92 3.33 14.18
12/14/2020 5:15:00 PM 3.4 38.12 0.172 7.89 3.37 14.1
12/14/2020 5:30:00 PM 3.33 37.994 0.172 7.88 3.42 14.02
12/14/2020 5:45:00 PM 3.32 37.976 0.172 7.86 3.48 13.99
12/14/2020 6:00:00 PM 3.29 37.922 0.172 7.85 3.46 13.93
12/14/2020 6:15:00 PM 3.26 37.868 0.172 7.85 3.42 13.89
12/14/2020 6:30:00 PM 3.23 37.814 0.172 7.83 3.43 13.85
12/14/2020 6:45:00 PM 3.22 37.796 0.172 7.81 3.55 13.81
12/14/2020 7:00:00 PM 3.2 37.76 0.172 7.81 3.42 13.78
12/14/2020 7:15:00 PM 3.17 37.706 0.173 7.79 3.42 13.75
12/14/2020 7:30:00 PM 3.13 37.634 0.173 7.8 3.48 13.73
12/14/2020 7:45:00 PM 3.1 37.58 0.173 7.78 3.4 13.69
12/14/2020 8:00:00 PM 3.06 37.508 0.173 7.78 3.42 13.67
12/14/2020 8:15:00 PM 3.02 37.436 0.173 7.76 3.49 13.65
12/14/2020 8:30:00 PM 3 37.4 0.173 7.75 3.45 13.63
12/14/2020 8:45:00 PM 2.96 37.328 0.173 7.75 3.4 13.61
12/14/2020 9:00:00 PM 2.93 37.274 0.173 7.73 3.37 13.6
12/14/2020 9:15:00 PM 2.9 37.22 0.173 7.73 3.43 13.59
12/14/2020 9:30:00 PM 2.86 37.148 0.173 7.73 3.44 13.57
12/14/2020 9:45:00 PM 2.83 37.094 0.173 7.73 3.36 13.57
12/14/2020 10:00:00 PM 2.77 36.986 0.174 7.73 3.45 13.57
12/14/2020 10:15:00 PM 2.74 36.932 0.174 7.72 3.43 13.57
12/14/2020 10:30:00 PM 2.69 36.842 0.174 7.73 3.51 13.59
12/14/2020 10:45:00 PM 2.67 36.806 0.174 7.71 3.44 13.59
12/14/2020 11:00:00 PM 2.63 36.734 0.174 7.7 3.42 13.58
12/14/2020 11:15:00 PM 2.58 36.644 0.174 7.72 3.42 13.6
12/14/2020 11:30:00 PM 2.54 36.572 0.174 7.71 3.44 13.6
12/14/2020 11:45:00 PM 2.51 36.518 0.174 7.71 3.52 13.61
12/15/2020 12:00:00 AM 2.5 36.5 0.174 7.7 3.43 13.62
12/15/2020 12:15:00 AM 2.49 36.482 0.174 7.7 3.41 13.63
12/15/2020 12:30:00 AM 2.46 36.428 0.174 7.7 3.38 13.64
12/15/2020 12:45:00 AM 2.45 36.41 0.174 7.7 3.52 13.64
12/15/2020 1:00:00 AM 2.43 36.374 0.174 7.7 3.51 13.65
12/15/2020 1:15:00 AM 2.39 36.302 0.174 7.7 3.42 13.64
12/15/2020 1:30:00 AM 2.36 36.248 0.174 7.69 3.56 13.66
12/15/2020 1:45:00 AM 2.32 36.176 0.174 7.7 3.44 13.67
12/15/2020 2:00:00 AM 2.28 36.104 0.174 7.7 3.46 13.68
12/15/2020 2:15:00 AM 2.25 36.05 0.174 7.69 3.48 13.69
12/15/2020 2:30:00 AM 2.22 35.996 0.174 7.68 3.51 13.69
12/15/2020 2:45:00 AM 2.17 35.906 0.175 7.69 3.48 13.74
12/15/2020 3:00:00 AM 2.13 35.834 0.175 7.7 3.51 13.73
12/15/2020 3:15:00 AM 2.1 35.78 0.175 7.68 3.51 13.76
12/15/2020 3:30:00 AM 2.05 35.69 0.175 7.69 3.46 13.78
12/15/2020 3:45:00 AM 2.02 35.636 0.175 7.69 3.47 13.78
12/15/2020 4:00:00 AM 2.01 35.618 0.175 7.68 3.45 13.78
12/15/2020 4:15:00 AM 1.97 35.546 0.175 7.68 3.43 13.79
12/15/2020 4:30:00 AM 1.93 35.474 0.175 7.68 3.47 13.81
12/15/2020 4:45:00 AM 1.9 35.42 0.175 7.69 3.43 13.84
12/15/2020 5:00:00 AM 1.85 35.33 0.175 7.69 3.38 13.84
12/15/2020 5:15:00 AM 1.82 35.276 0.175 7.69 3.51 13.87
12/15/2020 5:30:00 AM 1.79 35.222 0.175 7.69 3.42 13.87
12/15/2020 5:45:00 AM 1.76 35.168 0.175 7.69 3.51 13.89
12/15/2020 6:00:00 AM 1.72 35.096 0.175 7.68 3.49 13.91
12/15/2020 6:15:00 AM 1.69 35.042 0.175 7.69 3.47 13.93
12/15/2020 6:30:00 AM 1.67 35.006 0.175 7.68 3.46 13.92
12/15/2020 6:45:00 AM 1.64 34.952 0.175 7.68 3.44 13.94
12/15/2020 7:00:00 AM 1.59 34.862 0.176 7.68 3.46 13.98
12/15/2020 7:15:00 AM 1.56 34.808 0.176 7.67 3.42 13.99
12/15/2020 7:30:00 AM 1.52 34.736 0.176 7.68 3.42 14.02
12/15/2020 7:45:00 AM 1.5 34.7 0.176 7.69 3.43 14.06
12/15/2020 8:00:00 AM 1.48 34.664 0.176 7.7 3.43 14.12
12/15/2020 8:15:00 AM 1.46 34.628 0.176 7.71 3.42 14.25
12/15/2020 8:30:00 AM 1.46 34.628 0.176 7.73 3.44 14.37
12/15/2020 8:45:00 AM 1.46 34.628 0.175 7.75 3.42 14.5
12/15/2020 9:00:00 AM 1.48 34.664 0.175 7.77 3.44 14.64
12/15/2020 9:15:00 AM 1.51 34.718 0.175 7.8 3.41 14.82
12/15/2020 9:30:00 AM 1.52 34.736 0.175 7.84 3.43 14.99
12/15/2020 9:45:00 AM 1.53 34.754 0.175 7.85 3.46 15.05
12/15/2020 10:00:00 AM 1.53 34.754 0.175 7.87 3.38 15.13
12/15/2020 10:15:00 AM 1.55 34.79 0.175 7.87 3.47 15.2
12/15/2020 10:30:00 AM 1.6 34.88 0.175 7.91 3.39 15.25
12/15/2020 10:45:00 AM 1.69 35.042 0.175 7.92 3.45 15.33
12/15/2020 11:00:00 AM 1.74 35.132 0.174 7.95 3.41 15.42
12/15/2020 11:15:00 AM 1.82 35.276 0.174 7.96 3.39 15.5
12/15/2020 11:30:00 AM 1.87 35.366 0.174 8.01 3.39 15.61
12/15/2020 11:45:00 AM 1.88 35.384 0.174 8.02 3.41 15.64
12/15/2020 12:00:00 PM 1.89 35.402 0.174 8.04 3.45 15.65
12/15/2020 12:15:00 PM 1.91 35.438 0.174 8.05 3.41 15.68
12/15/2020 12:30:00 PM 1.95 35.51 0.173 8.08 3.35 15.73
12/15/2020 12:45:00 PM 2.01 35.618 0.173 8.1 3.4 15.78
12/15/2020 1:00:00 PM 2.06 35.708 0.173 8.14 3.43 15.83
12/15/2020 1:15:00 PM 2.11 35.798 0.173 8.17 3.39 15.86
12/15/2020 1:30:00 PM 2.13 35.834 0.173 8.18 3.35 15.84
12/15/2020 1:45:00 PM 2.17 35.906 0.173 8.2 3.36 15.89
12/15/2020 2:00:00 PM 2.2 35.96 0.172 8.25 3.36 15.91
12/15/2020 2:15:00 PM 2.22 35.996 0.172 8.28 3.4 15.91
12/15/2020 2:30:00 PM 2.23 36.014 0.172 8.27 3.48 15.89
12/15/2020 2:45:00 PM 2.22 35.996 0.172 8.26 3.47 15.84
12/15/2020 3:00:00 PM 2.23 36.014 0.172 8.29 3.4 15.83
12/15/2020 3:15:00 PM 2.23 36.014 0.172 8.31 3.39 15.79
12/15/2020 3:30:00 PM 2.21 35.978 0.172 8.27 3.39 15.74
12/15/2020 3:45:00 PM 2.19 35.942 0.172 8.26 3.41 15.66
12/15/2020 4:00:00 PM 2.16 35.888 0.172 8.23 3.38 15.55
12/15/2020 4:15:00 PM 2.13 35.834 0.172 8.17 3.48 15.46
12/15/2020 4:30:00 PM 2.08 35.744 0.173 8.16 3.38 15.38
12/15/2020 4:45:00 PM 2.03 35.654 0.173 8.11 3.39 15.26
12/15/2020 5:00:00 PM 2 35.6 0.173 8.08 3.4 15.16
12/15/2020 5:15:00 PM 1.93 35.474 0.173 8.04 3.43 15.06
12/15/2020 5:30:00 PM 1.89 35.402 0.173 8.01 3.53 15
12/15/2020 5:45:00 PM 1.84 35.312 0.173 7.99 3.48 14.96
12/15/2020 6:00:00 PM 1.79 35.222 0.173 7.99 3.44 14.91
12/15/2020 6:15:00 PM 1.72 35.096 0.173 7.95 3.47 14.87
12/15/2020 6:30:00 PM 1.66 34.988 0.174 7.93 3.49 14.83
12/15/2020 6:45:00 PM 1.62 34.916 0.174 7.93 3.47 14.79
12/15/2020 7:00:00 PM 1.58 34.844 0.174 7.9 3.47 14.76
12/15/2020 7:15:00 PM 1.53 34.754 0.174 7.89 3.47 14.71
12/15/2020 7:30:00 PM 1.49 34.682 0.174 7.86 3.45 14.67
12/15/2020 7:45:00 PM 1.43 34.574 0.174 7.84 3.43 14.64
12/15/2020 8:00:00 PM 1.39 34.502 0.175 7.83 3.4 14.6
12/15/2020 8:15:00 PM 1.35 34.43 0.175 7.82 3.46 14.58
12/15/2020 8:30:00 PM 1.31 34.358 0.175 7.82 3.45 14.55
12/15/2020 8:45:00 PM 1.27 34.286 0.175 7.81 3.49 14.54
12/15/2020 9:00:00 PM 1.25 34.25 0.175 7.79 3.43 14.51
12/15/2020 9:15:00 PM 1.21 34.178 0.175 7.79 3.44 14.5
12/15/2020 9:30:00 PM 1.17 34.106 0.175 7.77 3.41 14.48
12/15/2020 9:45:00 PM 1.14 34.052 0.175 7.78 3.5 14.48
12/15/2020 10:00:00 PM 1.11 33.998 0.175 7.76 3.63 14.49
12/15/2020 10:15:00 PM 1.1 33.98 0.175 7.76 3.46 14.48
12/15/2020 10:30:00 PM 1.06 33.908 0.175 7.75 3.5 14.49
12/15/2020 10:45:00 PM 1.05 33.89 0.175 7.75 3.47 14.48
12/15/2020 11:00:00 PM 1.03 33.854 0.175 7.75 3.46 14.47
12/15/2020 11:15:00 PM 1.02 33.836 0.175 7.73 3.49 14.46
12/15/2020 11:30:00 PM 0.99 33.782 0.175 7.73 3.49 14.47
12/15/2020 11:45:00 PM 0.98 33.764 0.175 7.73 3.47 14.47
12/16/2020 12:00:00 AM 0.95 33.71 0.175 7.74 3.51 14.49
12/16/2020 12:15:00 AM 0.94 33.692 0.175 7.72 3.48 14.49
12/16/2020 12:30:00 AM 0.92 33.656 0.175 7.73 3.42 14.48
12/16/2020 12:45:00 AM 0.91 33.638 0.175 7.73 3.48 14.48
12/16/2020 1:00:00 AM 0.88 33.584 0.175 7.72 3.52 14.48
12/16/2020 1:15:00 AM 0.87 33.566 0.175 7.72 3.47 14.48
12/16/2020 1:30:00 AM 0.82 33.476 0.176 7.72 3.51 14.52
12/16/2020 1:45:00 AM 0.8 33.44 0.176 7.72 3.49 14.49
12/16/2020 2:00:00 AM 0.79 33.422 0.176 7.72 3.47 14.52
12/16/2020 2:15:00 AM 0.77 33.386 0.176 7.71 3.48 14.53
12/16/2020 2:30:00 AM 0.74 33.332 0.176 7.71 3.42 14.54
12/16/2020 2:45:00 AM 0.71 33.278 0.176 7.72 3.6 14.53
12/16/2020 3:00:00 AM 0.69 33.242 0.176 7.72 3.44 14.56
12/16/2020 3:15:00 AM 0.68 33.224 0.176 7.71 3.47 14.55
12/16/2020 3:30:00 AM 0.68 33.224 0.176 7.72 3.52 14.56
12/16/2020 3:45:00 AM 0.66 33.188 0.176 7.72 3.57 14.57
12/16/2020 4:00:00 AM 0.66 33.188 0.176 7.71 3.47 14.56
12/16/2020 4:15:00 AM 0.65 33.17 0.176 7.71 3.48 14.56
12/16/2020 4:30:00 AM 0.63 33.134 0.176 7.72 3.47 14.57
12/16/2020 4:45:00 AM 0.6 33.08 0.177 7.72 3.52 14.58
12/16/2020 5:00:00 AM 0.58 33.044 0.177 7.71 3.43 14.59
12/16/2020 5:15:00 AM 0.57 33.026 0.177 7.7 3.51 14.58
12/16/2020 5:30:00 AM 0.56 33.008 0.177 7.7 3.48 14.59
12/16/2020 5:45:00 AM 0.55 32.99 0.177 7.7 3.43 14.59
12/16/2020 6:00:00 AM 0.55 32.99 0.177 7.7 3.54 14.61
12/16/2020 6:15:00 AM 0.53 32.954 0.177 7.69 3.52 14.62
12/16/2020 6:30:00 AM 0.54 32.972 0.177 7.7 3.44 14.62
12/16/2020 6:45:00 AM 0.54 32.972 0.177 7.7 3.43 14.61
12/16/2020 7:00:00 AM 0.53 32.954 0.177 7.7 3.46 14.62
12/16/2020 7:15:00 AM 0.52 32.936 0.177 7.69 3.55 14.63
12/16/2020 7:30:00 AM 0.53 32.954 0.177 7.69 3.48 14.63
12/16/2020 7:45:00 AM 0.53 32.954 0.177 7.69 3.51 14.64
12/16/2020 8:00:00 AM 0.53 32.954 0.177 7.7 3.53 14.69
12/16/2020 8:15:00 AM 0.53 32.954 0.177 7.71 3.44 14.77
12/16/2020 8:30:00 AM 0.54 32.972 0.177 7.72 3.45 14.85
12/16/2020 8:45:00 AM 0.56 33.008 0.177 7.74 3.5 14.96
12/16/2020 9:00:00 AM 0.56 33.008 0.177 7.75 3.4 15.03
12/16/2020 9:15:00 AM 0.57 33.026 0.177 7.77 3.43 15.08
12/16/2020 9:30:00 AM 0.58 33.044 0.177 7.77 3.46 15.14
12/16/2020 9:45:00 AM 0.6 33.08 0.177 7.78 3.51 15.18
12/16/2020 10:00:00 AM 0.61 33.098 0.177 7.79 3.48 15.26
12/16/2020 10:15:00 AM 0.64 33.152 0.177 7.81 3.47 15.38
12/16/2020 10:30:00 AM 0.68 33.224 0.176 7.84 3.47 15.52
12/16/2020 10:45:00 AM 0.62 33.116 0.182 7.14 2.47 14.65
12/16/2020 11:00:00 AM 0.66 33.188 0.182 7.23 0.57 14.71
12/16/2020 11:15:00 AM 0.65 33.17 0.182 7.3 0.82 14.71
12/16/2020 11:30:00 AM 0.66 33.188 0.182 7.39 0.63 14.71
12/16/2020 11:45:00 AM 0.66 33.188 0.182 7.41 0.45 14.68
12/16/2020 12:00:00 PM 0.67 33.206 0.182 7.47 0.48 14.68
12/16/2020 12:15:00 PM 0.67 33.206 0.182 7.49 0.54 14.72
12/16/2020 12:30:00 PM 0.67 33.206 0.182 7.5 0.41 14.73
12/16/2020 12:45:00 PM 0.68 33.224 0.181 7.51 0.46 14.78
12/16/2020 1:00:00 PM 0.67 33.206 0.181 7.55 0.56 14.83
12/16/2020 1:15:00 PM 0.68 33.224 0.181 7.58 0.45 14.87
12/16/2020 1:30:00 PM 0.69 33.242 0.181 7.6 0.46 14.91
12/16/2020 1:45:00 PM 0.69 33.242 0.181 7.61 0.48 14.88
12/16/2020 2:00:00 PM 0.69 33.242 0.181 7.62 0.54 14.83
12/16/2020 2:15:00 PM 0.65 33.17 0.181 7.62 0.51 14.81
12/16/2020 2:30:00 PM 0.63 33.134 0.181 7.6 0.44 14.78
12/16/2020 2:45:00 PM 0.61 33.098 0.181 7.62 0.51 14.74
12/16/2020 3:00:00 PM 0.56 33.008 0.181 7.6 0.44 14.72
12/16/2020 3:15:00 PM 0.54 32.972 0.181 7.58 0.6 14.7
12/16/2020 3:30:00 PM 0.51 32.918 0.181 7.58 0.45 14.65
12/16/2020 3:45:00 PM 0.49 32.882 0.181 7.6 0.5 14.61
12/16/2020 4:00:00 PM 0.47 32.846 0.181 7.59 0.61 14.57
12/16/2020 4:15:00 PM 0.41 32.738 0.181 7.57 0.53 14.51
12/16/2020 4:30:00 PM 0.38 32.684 0.181 7.56 0.51 14.43
12/16/2020 4:45:00 PM 0.36 32.648 0.181 7.58 0.5 14.37
12/16/2020 5:00:00 PM 0.37 32.666 0.181 7.56 0.64 14.32
12/16/2020 5:15:00 PM 0.36 32.648 0.181 7.56 0.59 14.24
12/16/2020 5:30:00 PM 0.36 32.648 0.181 7.53 0.5 14.2
12/16/2020 5:45:00 PM 0.36 32.648 0.181 7.53 0.51 14.15
12/16/2020 6:00:00 PM 0.36 32.648 0.181 7.53 0.51 14.11
12/16/2020 6:15:00 PM 0.36 32.648 0.181 7.53 0.66 14.08
12/16/2020 6:30:00 PM 0.37 32.666 0.181 7.52 0.5 14.05
12/16/2020 6:45:00 PM 0.37 32.666 0.181 7.51 0.47 14.01
12/16/2020 7:00:00 PM 0.35 32.63 0.181 7.5 0.52 13.97
12/16/2020 7:15:00 PM 0.35 32.63 0.181 7.5 0.59 13.94
12/16/2020 7:30:00 PM 0.35 32.63 0.181 7.49 0.52 13.9
12/16/2020 7:45:00 PM 0.36 32.648 0.181 7.49 0.53 13.86
12/16/2020 8:00:00 PM 0.37 32.666 0.181 7.48 0.59 13.82
12/16/2020 8:15:00 PM 0.38 32.684 0.181 7.47 0.61 13.78
12/16/2020 8:30:00 PM 0.39 32.702 0.181 7.45 0.56 13.74
12/16/2020 8:45:00 PM 0.39 32.702 0.181 7.44 0.49 13.7
12/16/2020 9:00:00 PM 0.4 32.72 0.181 7.44 0.52 13.66
12/16/2020 9:15:00 PM 0.42 32.756 0.181 7.44 0.48 13.6
12/16/2020 9:30:00 PM 0.44 32.792 0.181 7.43 0.46 13.57
12/16/2020 9:45:00 PM 0.44 32.792 0.181 7.42 0.44 13.53
12/16/2020 10:00:00 PM 0.43 32.774 0.18 7.41 0.41 13.49
12/16/2020 10:15:00 PM 0.43 32.774 0.18 7.37 0.52 13.44
12/16/2020 10:30:00 PM 0.44 32.792 0.18 7.39 0.39 13.38
12/16/2020 10:45:00 PM 0.46 32.828 0.18 7.38 0.43 13.36
12/16/2020 11:00:00 PM 0.47 32.846 0.18 7.38 0.41 13.33
12/16/2020 11:15:00 PM 0.5 32.9 0.18 7.37 0.37 13.3
12/16/2020 11:30:00 PM 0.52 32.936 0.18 7.32 0.39 13.25
12/16/2020 11:45:00 PM 0.51 32.918 0.18 7.35 0.39 13.23
12/17/2020 12:00:00 AM 0.5 32.9 0.18 7.31 0.44 13.21
12/17/2020 12:15:00 AM 0.5 32.9 0.18 7.34 0.41 13.19
12/17/2020 12:30:00 AM 0.52 32.936 0.18 7.33 0.37 13.15
12/17/2020 12:45:00 AM 0.52 32.936 0.18 7.33 0.41 13.13
12/17/2020 1:00:00 AM 0.53 32.954 0.18 7.28 0.45 13.09
12/17/2020 1:15:00 AM 0.53 32.954 0.18 7.32 0.31 13.08
12/17/2020 1:30:00 AM 0.53 32.954 0.18 7.32 0.39 13.04
12/17/2020 1:45:00 AM 0.53 32.954 0.18 7.31 0.3 12.99
12/17/2020 2:00:00 AM 0.57 33.026 0.18 7.3 0.28 12.93
12/17/2020 2:15:00 AM 0.58 33.044 0.18 7.29 0.29 12.88
12/17/2020 2:30:00 AM 0.6 33.08 0.18 7.28 0.2 12.84
12/17/2020 2:45:00 AM 0.62 33.116 0.179 7.28 0.29 12.8
12/17/2020 3:00:00 AM 0.65 33.17 0.179 7.21 0.21 12.74
12/17/2020 3:15:00 AM 0.67 33.206 0.179 7.25 0.21 12.7
12/17/2020 3:30:00 AM 0.67 33.206 0.179 7.25 0.23 12.68
12/17/2020 3:45:00 AM 0.69 33.242 0.179 7.23 0.14 12.64
12/17/2020 4:00:00 AM 0.73 33.314 0.179 7.24 0.21 12.6
12/17/2020 4:15:00 AM 0.75 33.35 0.179 7.18 0.24 12.56
12/17/2020 4:30:00 AM 0.76 33.368 0.179 7.22 0.11 12.54
12/17/2020 4:45:00 AM 0.78 33.404 0.179 7.22 0.12 12.52
12/17/2020 5:00:00 AM 0.76 33.368 0.179 7.22 0.25 12.53
12/17/2020 5:15:00 AM 0.8 33.44 0.179 7.17 0.1 12.52
12/17/2020 5:30:00 AM 0.77 33.386 0.18 7.22 0.11 12.53
12/17/2020 5:45:00 AM 0.73 33.314 0.18 7.22 0.1 12.54
12/17/2020 6:00:00 AM 0.71 33.278 0.18 7.21 0.19 12.54
12/17/2020 6:15:00 AM 0.71 33.278 0.18 7.22 0.15 12.54
12/17/2020 6:30:00 AM 0.68 33.224 0.18 7.22 0.16 12.57
12/17/2020 6:45:00 AM 0.65 33.17 0.18 7.23 0.17 12.59
12/17/2020 7:00:00 AM 0.61 33.098 0.181 7.22 0.21 12.63
12/17/2020 7:15:00 AM 0.56 33.008 0.181 7.18 0.29 12.69
12/17/2020 7:30:00 AM 0.51 32.918 0.181 7.23 0.36 12.72
12/17/2020 7:45:00 AM 0.48 32.864 0.182 7.24 0.41 12.76
12/17/2020 8:00:00 AM 0.44 32.792 0.182 7.24 0.53 12.8
12/17/2020 8:15:00 AM 0.41 32.738 0.182 7.26 0.47 12.86
12/17/2020 8:30:00 AM 0.39 32.702 0.182 7.27 0.61 12.94
12/17/2020 8:45:00 AM 0.38 32.684 0.182 7.27 0.5 13.02
12/17/2020 9:00:00 AM 0.36 32.648 0.182 7.29 0.59 13.12
12/17/2020 9:15:00 AM 0.36 32.648 0.182 7.3 0.64 13.17
12/17/2020 9:30:00 AM 0.37 32.666 0.181 7.31 0.62 13.26
12/17/2020 9:45:00 AM 0.37 32.666 0.181 7.32 0.7 13.35
12/17/2020 10:00:00 AM 0.36 32.648 0.181 7.34 0.63 13.45
12/17/2020 10:15:00 AM 0.36 32.648 0.181 7.35 0.58 13.5
12/17/2020 10:30:00 AM 0.36 32.648 0.181 7.34 0.56 13.56
12/17/2020 10:45:00 AM 0.36 32.648 0.181 7.37 0.74 13.61
12/17/2020 11:00:00 AM 0.36 32.648 0.181 7.38 0.61 13.67
12/17/2020 11:15:00 AM 0.36 32.648 0.181 7.39 0.57 13.73
12/17/2020 11:30:00 AM 0.35 32.63 0.181 7.4 0.61 13.8
12/17/2020 11:45:00 AM 0.35 32.63 0.181 7.41 0.58 13.85
12/17/2020 12:00:00 PM 0.36 32.648 0.181 7.42 0.69 13.9
12/17/2020 12:15:00 PM 0.36 32.648 0.18 7.43 0.59 13.93
12/17/2020 12:30:00 PM 0.36 32.648 0.18 7.43 0.65 14
12/17/2020 12:45:00 PM 0.37 32.666 0.18 7.44 0.54 14.05
12/17/2020 1:00:00 PM 0.38 32.684 0.18 7.45 0.54 14.1
12/17/2020 1:15:00 PM 0.38 32.684 0.18 7.46 0.7 14.16
12/17/2020 1:30:00 PM 0.39 32.702 0.18 7.47 0.71 14.21
12/17/2020 1:45:00 PM 0.39 32.702 0.179 7.48 0.79 14.27
12/17/2020 2:00:00 PM 0.38 32.684 0.179 7.49 0.56 14.33
12/17/2020 2:15:00 PM 0.38 32.684 0.179 7.5 0.68 14.34
12/17/2020 2:30:00 PM 0.38 32.684 0.179 7.51 0.58 14.35
12/17/2020 2:45:00 PM 0.39 32.702 0.179 7.51 0.62 14.35
12/17/2020 3:00:00 PM 0.38 32.684 0.179 7.51 0.64 14.35
12/17/2020 3:15:00 PM 0.39 32.702 0.179 7.51 0.52 14.33
12/17/2020 3:30:00 PM 0.39 32.702 0.179 7.51 0.56 14.32
12/17/2020 3:45:00 PM 0.39 32.702 0.179 7.51 0.57 14.29
12/17/2020 4:00:00 PM 0.39 32.702 0.179 7.51 0.57 14.27
12/17/2020 4:15:00 PM 0.39 32.702 0.179 7.51 0.72 14.22
12/17/2020 4:30:00 PM 0.4 32.72 0.179 7.5 0.58 14.15
12/17/2020 4:45:00 PM 0.4 32.72 0.179 7.44 0.6 14.08
12/17/2020 5:00:00 PM 0.4 32.72 0.179 7.48 0.58 14.01
12/17/2020 5:15:00 PM 0.4 32.72 0.179 7.46 0.54 13.94
12/17/2020 5:30:00 PM 0.41 32.738 0.179 7.45 0.52 13.87
12/17/2020 5:45:00 PM 0.42 32.756 0.179 7.45 0.54 13.82
12/17/2020 6:00:00 PM 0.42 32.756 0.179 7.42 0.55 13.77
12/17/2020 6:15:00 PM 0.42 32.756 0.179 7.43 0.54 13.72
12/17/2020 6:30:00 PM 0.43 32.774 0.179 7.41 0.54 13.67
12/17/2020 6:45:00 PM 0.43 32.774 0.179 7.41 0.62 13.63
12/17/2020 7:00:00 PM 0.43 32.774 0.179 7.4 0.61 13.59
12/17/2020 7:15:00 PM 0.44 32.792 0.179 7.39 0.56 13.55
12/17/2020 7:30:00 PM 0.44 32.792 0.178 7.37 0.47 13.52
12/17/2020 7:45:00 PM 0.45 32.81 0.178 7.38 0.59 13.48
12/17/2020 8:00:00 PM 0.45 32.81 0.178 7.37 0.7 13.44
12/17/2020 8:15:00 PM 0.46 32.828 0.178 7.36 0.54 13.41
12/17/2020 8:30:00 PM 0.46 32.828 0.178 7.36 0.56 13.38
12/17/2020 8:45:00 PM 0.46 32.828 0.178 7.35 0.52 13.35
12/17/2020 9:00:00 PM 0.46 32.828 0.178 7.35 0.48 13.33
12/17/2020 9:15:00 PM 0.46 32.828 0.178 7.34 0.54 13.32
12/17/2020 9:30:00 PM 0.47 32.846 0.178 7.32 0.54 13.29
12/17/2020 9:45:00 PM 0.47 32.846 0.178 7.33 0.54 13.29
12/17/2020 10:00:00 PM 0.47 32.846 0.178 7.32 0.48 13.27
12/17/2020 10:15:00 PM 0.47 32.846 0.178 7.33 0.47 13.26
12/17/2020 10:30:00 PM 0.47 32.846 0.178 7.32 0.46 13.24
12/17/2020 10:45:00 PM 0.47 32.846 0.178 7.32 0.49 13.22
12/17/2020 11:00:00 PM 0.47 32.846 0.178 7.31 0.52 13.23
12/17/2020 11:15:00 PM 0.47 32.846 0.177 7.27 0.65 13.22
12/17/2020 11:30:00 PM 0.47 32.846 0.177 7.31 0.46 13.22
12/17/2020 11:45:00 PM 0.48 32.864 0.177 7.3 0.45 13.22
12/18/2020 12:00:00 AM 0.48 32.864 0.177 7.29 0.41 13.22
12/18/2020 12:15:00 AM 0.47 32.846 0.177 7.3 0.45 13.21
12/18/2020 12:30:00 AM 0.47 32.846 0.177 7.3 0.47 13.23
12/18/2020 12:45:00 AM 0.46 32.828 0.177 7.3 0.42 13.22
12/18/2020 1:00:00 AM 0.45 32.81 0.177 7.3 0.43 13.22
12/18/2020 1:15:00 AM 0.46 32.828 0.177 7.25 0.44 13.23
12/18/2020 1:30:00 AM 0.45 32.81 0.177 7.29 0.41 13.23
12/18/2020 1:45:00 AM 0.45 32.81 0.177 7.25 0.4 13.22
12/18/2020 2:00:00 AM 0.44 32.792 0.177 7.29 0.45 13.21
12/18/2020 2:15:00 AM 0.44 32.792 0.177 7.26 0.42 13.23
12/18/2020 2:30:00 AM 0.43 32.774 0.177 7.27 0.45 13.23
12/18/2020 2:45:00 AM 0.43 32.774 0.178 7.29 0.4 13.24
12/18/2020 3:00:00 AM 0.42 32.756 0.178 7.27 0.44 13.24
12/18/2020 3:15:00 AM 0.42 32.756 0.178 7.29 0.42 13.24
12/18/2020 3:30:00 AM 0.41 32.738 0.178 7.27 0.44 13.24
12/18/2020 3:45:00 AM 0.41 32.738 0.178 7.28 0.45 13.24
12/18/2020 4:00:00 AM 0.4 32.72 0.178 7.3 0.42 13.25
12/18/2020 4:15:00 AM 0.39 32.702 0.178 7.3 0.49 13.24
12/18/2020 4:30:00 AM 0.39 32.702 0.178 7.3 0.45 13.26
12/18/2020 4:45:00 AM 0.38 32.684 0.178 7.3 0.49 13.25
12/18/2020 5:00:00 AM 0.38 32.684 0.179 7.29 0.5 13.25
12/18/2020 5:15:00 AM 0.38 32.684 0.179 7.29 0.49 13.25
12/18/2020 5:30:00 AM 0.37 32.666 0.179 7.25 0.46 13.25
12/18/2020 5:45:00 AM 0.37 32.666 0.179 7.28 0.5 13.25
12/18/2020 6:00:00 AM 0.37 32.666 0.179 7.3 0.5 13.26
12/18/2020 6:15:00 AM 0.36 32.648 0.179 7.29 0.54 13.26
12/18/2020 6:30:00 AM 0.37 32.666 0.179 7.29 0.51 13.25
12/18/2020 6:45:00 AM 0.37 32.666 0.18 7.29 0.5 13.26
12/18/2020 7:00:00 AM 0.36 32.648 0.18 7.29 0.49 13.26
12/18/2020 7:15:00 AM 0.35 32.63 0.18 7.29 0.6 13.27
12/18/2020 7:30:00 AM 0.36 32.648 0.18 7.29 0.56 13.26
12/18/2020 7:45:00 AM 0.36 32.648 0.18 7.29 0.48 13.27
12/18/2020 8:00:00 AM 0.35 32.63 0.18 7.3 0.54 13.28
12/18/2020 8:15:00 AM 0.35 32.63 0.18 7.3 0.53 13.29
12/18/2020 8:30:00 AM 0.36 32.648 0.18 7.3 0.52 13.3
12/18/2020 8:45:00 AM 0.36 32.648 0.18 7.3 0.54 13.34
12/18/2020 9:00:00 AM 0.35 32.63 0.18 7.3 0.49 13.37
12/18/2020 9:15:00 AM 0.36 32.648 0.18 7.27 0.56 13.41
12/18/2020 9:30:00 AM 0.35 32.63 0.18 7.31 0.57 13.44
12/18/2020 9:45:00 AM 0.35 32.63 0.18 7.32 0.58 13.47
12/18/2020 10:00:00 AM 0.35 32.63 0.18 7.28 0.57 13.51
12/18/2020 10:15:00 AM 0.35 32.63 0.18 7.3 0.59 13.55
12/18/2020 10:30:00 AM 0.35 32.63 0.18 7.33 0.6 13.62
12/18/2020 10:45:00 AM 0.35 32.63 0.18 7.32 0.59 13.66
12/18/2020 11:00:00 AM 0.35 32.63 0.18 7.32 0.6 13.74
12/18/2020 11:15:00 AM 0.35 32.63 0.18 7.34 0.63 13.8
12/18/2020 11:30:00 AM 0.34 32.612 0.18 7.35 0.68 13.86
12/18/2020 11:45:00 AM 0.34 32.612 0.18 7.36 0.76 13.89
12/18/2020 12:00:00 PM 0.33 32.594 0.18 7.37 0.73 13.94
12/18/2020 12:15:00 PM 0.33 32.594 0.18 7.39 0.74 13.96
12/18/2020 12:30:00 PM 0.33 32.594 0.18 7.4 0.7 14.03
12/18/2020 12:45:00 PM 0.33 32.594 0.18 7.38 0.88 14.07
12/18/2020 1:00:00 PM 0.32 32.576 0.18 7.42 0.82 14.11
12/18/2020 1:15:00 PM 0.31 32.558 0.18 7.42 0.77 14.12
12/18/2020 1:30:00 PM 0.3 32.54 0.18 7.43 0.85 14.13
12/18/2020 1:45:00 PM 0.29 32.522 0.18 7.43 0.81 14.14
12/18/2020 2:00:00 PM 0.28 32.504 0.18 7.43 0.88 14.16
12/18/2020 2:15:00 PM 0.26 32.468 0.18 7.44 1.01 14.18
12/18/2020 2:30:00 PM 0.25 32.45 0.18 7.41 1 14.19
12/18/2020 2:45:00 PM 0.24 32.432 0.181 7.44 1.44 14.19
12/18/2020 3:00:00 PM 0.22 32.396 0.181 7.45 1.17 14.22
12/18/2020 3:15:00 PM 0.21 32.378 0.181 7.42 1.28 14.2
12/18/2020 3:30:00 PM 0.2 32.36 0.181 7.44 1.51 14.21
12/18/2020 3:45:00 PM 0.19 32.342 0.181 7.47 1.34 14.21
12/18/2020 4:00:00 PM 0.18 32.324 0.182 7.47 1.39 14.18
12/18/2020 4:15:00 PM 0.17 32.306 0.182 7.47 1.55 14.17
12/18/2020 4:30:00 PM 0.17 32.306 0.182 7.43 1.43 14.13
12/18/2020 4:45:00 PM 0.16 32.288 0.182 7.44 1.55 14.1
12/18/2020 5:00:00 PM 0.15 32.27 0.182 7.46 1.58 14.06
12/18/2020 5:15:00 PM 0.15 32.27 0.182 7.43 1.47 14.03
12/18/2020 5:30:00 PM 0.15 32.27 0.182 7.42 1.59 14
12/18/2020 5:45:00 PM 0.15 32.27 0.182 7.45 1.63 13.97
12/18/2020 6:00:00 PM 0.15 32.27 0.182 7.45 1.74 13.95
12/18/2020 6:15:00 PM 0.15 32.27 0.183 7.42 1.52 13.92
12/18/2020 6:30:00 PM 0.16 32.288 0.183 7.41 1.54 13.88
12/18/2020 6:45:00 PM 0.15 32.27 0.183 7.42 1.48 13.85
12/18/2020 7:00:00 PM 0.15 32.27 0.183 7.4 1.65 13.84
12/18/2020 7:15:00 PM 0.15 32.27 0.183 7.41 1.59 13.82
12/18/2020 7:30:00 PM 0.15 32.27 0.183 7.4 1.52 13.81
12/18/2020 7:45:00 PM 0.16 32.288 0.183 7.39 1.58 13.8
12/18/2020 8:00:00 PM 0.15 32.27 0.183 7.4 1.48 13.78
12/18/2020 8:15:00 PM 0.15 32.27 0.183 7.39 1.46 13.77
12/18/2020 8:30:00 PM 0.15 32.27 0.183 7.38 1.63 13.76
12/18/2020 8:45:00 PM 0.16 32.288 0.183 7.38 1.45 13.74
12/18/2020 9:00:00 PM 0.15 32.27 0.183 7.37 1.45 13.72
12/18/2020 9:15:00 PM 0.15 32.27 0.183 7.37 1.52 13.71
12/18/2020 9:30:00 PM 0.16 32.288 0.183 7.36 1.41 13.69
12/18/2020 9:45:00 PM 0.16 32.288 0.183 7.35 1.36 13.67
12/18/2020 10:00:00 PM 0.15 32.27 0.183 7.35 1.31 13.66
12/18/2020 10:15:00 PM 0.16 32.288 0.184 7.35 1.36 13.63
12/18/2020 10:30:00 PM 0.16 32.288 0.184 7.35 1.31 13.61
12/18/2020 10:45:00 PM 0.16 32.288 0.184 7.34 1.39 13.59
12/18/2020 11:00:00 PM 0.16 32.288 0.184 7.34 1.31 13.58
12/18/2020 11:15:00 PM 0.16 32.288 0.184 7.33 1.23 13.56
12/18/2020 11:30:00 PM 0.17 32.306 0.184 7.32 1.35 13.54
12/18/2020 11:45:00 PM 0.17 32.306 0.185 7.32 1.35 13.52
12/19/2020 12:00:00 AM 0.16 32.288 0.185 7.32 1.26 13.51
12/19/2020 12:15:00 AM 0.17 32.306 0.185 7.31 1.23 13.5
12/19/2020 12:30:00 AM 0.16 32.288 0.185 7.3 1.23 13.48
12/19/2020 12:45:00 AM 0.17 32.306 0.185 7.27 1.34 13.46
12/19/2020 1:00:00 AM 0.17 32.306 0.185 7.3 1.24 13.44
12/19/2020 1:15:00 AM 0.16 32.288 0.185 7.29 1.4 13.44
12/19/2020 1:30:00 AM 0.17 32.306 0.185 7.24 1.26 13.42
12/19/2020 1:45:00 AM 0.17 32.306 0.185 7.29 1.21 13.4
12/19/2020 2:00:00 AM 0.17 32.306 0.185 7.29 1.23 13.39
12/19/2020 2:15:00 AM 0.17 32.306 0.185 7.28 1.23 13.38
12/19/2020 2:30:00 AM 0.17 32.306 0.186 7.27 1.34 13.36
12/19/2020 2:45:00 AM 0.18 32.324 0.186 7.27 1.25 13.35
12/19/2020 3:00:00 AM 0.18 32.324 0.186 7.27 1.2 13.34
12/19/2020 3:15:00 AM 0.17 32.306 0.186 7.26 1.32 13.34
12/19/2020 3:30:00 AM 0.18 32.324 0.186 7.26 1.19 13.33
12/19/2020 3:45:00 AM 0.18 32.324 0.186 7.26 1.26 13.33
12/19/2020 4:00:00 AM 0.18 32.324 0.186 7.26 1.24 13.32
12/19/2020 4:15:00 AM 0.18 32.324 0.186 7.24 1.16 13.3
12/19/2020 4:30:00 AM 0.19 32.342 0.186 7.25 1.24 13.31
12/19/2020 4:45:00 AM 0.18 32.324 0.186 7.21 1.27 13.3
12/19/2020 5:00:00 AM 0.18 32.324 0.186 7.25 1.19 13.31
12/19/2020 5:15:00 AM 0.19 32.342 0.186 7.25 1.32 13.3
12/19/2020 5:30:00 AM 0.18 32.324 0.187 7.24 1.38 13.28
12/19/2020 5:45:00 AM 0.18 32.324 0.187 7.24 1.23 13.27
12/19/2020 6:00:00 AM 0.18 32.324 0.187 7.24 1.24 13.28
12/19/2020 6:15:00 AM 0.19 32.342 0.187 7.24 1.27 13.29
12/19/2020 6:30:00 AM 0.18 32.324 0.187 7.24 1.35 13.29
12/19/2020 6:45:00 AM 0.19 32.342 0.187 7.19 1.25 13.28
12/19/2020 7:00:00 AM 0.18 32.324 0.187 7.23 1.33 13.29
12/19/2020 7:15:00 AM 0.18 32.324 0.187 7.23 1.38 13.28
12/19/2020 7:30:00 AM 0.19 32.342 0.187 7.23 1.31 13.29
12/19/2020 7:45:00 AM 0.18 32.324 0.187 7.23 1.44 13.29
12/19/2020 8:00:00 AM 0.19 32.342 0.188 7.23 1.19 13.31
12/19/2020 8:15:00 AM 0.19 32.342 0.187 7.24 1.36 13.35
12/19/2020 8:30:00 AM 0.19 32.342 0.187 7.21 1.3 13.41
12/19/2020 8:45:00 AM 0.2 32.36 0.187 7.24 1.37 13.44
12/19/2020 9:00:00 AM 0.21 32.378 0.187 7.25 1.19 13.48
12/19/2020 9:15:00 AM 0.21 32.378 0.187 7.25 1.11 13.56
12/19/2020 9:30:00 AM 0.22 32.396 0.187 7.24 1.19 13.63
12/19/2020 9:45:00 AM 0.21 32.378 0.187 7.25 1.16 13.73
12/19/2020 10:00:00 AM 0.23 32.414 0.187 7.27 1.06 13.81
12/19/2020 10:15:00 AM 0.23 32.414 0.187 7.28 1.07 13.91
12/19/2020 10:30:00 AM 0.25 32.45 0.187 7.3 1.08 14
12/19/2020 10:45:00 AM 0.26 32.468 0.186 7.28 1.13 14.04
12/19/2020 11:00:00 AM 0.25 32.45 0.186 7.33 1.18 14.13
12/19/2020 11:15:00 AM 0.26 32.468 0.186 7.33 1 14.21
12/19/2020 11:30:00 AM 0.27 32.486 0.186 7.35 1.06 14.28
12/19/2020 11:45:00 AM 0.28 32.504 0.186 7.36 1.14 14.35
12/19/2020 12:00:00 PM 0.29 32.522 0.186 7.36 0.91 14.42
12/19/2020 12:15:00 PM 0.29 32.522 0.186 7.39 1.08 14.47
12/19/2020 12:30:00 PM 0.29 32.522 0.185 7.4 1.09 14.54
12/19/2020 12:45:00 PM 0.29 32.522 0.185 7.41 0.93 14.58
12/19/2020 1:00:00 PM 0.29 32.522 0.185 7.4 1.06 14.62
12/19/2020 1:15:00 PM 0.3 32.54 0.185 7.43 0.93 14.64
12/19/2020 1:30:00 PM 0.29 32.522 0.185 7.44 0.92 14.69
12/19/2020 1:45:00 PM 0.29 32.522 0.185 7.44 0.96 14.7
12/19/2020 2:00:00 PM 0.29 32.522 0.185 7.46 0.87 14.73
12/19/2020 2:15:00 PM 0.29 32.522 0.185 7.47 0.9 14.74
12/19/2020 2:30:00 PM 0.29 32.522 0.185 7.47 0.83 14.76
12/19/2020 2:45:00 PM 0.29 32.522 0.185 7.47 0.77 14.75
12/19/2020 3:00:00 PM 0.29 32.522 0.185 7.46 0.8 14.75
12/19/2020 3:15:00 PM 0.27 32.486 0.185 7.49 0.77 14.74
12/19/2020 3:30:00 PM 0.28 32.504 0.185 7.49 0.87 14.72
12/19/2020 3:45:00 PM 0.27 32.486 0.185 7.49 0.79 14.71
12/19/2020 4:00:00 PM 0.27 32.486 0.186 7.49 0.77 14.67
12/19/2020 4:15:00 PM 0.26 32.468 0.186 7.49 0.7 14.63
12/19/2020 4:30:00 PM 0.26 32.468 0.186 7.49 0.7 14.54
12/19/2020 4:45:00 PM 0.25 32.45 0.186 7.48 0.72 14.47
12/19/2020 5:00:00 PM 0.24 32.432 0.186 7.47 0.73 14.42
12/19/2020 5:15:00 PM 0.25 32.45 0.186 7.46 0.73 14.35
12/19/2020 5:30:00 PM 0.25 32.45 0.186 7.45 0.68 14.3
12/19/2020 5:45:00 PM 0.25 32.45 0.186 7.43 0.6 14.25
12/19/2020 6:00:00 PM 0.24 32.432 0.186 7.42 0.69 14.21
12/19/2020 6:15:00 PM 0.24 32.432 0.186 7.42 0.7 14.15
12/19/2020 6:30:00 PM 0.24 32.432 0.187 7.4 0.64 14.11
12/19/2020 6:45:00 PM 0.23 32.414 0.187 7.41 0.66 14.08
12/19/2020 7:00:00 PM 0.25 32.45 0.187 7.39 0.77 14.02
12/19/2020 7:15:00 PM 0.24 32.432 0.187 7.38 0.72 14
12/19/2020 7:30:00 PM 0.24 32.432 0.187 7.39 0.66 13.96
12/19/2020 7:45:00 PM 0.24 32.432 0.187 7.36 0.75 13.94
12/19/2020 8:00:00 PM 0.24 32.432 0.187 7.38 0.68 13.91
12/19/2020 8:15:00 PM 0.24 32.432 0.187 7.38 0.65 13.91
12/19/2020 8:30:00 PM 0.23 32.414 0.187 7.37 0.73 13.88
12/19/2020 8:45:00 PM 0.23 32.414 0.187 7.36 0.71 13.87
12/19/2020 9:00:00 PM 0.24 32.432 0.187 7.37 0.72 13.86
12/19/2020 9:15:00 PM 0.24 32.432 0.187 7.36 0.65 13.84
12/19/2020 9:30:00 PM 0.22 32.396 0.188 7.37 0.67 13.83
12/19/2020 9:45:00 PM 0.23 32.414 0.188 7.36 0.65 13.82
12/19/2020 10:00:00 PM 0.24 32.432 0.188 7.36 0.71 13.79
12/19/2020 10:15:00 PM 0.23 32.414 0.188 7.35 0.68 13.78
12/19/2020 10:30:00 PM 0.23 32.414 0.188 7.31 0.72 13.76
12/19/2020 10:45:00 PM 0.23 32.414 0.188 7.33 0.69 13.75
12/19/2020 11:00:00 PM 0.23 32.414 0.188 7.34 0.84 13.74
12/19/2020 11:15:00 PM 0.24 32.432 0.188 7.33 0.81 13.72
12/19/2020 11:30:00 PM 0.24 32.432 0.188 7.31 0.71 13.71
12/19/2020 11:45:00 PM 0.23 32.414 0.188 7.33 0.75 13.7
12/20/2020 12:00:00 AM 0.24 32.432 0.188 7.33 0.7 13.68
12/20/2020 12:15:00 AM 0.24 32.432 0.188 7.32 0.79 13.67
12/20/2020 12:30:00 AM 0.23 32.414 0.188 7.33 0.72 13.67
12/20/2020 12:45:00 AM 0.24 32.432 0.188 7.33 0.73 13.67
12/20/2020 1:00:00 AM 0.24 32.432 0.188 7.32 0.71 13.65
12/20/2020 1:15:00 AM 0.24 32.432 0.188 7.32 0.77 13.65
12/20/2020 1:30:00 AM 0.24 32.432 0.188 7.32 0.91 13.64
12/20/2020 1:45:00 AM 0.25 32.45 0.187 7.32 0.76 13.64
12/20/2020 2:00:00 AM 0.24 32.432 0.187 7.32 0.76 13.63
12/20/2020 2:15:00 AM 0.24 32.432 0.187 7.29 0.79 13.62
12/20/2020 2:30:00 AM 0.24 32.432 0.187 7.32 0.79 13.61
12/20/2020 2:45:00 AM 0.24 32.432 0.187 7.28 0.84 13.62
12/20/2020 3:00:00 AM 0.24 32.432 0.187 7.32 0.7 13.62
12/20/2020 3:15:00 AM 0.24 32.432 0.187 7.31 0.81 13.62
12/20/2020 3:30:00 AM 0.25 32.45 0.186 7.31 0.76 13.61
12/20/2020 3:45:00 AM 0.25 32.45 0.186 7.3 0.78 13.62
12/20/2020 4:00:00 AM 0.24 32.432 0.186 7.29 0.93 13.62
12/20/2020 4:15:00 AM 0.25 32.45 0.186 7.31 0.77 13.62
12/20/2020 4:30:00 AM 0.25 32.45 0.186 7.31 0.96 13.61
12/20/2020 4:45:00 AM 0.25 32.45 0.185 7.31 0.86 13.61
12/20/2020 5:00:00 AM 0.26 32.468 0.185 7.3 0.9 13.6
12/20/2020 5:15:00 AM 0.25 32.45 0.185 7.31 0.86 13.6
12/20/2020 5:30:00 AM 0.25 32.45 0.185 7.3 0.84 13.61
12/20/2020 5:45:00 AM 0.25 32.45 0.185 7.27 0.95 13.6
12/20/2020 6:00:00 AM 0.24 32.432 0.184 7.28 0.97 13.61
12/20/2020 6:15:00 AM 0.25 32.45 0.184 7.31 1.01 13.61
12/20/2020 6:30:00 AM 0.25 32.45 0.184 7.3 0.93 13.61
12/20/2020 6:45:00 AM 0.25 32.45 0.184 7.27 0.88 13.62
12/20/2020 7:00:00 AM 0.25 32.45 0.183 7.28 0.98 13.61
12/20/2020 7:15:00 AM 0.26 32.468 0.183 7.3 1.05 13.61
12/20/2020 7:30:00 AM 0.25 32.45 0.183 7.3 0.92 13.62
12/20/2020 7:45:00 AM 0.25 32.45 0.183 7.3 0.86 13.63
12/20/2020 8:00:00 AM 0.25 32.45 0.182 7.29 0.92 13.63
12/20/2020 8:15:00 AM 0.26 32.468 0.182 7.28 0.97 13.64
12/20/2020 8:30:00 AM 0.26 32.468 0.182 7.29 1.07 13.68
12/20/2020 8:45:00 AM 0.27 32.486 0.182 7.31 0.91 13.76
12/20/2020 9:00:00 AM 0.28 32.504 0.181 7.3 0.98 13.83
12/20/2020 9:15:00 AM 0.28 32.504 0.181 7.34 0.99 13.89
12/20/2020 9:30:00 AM 0.28 32.504 0.181 7.35 0.99 13.92
12/20/2020 9:45:00 AM 0.28 32.504 0.181 7.34 0.95 13.94
12/20/2020 10:00:00 AM 0.28 32.504 0.18 7.35 0.98 13.99
12/20/2020 10:15:00 AM 0.28 32.504 0.18 7.34 0.96 14.06
12/20/2020 10:30:00 AM 0.29 32.522 0.18 7.37 0.89 14.1
12/20/2020 10:45:00 AM 0.29 32.522 0.18 7.38 0.88 14.18
12/20/2020 11:00:00 AM 0.3 32.54 0.179 7.39 0.9 14.22
12/20/2020 11:15:00 AM 0.3 32.54 0.179 7.4 0.8 14.23
12/20/2020 11:30:00 AM 0.31 32.558 0.179 7.37 0.87 14.28
12/20/2020 11:45:00 AM 0.31 32.558 0.179 7.42 0.83 14.35
12/20/2020 12:00:00 PM 0.31 32.558 0.178 7.43 0.78 14.35
12/20/2020 12:15:00 PM 0.3 32.54 0.178 7.44 0.92 14.35
12/20/2020 12:30:00 PM 0.31 32.558 0.178 7.44 0.96 14.39
12/20/2020 12:45:00 PM 0.33 32.594 0.178 7.42 0.89 14.43
12/20/2020 1:00:00 PM 0.33 32.594 0.178 7.45 0.86 14.48
12/20/2020 1:15:00 PM 0.33 32.594 0.177 7.47 0.82 14.48
12/20/2020 1:30:00 PM 0.31 32.558 0.177 7.48 0.91 14.48
12/20/2020 1:45:00 PM 0.31 32.558 0.177 7.45 0.87 14.47
12/20/2020 2:00:00 PM 0.31 32.558 0.177 7.47 0.9 14.5
12/20/2020 2:15:00 PM 0.31 32.558 0.177 7.49 0.83 14.52
12/20/2020 2:30:00 PM 0.32 32.576 0.177 7.48 1.67 14.53
12/20/2020 2:45:00 PM 0.31 32.558 0.176 7.5 0.88 14.5
12/20/2020 3:00:00 PM 0.3 32.54 0.176 7.5 0.81 14.45
12/20/2020 3:15:00 PM 0.3 32.54 0.176 7.48 0.8 14.44
12/20/2020 3:30:00 PM 0.3 32.54 0.176 7.5 0.76 14.43
12/20/2020 3:45:00 PM 0.29 32.522 0.176 7.45 0.84 14.37
12/20/2020 4:00:00 PM 0.29 32.522 0.176 7.49 0.85 14.31
12/20/2020 4:15:00 PM 0.28 32.504 0.176 7.44 0.78 14.24
12/20/2020 4:30:00 PM 0.28 32.504 0.176 7.46 0.86 14.2
12/20/2020 4:45:00 PM 0.28 32.504 0.176 7.47 0.86 14.15
12/20/2020 5:00:00 PM 0.27 32.486 0.176 7.46 0.9 14.09
12/20/2020 5:15:00 PM 0.27 32.486 0.176 7.45 0.86 14.04
12/20/2020 5:30:00 PM 0.27 32.486 0.176 7.44 0.87 14
12/20/2020 5:45:00 PM 0.26 32.468 0.176 7.43 0.73 13.97
12/20/2020 6:00:00 PM 0.27 32.486 0.176 7.42 0.79 13.93
12/20/2020 6:15:00 PM 0.26 32.468 0.176 7.42 0.8 13.9
12/20/2020 6:30:00 PM 0.27 32.486 0.176 7.41 0.77 13.88
12/20/2020 6:45:00 PM 0.27 32.486 0.176 7.41 0.83 13.85
12/20/2020 7:00:00 PM 0.26 32.468 0.176 7.4 0.7 13.83
12/20/2020 7:15:00 PM 0.26 32.468 0.176 7.4 0.68 13.82
12/20/2020 7:30:00 PM 0.26 32.468 0.176 7.38 0.8 13.81
12/20/2020 7:45:00 PM 0.26 32.468 0.176 7.37 0.74 13.8
12/20/2020 8:00:00 PM 0.26 32.468 0.176 7.38 0.67 13.78
12/20/2020 8:15:00 PM 0.26 32.468 0.176 7.36 0.83 13.77
12/20/2020 8:30:00 PM 0.26 32.468 0.176 7.36 0.75 13.76
12/20/2020 8:45:00 PM 0.25 32.45 0.176 7.37 0.73 13.76
12/20/2020 9:00:00 PM 0.25 32.45 0.176 7.33 0.72 13.74
12/20/2020 9:15:00 PM 0.24 32.432 0.176 7.36 0.74 13.74
12/20/2020 9:30:00 PM 0.25 32.45 0.176 7.33 0.72 13.73
12/20/2020 9:45:00 PM 0.24 32.432 0.176 7.34 0.77 13.73
12/20/2020 10:00:00 PM 0.25 32.45 0.176 7.35 0.74 13.71
12/20/2020 10:15:00 PM 0.25 32.45 0.176 7.32 0.79 13.7
12/20/2020 10:30:00 PM 0.25 32.45 0.176 7.33 0.76 13.7
12/20/2020 10:45:00 PM 0.25 32.45 0.176 7.33 0.8 13.7
12/20/2020 11:00:00 PM 0.25 32.45 0.176 7.33 0.77 13.7
12/20/2020 11:15:00 PM 0.25 32.45 0.176 7.33 0.71 13.7
12/20/2020 11:30:00 PM 0.26 32.468 0.176 7.32 0.7 13.69
12/20/2020 11:45:00 PM 0.25 32.45 0.176 7.34 0.75 13.68
12/21/2020 12:00:00 AM 0.26 32.468 0.176 7.3 0.86 13.68
12/21/2020 12:15:00 AM 0.26 32.468 0.176 7.31 0.75 13.66
12/21/2020 12:30:00 AM 0.25 32.45 0.176 7.33 0.69 13.66
12/21/2020 12:45:00 AM 0.26 32.468 0.176 7.33 0.73 13.67
12/21/2020 1:00:00 AM 0.26 32.468 0.176 7.33 0.7 13.66
12/21/2020 1:15:00 AM 0.25 32.45 0.176 7.33 0.71 13.66
12/21/2020 1:30:00 AM 0.25 32.45 0.176 7.33 0.95 13.66
12/21/2020 1:45:00 AM 0.25 32.45 0.176 7.33 0.82 13.66
12/21/2020 2:00:00 AM 0.25 32.45 0.176 7.33 0.72 13.67
12/21/2020 2:15:00 AM 0.26 32.468 0.175 7.32 0.8 13.65
12/21/2020 2:30:00 AM 0.25 32.45 0.175 7.32 0.76 13.65
12/21/2020 2:45:00 AM 0.25 32.45 0.175 7.32 0.69 13.65
12/21/2020 3:00:00 AM 0.25 32.45 0.175 7.32 0.73 13.66
12/21/2020 3:15:00 AM 0.25 32.45 0.175 7.28 0.74 13.65
12/21/2020 3:30:00 AM 0.25 32.45 0.175 7.32 0.83 13.65
12/21/2020 3:45:00 AM 0.24 32.432 0.175 7.28 0.8 13.65
12/21/2020 4:00:00 AM 0.24 32.432 0.175 7.32 0.76 13.65
12/21/2020 4:15:00 AM 0.23 32.414 0.175 7.3 0.82 13.65
12/21/2020 4:30:00 AM 0.23 32.414 0.175 7.31 0.83 13.65
12/21/2020 4:45:00 AM 0.24 32.432 0.175 7.29 0.8 13.65
12/21/2020 5:00:00 AM 0.22 32.396 0.175 7.31 0.83 13.66
12/21/2020 5:15:00 AM 0.22 32.396 0.175 7.3 0.9 13.65
12/21/2020 5:30:00 AM 0.22 32.396 0.175 7.31 0.87 13.66
12/21/2020 5:45:00 AM 0.21 32.378 0.175 7.31 1.02 13.66
12/21/2020 6:00:00 AM 0.22 32.396 0.175 7.29 0.86 13.65
12/21/2020 6:15:00 AM 0.24 32.432 0.175 7.29 0.92 13.65
12/21/2020 6:30:00 AM 0.23 32.414 0.175 7.29 0.84 13.65
12/21/2020 6:45:00 AM 0.22 32.396 0.175 7.29 1 13.66
12/21/2020 7:00:00 AM 0.23 32.414 0.175 7.3 0.91 13.66
12/21/2020 7:15:00 AM 0.23 32.414 0.175 7.31 0.76 13.65
12/21/2020 7:30:00 AM 0.23 32.414 0.175 7.31 0.89 13.64
12/21/2020 7:45:00 AM 0.23 32.414 0.175 7.31 0.97 13.67
12/21/2020 8:00:00 AM 0.23 32.414 0.175 7.31 1.05 13.68
12/21/2020 8:15:00 AM 0.23 32.414 0.175 7.32 0.85 13.72
12/21/2020 8:30:00 AM 0.23 32.414 0.175 7.29 0.85 13.76
12/21/2020 8:45:00 AM 0.23 32.414 0.175 7.33 0.89 13.8
12/21/2020 9:00:00 AM 0.24 32.432 0.175 7.33 0.92 13.86
12/21/2020 9:15:00 AM 0.25 32.45 0.174 7.34 0.83 13.93
12/21/2020 9:30:00 AM 0.26 32.468 0.174 7.35 0.92 14
12/21/2020 9:45:00 AM 0.26 32.468 0.174 7.34 0.86 14.04
12/21/2020 10:00:00 AM 0.27 32.486 0.174 7.35 0.8 14.09
12/21/2020 10:15:00 AM 0.27 32.486 0.174 7.38 0.81 14.15
12/21/2020 10:30:00 AM 0.29 32.522 0.174 7.39 0.93 14.22
12/21/2020 10:45:00 AM 0.3 32.54 0.174 7.41 0.93 14.27
12/21/2020 11:00:00 AM 0.31 32.558 0.174 7.38 0.8 14.33
12/21/2020 11:15:00 AM 0.32 32.576 0.174 7.43 1.07 14.39
12/21/2020 11:30:00 AM 0.33 32.594 0.174 7.45 0.92 14.44
12/21/2020 11:45:00 AM 0.34 32.612 0.174 7.46 1.01 14.47
12/21/2020 12:00:00 PM 0.34 32.612 0.173 7.47 0.81 14.5
12/21/2020 12:15:00 PM 0.35 32.63 0.173 7.44 0.83 14.55
12/21/2020 12:30:00 PM 0.35 32.63 0.173 7.49 0.81 14.58
12/21/2020 12:45:00 PM 0.34 32.612 0.173 7.5 0.9 14.61
12/21/2020 1:00:00 PM 0.33 32.594 0.173 7.51 0.86 14.61
12/21/2020 1:15:00 PM 0.32 32.576 0.173 7.49 0.81 14.59
12/21/2020 1:30:00 PM 0.32 32.576 0.173 7.52 0.93 14.59
12/21/2020 1:45:00 PM 0.31 32.558 0.173 7.53 0.97 14.6
12/21/2020 2:00:00 PM 0.3 32.54 0.173 7.54 1.02 14.58
12/21/2020 2:15:00 PM 0.31 32.558 0.173 7.5 1.08 14.56
12/21/2020 2:30:00 PM 0.3 32.54 0.173 7.55 0.91 14.56
12/21/2020 2:45:00 PM 0.29 32.522 0.173 7.51 0.91 14.54
12/21/2020 3:00:00 PM 0.29 32.522 0.173 7.53 0.86 14.5
12/21/2020 3:15:00 PM 0.28 32.504 0.173 7.55 0.92 14.48
12/21/2020 3:30:00 PM 0.28 32.504 0.173 7.55 0.95 14.47
12/21/2020 3:45:00 PM 0.27 32.486 0.173 7.54 0.97 14.46
12/21/2020 4:00:00 PM 0.27 32.486 0.173 7.54 0.97 14.39
12/21/2020 4:15:00 PM 0.25 32.45 0.173 7.49 1.05 14.32
12/21/2020 4:30:00 PM 0.24 32.432 0.173 7.52 0.9 14.25
12/21/2020 4:45:00 PM 0.24 32.432 0.173 7.5 0.83 14.18
12/21/2020 5:00:00 PM 0.24 32.432 0.173 7.5 0.92 14.13
12/21/2020 5:15:00 PM 0.24 32.432 0.173 7.49 0.84 14.08
12/21/2020 5:30:00 PM 0.23 32.414 0.173 7.48 0.92 14.02
12/21/2020 5:45:00 PM 0.23 32.414 0.173 7.47 0.91 13.97
12/21/2020 6:00:00 PM 0.23 32.414 0.173 7.45 0.83 13.93
12/21/2020 6:15:00 PM 0.22 32.396 0.173 7.44 0.9 13.9
12/21/2020 6:30:00 PM 0.22 32.396 0.173 7.44 0.88 13.87
12/21/2020 6:45:00 PM 0.23 32.414 0.173 7.42 0.83 13.83
12/21/2020 7:00:00 PM 0.23 32.414 0.174 7.38 0.86 13.82
12/21/2020 7:15:00 PM 0.23 32.414 0.174 7.4 0.83 13.8
12/21/2020 7:30:00 PM 0.22 32.396 0.174 7.39 0.93 13.79
12/21/2020 7:45:00 PM 0.23 32.414 0.174 7.39 0.95 13.78
12/21/2020 8:00:00 PM 0.23 32.414 0.174 7.4 0.9 13.76
12/21/2020 8:15:00 PM 0.23 32.414 0.174 7.4 0.83 13.75
12/21/2020 8:30:00 PM 0.23 32.414 0.174 7.39 0.88 13.74
12/21/2020 8:45:00 PM 0.23 32.414 0.174 7.37 0.92 13.71
12/21/2020 9:00:00 PM 0.23 32.414 0.174 7.38 0.86 13.73
12/21/2020 9:15:00 PM 0.23 32.414 0.174 7.38 0.92 13.72
12/21/2020 9:30:00 PM 0.22 32.396 0.174 7.34 0.94 13.71
12/21/2020 9:45:00 PM 0.23 32.414 0.174 7.38 0.83 13.7
12/21/2020 10:00:00 PM 0.23 32.414 0.174 7.38 0.85 13.69
12/21/2020 10:15:00 PM 0.23 32.414 0.174 7.37 0.76 13.69
12/21/2020 10:30:00 PM 0.23 32.414 0.174 7.37 0.83 13.68
12/21/2020 10:45:00 PM 0.23 32.414 0.174 7.37 0.77 13.68
12/21/2020 11:00:00 PM 0.23 32.414 0.174 7.37 0.77 13.68
12/21/2020 11:15:00 PM 0.23 32.414 0.174 7.36 0.81 13.68
12/21/2020 11:30:00 PM 0.23 32.414 0.173 7.36 0.85 13.67
12/21/2020 11:45:00 PM 0.23 32.414 0.173 7.34 0.74 13.67
12/22/2020 12:00:00 AM 0.23 32.414 0.173 7.33 0.7 13.67
12/22/2020 12:15:00 AM 0.23 32.414 0.173 7.34 0.78 13.66
12/22/2020 12:30:00 AM 0.23 32.414 0.173 7.34 0.73 13.66
12/22/2020 12:45:00 AM 0.22 32.396 0.173 7.36 0.73 13.65
12/22/2020 1:00:00 AM 0.23 32.414 0.173 7.36 0.78 13.65
12/22/2020 1:15:00 AM 0.22 32.396 0.173 7.35 0.72 13.65
12/22/2020 1:30:00 AM 0.23 32.414 0.173 7.34 0.8 13.65
12/22/2020 1:45:00 AM 0.23 32.414 0.173 7.35 0.74 13.65
12/22/2020 2:00:00 AM 0.23 32.414 0.173 7.32 0.68 13.64
12/22/2020 2:15:00 AM 0.23 32.414 0.173 7.33 0.72 13.64
12/22/2020 2:30:00 AM 0.22 32.396 0.173 7.35 0.74 13.65
12/22/2020 2:45:00 AM 0.22 32.396 0.173 7.35 0.76 13.66
12/22/2020 3:00:00 AM 0.22 32.396 0.173 7.35 0.68 13.65
12/22/2020 3:15:00 AM 0.22 32.396 0.172 7.31 0.78 13.66
12/22/2020 3:30:00 AM 0.22 32.396 0.172 7.35 0.78 13.66
12/22/2020 3:45:00 AM 0.22 32.396 0.172 7.31 0.81 13.65
12/22/2020 4:00:00 AM 0.22 32.396 0.172 7.35 0.82 13.65
12/22/2020 4:15:00 AM 0.22 32.396 0.172 7.35 0.82 13.66
12/22/2020 4:30:00 AM 0.22 32.396 0.172 7.33 0.73 13.66
12/22/2020 4:45:00 AM 0.22 32.396 0.172 7.35 0.73 13.66
12/22/2020 5:00:00 AM 0.23 32.414 0.172 7.35 0.84 13.67
12/22/2020 5:15:00 AM 0.22 32.396 0.172 7.34 0.84 13.67
12/22/2020 5:30:00 AM 0.22 32.396 0.172 7.35 0.76 13.67
12/22/2020 5:45:00 AM 0.22 32.396 0.172 7.34 0.75 13.67
12/22/2020 6:00:00 AM 0.23 32.414 0.172 7.34 0.8 13.68
12/22/2020 6:15:00 AM 0.22 32.396 0.171 7.35 0.86 13.68
12/22/2020 6:30:00 AM 0.22 32.396 0.171 7.35 0.73 13.68
12/22/2020 6:45:00 AM 0.22 32.396 0.171 7.34 0.73 13.69
12/22/2020 7:00:00 AM 0.22 32.396 0.171 7.35 0.77 13.69
12/22/2020 7:15:00 AM 0.22 32.396 0.171 7.31 0.72 13.69
12/22/2020 7:30:00 AM 0.23 32.414 0.171 7.35 0.83 13.7
12/22/2020 7:45:00 AM 0.21 32.378 0.171 7.3 0.78 13.71
12/22/2020 8:00:00 AM 0.22 32.396 0.171 7.36 0.81 13.74
12/22/2020 8:15:00 AM 0.22 32.396 0.171 7.37 0.75 13.81
12/22/2020 8:30:00 AM 0.24 32.432 0.171 7.37 0.75 13.87
12/22/2020 8:45:00 AM 0.24 32.432 0.17 7.38 0.77 13.91
12/22/2020 9:00:00 AM 0.24 32.432 0.17 7.39 0.77 13.93
12/22/2020 9:15:00 AM 0.25 32.45 0.17 7.39 0.71 13.96
12/22/2020 9:30:00 AM 0.25 32.45 0.17 7.38 0.81 14.01
12/22/2020 9:45:00 AM 0.25 32.45 0.17 7.41 0.83 14.08
12/22/2020 10:00:00 AM 0.26 32.468 0.17 7.42 0.86 14.12
12/22/2020 10:15:00 AM 0.28 32.504 0.17 7.43 0.75 14.17
12/22/2020 10:30:00 AM 0.28 32.504 0.169 7.45 0.72 14.24
12/22/2020 10:45:00 AM 0.29 32.522 0.169 7.46 0.75 14.28
12/22/2020 11:00:00 AM 0.32 32.576 0.169 7.47 0.72 14.38
12/22/2020 11:15:00 AM 0.34 32.612 0.169 7.49 0.68 14.43
12/22/2020 11:30:00 AM 0.33 32.594 0.169 7.47 0.71 14.47
12/22/2020 11:45:00 AM 0.34 32.612 0.169 7.51 0.72 14.5
12/22/2020 12:00:00 PM 0.35 32.63 0.168 7.53 0.67 14.57
12/22/2020 12:15:00 PM 0.37 32.666 0.168 7.5 0.82 14.62
12/22/2020 12:30:00 PM 0.35 32.63 0.168 7.53 0.7 14.61
12/22/2020 12:45:00 PM 0.32 32.576 0.168 7.56 0.74 14.61
12/22/2020 1:00:00 PM 0.32 32.576 0.168 7.57 0.72 14.6
12/22/2020 1:15:00 PM 0.3 32.54 0.168 7.58 0.74 14.6
12/22/2020 1:30:00 PM 0.3 32.54 0.168 7.58 0.7 14.58
12/22/2020 1:45:00 PM 0.28 32.504 0.168 7.58 0.7 14.59
12/22/2020 2:00:00 PM 0.27 32.486 0.167 7.59 0.62 14.59
12/22/2020 2:15:00 PM 0.24 32.432 0.167 7.59 0.84 14.58
12/22/2020 2:30:00 PM 0.24 32.432 0.167 7.59 0.76 14.55
12/22/2020 2:45:00 PM 0.24 32.432 0.167 7.57 0.77 14.55
12/22/2020 3:00:00 PM 0.24 32.432 0.167 7.6 0.72 14.58
12/22/2020 3:15:00 PM 0.24 32.432 0.167 7.59 0.85 14.57
12/22/2020 3:30:00 PM 0.24 32.432 0.167 7.59 0.75 14.53
12/22/2020 3:45:00 PM 0.23 32.414 0.167 7.53 0.73 14.48
12/22/2020 4:00:00 PM 0.23 32.414 0.167 7.55 0.81 14.43
12/22/2020 4:15:00 PM 0.23 32.414 0.167 7.56 0.73 14.39
12/22/2020 4:30:00 PM 0.23 32.414 0.167 7.54 0.72 14.32
12/22/2020 4:45:00 PM 0.23 32.414 0.167 7.54 0.78 14.29
12/22/2020 5:00:00 PM 0.23 32.414 0.167 7.5 0.88 14.23
12/22/2020 5:15:00 PM 0.23 32.414 0.167 7.51 0.69 14.18
12/22/2020 5:30:00 PM 0.23 32.414 0.167 7.51 0.8 14.13
12/22/2020 5:45:00 PM 0.23 32.414 0.167 7.46 0.74 14.1
12/22/2020 6:00:00 PM 0.23 32.414 0.167 7.49 0.73 14.06
12/22/2020 6:15:00 PM 0.22 32.396 0.167 7.48 0.79 14.03
12/22/2020 6:30:00 PM 0.23 32.414 0.167 7.44 0.81 14.01
12/22/2020 6:45:00 PM 0.23 32.414 0.167 7.45 0.73 13.99
12/22/2020 7:00:00 PM 0.23 32.414 0.167 7.44 0.76 13.98
12/22/2020 7:15:00 PM 0.23 32.414 0.167 7.44 0.82 13.97
12/22/2020 7:30:00 PM 0.23 32.414 0.167 7.45 0.72 13.96
12/22/2020 7:45:00 PM 0.22 32.396 0.167 7.43 0.75 13.96
12/22/2020 8:00:00 PM 0.23 32.414 0.167 7.43 0.75 13.95
12/22/2020 8:15:00 PM 0.23 32.414 0.167 7.43 0.77 13.96
12/22/2020 8:30:00 PM 0.23 32.414 0.167 7.42 0.78 13.95
12/22/2020 8:45:00 PM 0.23 32.414 0.167 7.41 0.71 13.95
12/22/2020 9:00:00 PM 0.23 32.414 0.167 7.43 0.73 13.94
12/22/2020 9:15:00 PM 0.23 32.414 0.167 7.43 0.79 13.94
12/22/2020 9:30:00 PM 0.23 32.414 0.167 7.42 0.79 13.93
12/22/2020 9:45:00 PM 0.23 32.414 0.167 7.41 0.81 13.93
12/22/2020 10:00:00 PM 0.23 32.414 0.166 7.42 0.81 13.93
12/22/2020 10:15:00 PM 0.23 32.414 0.166 7.4 0.67 13.92
12/22/2020 10:30:00 PM 0.22 32.396 0.166 7.39 0.81 13.94
12/22/2020 10:45:00 PM 0.22 32.396 0.166 7.4 0.89 13.93
12/22/2020 11:00:00 PM 0.22 32.396 0.166 7.41 0.79 13.94
12/22/2020 11:15:00 PM 0.22 32.396 0.166 7.41 0.89 13.94
12/22/2020 11:30:00 PM 0.22 32.396 0.166 7.37 0.76 13.93
12/22/2020 11:45:00 PM 0.22 32.396 0.166 7.41 0.87 13.94
12/23/2020 12:00:00 AM 0.22 32.396 0.166 7.37 0.82 13.93
12/23/2020 12:15:00 AM 0.22 32.396 0.166 7.4 0.87 13.93
12/23/2020 12:30:00 AM 0.21 32.378 0.166 7.4 0.83 13.94
12/23/2020 12:45:00 AM 0.21 32.378 0.166 7.4 0.81 13.95
12/23/2020 1:00:00 AM 0.21 32.378 0.166 7.37 0.82 13.95
12/23/2020 1:15:00 AM 0.21 32.378 0.165 7.37 0.84 13.95
12/23/2020 1:30:00 AM 0.21 32.378 0.165 7.36 0.8 13.95
12/23/2020 1:45:00 AM 0.2 32.36 0.165 7.37 1.07 13.95
12/23/2020 2:00:00 AM 0.2 32.36 0.165 7.37 1.03 13.95
12/23/2020 2:15:00 AM 0.21 32.378 0.165 7.34 0.87 13.93
12/23/2020 2:30:00 AM 0.2 32.36 0.165 7.37 0.91 13.95
12/23/2020 2:45:00 AM 0.21 32.378 0.165 7.36 0.94 13.96
12/23/2020 3:00:00 AM 0.2 32.36 0.165 7.37 0.99 13.96
12/23/2020 3:15:00 AM 0.2 32.36 0.165 7.35 0.93 13.96
12/23/2020 3:30:00 AM 0.21 32.378 0.165 7.36 0.95 13.95
12/23/2020 3:45:00 AM 0.21 32.378 0.165 7.36 0.84 13.97
12/23/2020 4:00:00 AM 0.2 32.36 0.165 7.36 0.81 13.97
12/23/2020 4:15:00 AM 0.2 32.36 0.165 7.38 0.92 13.97
12/23/2020 4:30:00 AM 0.21 32.378 0.165 7.33 0.86 13.97
12/23/2020 4:45:00 AM 0.21 32.378 0.164 7.37 0.95 13.98
12/23/2020 5:00:00 AM 0.21 32.378 0.164 7.37 0.81 13.98
12/23/2020 5:15:00 AM 0.21 32.378 0.164 7.34 0.92 13.98
12/23/2020 5:30:00 AM 0.2 32.36 0.164 7.36 0.95 13.99
12/23/2020 5:45:00 AM 0.2 32.36 0.164 7.37 0.91 13.98
12/23/2020 6:00:00 AM 0.19 32.342 0.164 7.36 0.86 13.99
12/23/2020 6:15:00 AM 0.18 32.324 0.164 7.37 0.84 13.99
12/23/2020 6:30:00 AM 0.18 32.324 0.164 7.36 0.89 14
12/23/2020 6:45:00 AM 0.17 32.306 0.164 7.35 0.89 14.01
12/23/2020 7:00:00 AM 0.16 32.288 0.164 7.37 0.84 14.01
12/23/2020 7:15:00 AM 0.16 32.288 0.164 7.37 0.94 14.01
12/23/2020 7:30:00 AM 0.16 32.288 0.164 7.37 0.79 14.01
12/23/2020 7:45:00 AM 0.16 32.288 0.164 7.37 0.91 14.03
12/23/2020 8:00:00 AM 0.16 32.288 0.164 7.37 0.96 14.07
12/23/2020 8:15:00 AM 0.17 32.306 0.164 7.37 0.89 14.13
12/23/2020 8:30:00 AM 0.18 32.324 0.164 7.4 0.93 14.18
12/23/2020 8:45:00 AM 0.19 32.342 0.164 7.4 0.84 14.25
12/23/2020 9:00:00 AM 0.2 32.36 0.164 7.38 0.82 14.3
12/23/2020 9:15:00 AM 0.21 32.378 0.164 7.42 0.84 14.35
12/23/2020 9:30:00 AM 0.21 32.378 0.164 7.42 0.92 14.4
12/23/2020 9:45:00 AM 0.23 32.414 0.164 7.43 0.88 14.46
12/23/2020 10:00:00 AM 0.26 32.468 0.163 7.43 0.84 14.53
12/23/2020 10:15:00 AM 0.29 32.522 0.163 7.47 0.89 14.6
12/23/2020 10:30:00 AM 0.31 32.558 0.163 7.48 0.81 14.67
12/23/2020 10:45:00 AM 0.34 32.612 0.163 7.5 0.81 14.72
12/23/2020 11:00:00 AM 0.35 32.63 0.163 7.51 0.81 14.76
12/23/2020 11:15:00 AM 0.37 32.666 0.163 7.54 0.93 14.79
12/23/2020 11:30:00 AM 0.38 32.684 0.163 7.54 0.8 14.82
12/23/2020 11:45:00 AM 0.39 32.702 0.163 7.57 0.74 14.86
12/23/2020 12:00:00 PM 0.4 32.72 0.163 7.57 0.79 14.89
12/23/2020 12:15:00 PM 0.41 32.738 0.162 7.57 0.8 14.91
12/23/2020 12:30:00 PM 0.42 32.756 0.162 7.61 0.83 14.92
12/23/2020 12:45:00 PM 0.42 32.756 0.162 7.61 0.77 14.94
12/23/2020 1:00:00 PM 0.43 32.774 0.162 7.61 0.77 14.95
12/23/2020 1:15:00 PM 0.43 32.774 0.162 7.64 0.79 14.96
12/23/2020 1:30:00 PM 0.42 32.756 0.162 7.64 0.87 14.94
12/23/2020 1:45:00 PM 0.41 32.738 0.162 7.64 0.75 14.94
12/23/2020 2:00:00 PM 0.4 32.72 0.162 7.66 0.75 14.94
12/23/2020 2:15:00 PM 0.4 32.72 0.162 7.65 0.86 14.93
12/23/2020 2:30:00 PM 0.39 32.702 0.162 7.68 0.72 14.91
12/23/2020 2:45:00 PM 0.38 32.684 0.162 7.68 0.82 14.91
12/23/2020 3:00:00 PM 0.36 32.648 0.162 7.66 0.8 14.88
12/23/2020 3:15:00 PM 0.35 32.63 0.161 7.67 0.83 14.85
12/23/2020 3:30:00 PM 0.33 32.594 0.161 7.62 0.91 14.82
12/23/2020 3:45:00 PM 0.32 32.576 0.161 7.65 0.8 14.8
12/23/2020 4:00:00 PM 0.31 32.558 0.161 7.66 0.86 14.74
12/23/2020 4:15:00 PM 0.29 32.522 0.161 7.64 0.84 14.69
12/23/2020 4:30:00 PM 0.27 32.486 0.161 7.62 0.86 14.62
12/23/2020 4:45:00 PM 0.26 32.468 0.161 7.61 0.97 14.54
12/23/2020 5:00:00 PM 0.25 32.45 0.161 7.6 0.93 14.46
12/23/2020 5:15:00 PM 0.24 32.432 0.162 7.57 1.13 14.39
12/23/2020 5:30:00 PM 0.24 32.432 0.162 7.56 0.96 14.33
12/23/2020 5:45:00 PM 0.22 32.396 0.162 7.54 1.14 14.29
12/23/2020 6:00:00 PM 0.21 32.378 0.162 7.53 1.08 14.25
12/23/2020 6:15:00 PM 0.21 32.378 0.162 7.53 1.23 14.2
12/23/2020 6:30:00 PM 0.21 32.378 0.162 7.47 1.27 14.17
12/23/2020 6:45:00 PM 0.2 32.36 0.162 7.5 1.18 14.15
12/23/2020 7:00:00 PM 0.2 32.36 0.162 7.5 1.33 14.13
12/23/2020 7:15:00 PM 0.2 32.36 0.162 7.47 1.33 14.11
12/23/2020 7:30:00 PM 0.19 32.342 0.162 7.47 1.36 14.1
12/23/2020 7:45:00 PM 0.21 32.378 0.162 7.46 1.26 14.09
12/23/2020 8:00:00 PM 0.2 32.36 0.162 7.46 1.42 14.08
12/23/2020 8:15:00 PM 0.2 32.36 0.162 7.46 1.29 14.07
12/23/2020 8:30:00 PM 0.2 32.36 0.162 7.44 1.32 14.07
12/23/2020 8:45:00 PM 0.2 32.36 0.162 7.44 1.34 14.05
12/23/2020 9:00:00 PM 0.2 32.36 0.162 7.43 1.29 14.05
12/23/2020 9:15:00 PM 0.2 32.36 0.162 7.42 1.25 14.04
12/23/2020 9:30:00 PM 0.2 32.36 0.162 7.43 1.3 14.03
12/23/2020 9:45:00 PM 0.2 32.36 0.162 7.43 1.14 14.02
12/23/2020 10:00:00 PM 0.2 32.36 0.162 7.43 1.27 14.02
12/23/2020 10:15:00 PM 0.2 32.36 0.162 7.42 1.29 14.01
12/23/2020 10:30:00 PM 0.2 32.36 0.162 7.41 1.2 14
12/23/2020 10:45:00 PM 0.21 32.378 0.162 7.42 1.16 14.01
12/23/2020 11:00:00 PM 0.2 32.36 0.162 7.41 1.32 14
12/23/2020 11:15:00 PM 0.21 32.378 0.162 7.4 1.27 13.99
12/23/2020 11:30:00 PM 0.21 32.378 0.162 7.41 1.18 13.99
12/23/2020 11:45:00 PM 0.22 32.396 0.162 7.42 1.16 13.99
12/24/2020 12:00:00 AM 0.22 32.396 0.162 7.42 1.09 13.98
12/24/2020 12:15:00 AM 0.21 32.378 0.162 7.42 1.34 13.98
12/24/2020 12:30:00 AM 0.22 32.396 0.162 7.41 1.09 13.98
12/24/2020 12:45:00 AM 0.21 32.378 0.162 7.37 1.03 13.97
12/24/2020 1:00:00 AM 0.21 32.378 0.162 7.41 1.2 13.98
12/24/2020 1:15:00 AM 0.21 32.378 0.161 7.39 2.36 13.96
12/24/2020 1:30:00 AM 0.21 32.378 0.161 7.4 0.95 13.97
12/24/2020 1:45:00 AM 0.2 32.36 0.161 7.4 1.19 13.97
12/24/2020 2:00:00 AM 0.21 32.378 0.161 7.41 1.16 13.97
12/24/2020 2:15:00 AM 0.2 32.36 0.161 7.41 1.16 13.98
12/24/2020 2:30:00 AM 0.21 32.378 0.161 7.4 1.11 13.98
12/24/2020 2:45:00 AM 0.2 32.36 0.161 7.41 1.08 13.97
12/24/2020 3:00:00 AM 0.21 32.378 0.161 7.41 1.08 13.97
12/24/2020 3:15:00 AM 0.22 32.396 0.161 7.41 1.2 13.98
12/24/2020 3:30:00 AM 0.22 32.396 0.161 7.39 1.17 13.97
12/24/2020 3:45:00 AM 0.23 32.414 0.161 7.4 1.16 13.97
12/24/2020 4:00:00 AM 0.23 32.414 0.161 7.4 1.16 13.96
12/24/2020 4:15:00 AM 0.23 32.414 0.161 7.39 1.11 13.97
12/24/2020 4:30:00 AM 0.23 32.414 0.161 7.4 1.18 13.96
12/24/2020 4:45:00 AM 0.24 32.432 0.161 7.4 1.25 13.96
12/24/2020 5:00:00 AM 0.24 32.432 0.161 7.39 1.16 13.96
12/24/2020 5:15:00 AM 0.24 32.432 0.161 7.38 1.17 13.96
12/24/2020 5:30:00 AM 0.24 32.432 0.161 7.41 1.09 13.97
12/24/2020 5:45:00 AM 0.25 32.45 0.161 7.4 1.14 13.95
12/24/2020 6:00:00 AM 0.25 32.45 0.161 7.41 1.11 13.95
12/24/2020 6:15:00 AM 0.25 32.45 0.161 7.38 1.14 13.96
12/24/2020 6:30:00 AM 0.25 32.45 0.161 7.41 1.07 13.95
12/24/2020 6:45:00 AM 0.25 32.45 0.161 7.41 1.05 13.95
12/24/2020 7:00:00 AM 0.25 32.45 0.161 7.39 1.06 13.94
12/24/2020 7:15:00 AM 0.25 32.45 0.161 7.4 1.22 13.94
12/24/2020 7:30:00 AM 0.26 32.468 0.161 7.41 1.11 13.94
12/24/2020 7:45:00 AM 0.26 32.468 0.161 7.39 1.12 13.94
12/24/2020 8:00:00 AM 0.26 32.468 0.161 7.4 1.09 13.95
12/24/2020 8:15:00 AM 0.26 32.468 0.161 7.39 1.24 13.96
12/24/2020 8:30:00 AM 0.26 32.468 0.161 7.4 1.11 13.98
12/24/2020 8:45:00 AM 0.27 32.486 0.161 7.41 1.19 14
12/24/2020 9:00:00 AM 0.28 32.504 0.161 7.41 1.07 14.07
12/24/2020 9:15:00 AM 0.3 32.54 0.16 7.43 1.08 14.17
12/24/2020 9:30:00 AM 0.32 32.576 0.16 7.45 1.04 14.22
12/24/2020 9:45:00 AM 0.34 32.612 0.16 7.46 1.12 14.29
12/24/2020 10:00:00 AM 0.34 32.612 0.159 7.47 1.03 14.35
12/24/2020 10:15:00 AM 0.34 32.612 0.16 7.48 1.19 14.4
12/24/2020 10:30:00 AM 0.35 32.63 0.159 7.49 1.08 14.45
12/24/2020 10:45:00 AM 0.35 32.63 0.159 7.51 1.19 14.48
12/24/2020 11:00:00 AM 0.34 32.612 0.158 7.53 1.24 14.52
12/24/2020 11:15:00 AM 0.34 32.612 0.158 7.54 1.28 14.51
12/24/2020 11:30:00 AM 0.33 32.594 0.158 7.54 1.7 14.52
12/24/2020 11:45:00 AM 0.32 32.576 0.155 7.55 3 14.53
12/24/2020 12:00:00 PM 0.31 32.558 0.157 7.57 2.04 14.53
12/24/2020 12:15:00 PM 0.29 32.522 0.156 7.56 3.77 14.51
12/24/2020 12:30:00 PM 0.28 32.504 0.156 7.55 6.46 14.49
12/24/2020 12:45:00 PM 0.27 32.486 0.155 7.56 10.55 14.47
12/24/2020 1:00:00 PM 0.24 32.432 0.154 7.56 11.96 14.45
12/24/2020 1:15:00 PM 0.22 32.396 0.144 7.56 26.25 14.42
12/24/2020 1:30:00 PM 0.2 32.36 0.152 7.55 13.89 14.4
12/24/2020 1:45:00 PM 0.18 32.324 0.15 7.53 28.03 14.36
12/24/2020 2:00:00 PM 0.17 32.306 0.148 7.53 21.88 14.31
12/24/2020 2:15:00 PM 0.15 32.27 0.146 7.51 23.66 14.25
12/24/2020 2:30:00 PM 0.14 32.252 0.141 7.47 0.54 14.19
12/24/2020 2:45:00 PM 0.12 32.216 0.138 7.44 42.45 14.13
12/24/2020 3:00:00 PM 0.11 32.198 0.134 7.44 41.57 14.08
12/24/2020 3:15:00 PM 0.11 32.198 0.131 7.4 45.76 14.06
12/24/2020 3:30:00 PM 0.11 32.198 0.121 7.39 65.55 14.02
12/24/2020 3:45:00 PM 0.11 32.198 0.127 7.37 81.97 14
12/24/2020 4:00:00 PM 0.11 32.198 0.123 7.35 83.24 13.97
12/24/2020 4:15:00 PM 0.1 32.18 0.124 7.34 -0.33 13.95
12/24/2020 4:30:00 PM 0.11 32.198 0.123 7.32 87.26 13.94
12/24/2020 4:45:00 PM 0.09 32.162 0.123 7.29 108.52 13.93
12/24/2020 5:00:00 PM 0.1 32.18 0.124 7.25 86 13.91
12/24/2020 5:15:00 PM 0.08 32.144 0.128 7.25 94.46 13.9
12/24/2020 5:30:00 PM 0.07 32.126 0.133 7.16 97.43 13.9
12/24/2020 5:45:00 PM 0.04 32.072 0.138 7.09 121.45 13.9
12/24/2020 6:00:00 PM 0.03 32.054 0.143 7.06 170.76 13.89
12/24/2020 6:15:00 PM -0.03 31.946 0.146 7.03 291.26 13.86
12/24/2020 6:30:00 PM 0.02 32.036 0.143 7.13 136.17 13.85
12/24/2020 6:45:00 PM 0 32 0.138 7.08 136.61 13.83
12/24/2020 7:00:00 PM 0 32 0.14 7.01 138.04 13.83
12/24/2020 7:15:00 PM 0.01 32.018 0.132 7.02 158.44 13.85
12/24/2020 7:30:00 PM -0.02 31.964 0.118 7.08 214.71 13.84
12/24/2020 7:45:00 PM 0.02 32.036 0.123 7.04 193.57 13.81
12/24/2020 8:00:00 PM -0.01 31.982 0.118 6.98 287.25 13.78
12/24/2020 8:15:00 PM 0.05 32.09 0.111 7.03 232.29 13.79
12/24/2020 8:30:00 PM 0.05 32.09 0.105 6.95 2239.52 13.8
12/24/2020 8:45:00 PM 0.06 32.108 0.103 6.94 298.15 13.79
12/24/2020 9:00:00 PM 0.06 32.108 0.099 6.9 243.01 13.78
12/24/2020 9:15:00 PM 0.08 32.144 0.098 6.93 244.39 13.77
12/24/2020 9:30:00 PM 0.05 32.09 0.096 6.84 273.09 13.76
12/24/2020 9:45:00 PM 0.07 32.126 0.092 6.85 299.72 13.77
12/24/2020 10:00:00 PM 0.1 32.18 0.084 6.83 271.88 13.77
12/24/2020 10:15:00 PM 0.11 32.198 0.045 6.85 260.61 13.78
12/24/2020 10:30:00 PM 0.11 32.198 0.085 6.86 310.52 13.77
12/24/2020 10:45:00 PM 0.12 32.216 0.043 6.81 309.7 13.76
12/24/2020 11:00:00 PM 0.12 32.216 0.079 6.82 329.37 13.74
12/24/2020 11:15:00 PM 0.1 32.18 0.077 6.75 339.6 13.74
12/24/2020 11:30:00 PM 0.14 32.252 0.076 6.78 323 13.72
12/24/2020 11:45:00 PM 0.15 32.27 0.074 6.75 287.35 13.71
12/25/2020 12:00:00 AM 0.15 32.27 0.067 6.74 319.52 13.7
12/25/2020 12:15:00 AM 0.16 32.288 0.072 6.72 423.32 13.69
12/25/2020 12:30:00 AM 0.14 32.252 0.034 6.74 325.34 13.69
12/25/2020 12:45:00 AM 0.15 32.27 0.071 6.76 373.38 13.68
12/25/2020 1:00:00 AM 0.17 32.306 0.058 6.71 271.33 13.67
12/25/2020 1:15:00 AM 0.16 32.288 0.07 6.69 291.47 13.65
12/25/2020 1:30:00 AM 0.18 32.324 0.072 6.68 351.4 13.64
12/25/2020 1:45:00 AM 0.16 32.288 0.051 6.69 329.79 13.62
12/25/2020 2:00:00 AM 0.18 32.324 0.071 6.73 307.3 13.62
12/25/2020 2:15:00 AM 0.18 32.324 0.071 6.68 262.91 13.62
12/25/2020 2:30:00 AM 0.17 32.306 0.048 6.71 250.56 13.62
12/25/2020 2:45:00 AM 0.15 32.27 0.056 6.74 293.07 13.6
12/25/2020 3:00:00 AM 0.14 32.252 0.071 6.65 292.12 13.59
12/25/2020 3:15:00 AM 0.13 32.234 0.048 6.58 304.23 13.59
12/25/2020 3:30:00 AM 0.1 32.18 0.038 6.62 240.13 13.59
12/25/2020 3:45:00 AM 0.1 32.18 0.071 6.64 241.18 13.59
12/25/2020 4:00:00 AM 0.06 32.108 0.051 6.5 260.04 13.59
12/25/2020 4:15:00 AM 0.04 32.072 0.037 6.44 250.23 13.58
12/25/2020 4:30:00 AM 0.07 32.126 0.07 6.55 257.85 13.58
12/25/2020 4:45:00 AM 0.09 32.162 0.047 6.5 228.81 13.59
12/25/2020 5:00:00 AM 0.1 32.18 0.067 6.51 206.01 13.6
12/25/2020 5:15:00 AM 0.1 32.18 0.053 6.5 249.72 13.6
12/25/2020 5:30:00 AM 0.11 32.198 0.068 6.52 222.71 13.59
12/25/2020 5:45:00 AM 0.11 32.198 0.066 6.57 274.73 13.59
12/25/2020 6:00:00 AM 0.11 32.198 0.067 6.47 278.59 13.61
12/25/2020 6:15:00 AM 0.12 32.216 0.066 6.54 218.65 13.6
12/25/2020 6:30:00 AM 0.14 32.252 0.065 6.69 206.63 13.61
12/25/2020 6:45:00 AM 0.16 32.288 0.065 6.59 132.86 13.6
12/25/2020 7:00:00 AM 0.18 32.324 0.049 6.57 217.11 13.6
12/25/2020 7:15:00 AM 0.21 32.378 0.028 6.61 186.91 13.6
12/25/2020 7:30:00 AM 0.23 32.414 0.063 6.57 218.85 13.59
12/25/2020 7:45:00 AM 0.27 32.486 0.053 6.58 234.61 13.57
12/25/2020 8:00:00 AM 0.31 32.558 0.027 6.62 206.47 13.58
12/25/2020 8:15:00 AM 0.36 32.648 0.061 6.68 204.97 13.58
12/25/2020 8:30:00 AM 0.41 32.738 0.058 6.65 164.68 13.58
12/25/2020 8:45:00 AM 0.45 32.81 0.06 6.66 165.68 13.58
12/25/2020 9:00:00 AM 0.5 32.9 0.024 6.67 163.05 13.57
12/25/2020 9:15:00 AM 0.55 32.99 0.022 6.7 167.62 13.57
12/25/2020 9:30:00 AM 0.6 33.08 0.034 6.76 144.95 13.57
12/25/2020 9:45:00 AM 0.65 33.17 0.061 6.71 167.91 13.55
12/25/2020 10:00:00 AM 0.69 33.242 0.025 6.7 159.9 13.55
12/25/2020 10:15:00 AM 0.75 33.35 0.026 6.69 149.99 13.54
12/25/2020 10:30:00 AM 0.8 33.44 0.062 6.7 132.75 13.53
12/25/2020 10:45:00 AM 0.84 33.512 0.062 6.7 130.24 13.51
12/25/2020 11:00:00 AM 0.89 33.602 0.042 6.71 156.03 13.51
12/25/2020 11:15:00 AM 0.93 33.674 0.023 6.71 112.86 13.5
12/25/2020 11:30:00 AM 0.97 33.746 0.062 6.73 116.68 13.48
12/25/2020 11:45:00 AM 1.01 33.818 0.046 6.74 101.56 13.47
12/25/2020 12:00:00 PM 0.99 33.782 0.036 6.74 119.62 13.46
12/25/2020 12:15:00 PM 1.06 33.908 0.045 6.71 103.59 13.45
12/25/2020 12:30:00 PM 1.12 34.016 0.026 6.72 95.98 13.44
12/25/2020 12:45:00 PM 1.17 34.106 0.028 6.76 125.17 13.43
12/25/2020 1:00:00 PM 1.2 34.16 0.028 6.77 85.12 13.42
12/25/2020 1:15:00 PM 1.25 34.25 0.063 6.76 122.36 13.41
12/25/2020 1:30:00 PM 1.28 34.304 0.063 6.73 71.92 13.4
12/25/2020 1:45:00 PM 1.32 34.376 0.063 6.73 92.77 13.39
12/25/2020 2:00:00 PM 1.34 34.412 0.044 6.77 86.43 13.39
12/25/2020 2:15:00 PM 1.37 34.466 0.029 6.76 108.85 13.38
12/25/2020 2:30:00 PM 1.4 34.52 0.028 6.77 112.47 13.38
12/25/2020 2:45:00 PM 1.42 34.556 0.027 6.78 84 13.37
12/25/2020 3:00:00 PM 1.44 34.592 0.064 6.79 84.6 13.36
12/25/2020 3:15:00 PM 1.46 34.628 0.064 6.77 96.56 13.36
12/25/2020 3:30:00 PM 1.48 34.664 0.064 6.76 88.84 13.35
12/25/2020 3:45:00 PM 1.5 34.7 0.065 6.78 72.81 13.36
12/25/2020 4:00:00 PM 1.52 34.736 0.065 6.78 83.58 13.36
12/25/2020 4:15:00 PM 1.53 34.754 0.065 6.79 64.29 13.35
12/25/2020 4:30:00 PM 1.54 34.772 0.065 6.79 64.57 13.36
12/25/2020 4:45:00 PM 1.55 34.79 0.065 6.79 68.69 13.36
12/25/2020 5:00:00 PM 1.56 34.808 0.066 6.81 66.14 13.36
12/25/2020 5:15:00 PM 1.57 34.826 0.031 6.81 65.55 13.36
12/25/2020 5:30:00 PM 1.57 34.826 0.031 6.82 68.19 13.36
12/25/2020 5:45:00 PM 1.58 34.844 0.066 6.8 68.56 13.36
12/25/2020 6:00:00 PM 1.58 34.844 0.067 6.8 70.49 13.35
12/25/2020 6:15:00 PM 1.58 34.844 0.067 6.82 64.28 13.36
12/25/2020 6:30:00 PM 1.58 34.844 0.067 6.83 69.64 13.36
12/25/2020 6:45:00 PM 1.57 34.826 0.067 6.81 54.77 13.36
12/25/2020 7:00:00 PM 1.57 34.826 0.067 6.82 65.03 13.36
12/25/2020 7:15:00 PM 1.56 34.808 0.068 6.85 47.41 13.37
12/25/2020 7:30:00 PM 1.55 34.79 0.068 6.83 56.52 13.38
12/25/2020 7:45:00 PM 1.53 34.754 0.068 6.84 54.54 13.39
12/25/2020 8:00:00 PM 1.52 34.736 0.068 6.84 56.48 13.4
12/25/2020 8:15:00 PM 1.51 34.718 0.068 6.85 50.9 13.41
12/25/2020 8:30:00 PM 1.49 34.682 0.069 6.86 48.43 13.42
12/25/2020 8:45:00 PM 1.48 34.664 0.031 6.87 48.96 13.43
12/25/2020 9:00:00 PM 1.46 34.628 0.069 6.87 51.9 13.44
12/25/2020 9:15:00 PM 1.44 34.592 0.069 6.88 49.49 13.45
12/25/2020 9:30:00 PM 1.42 34.556 0.069 6.88 55.48 13.46
12/25/2020 9:45:00 PM 1.4 34.52 0.07 6.88 40.81 13.47
12/25/2020 10:00:00 PM 1.37 34.466 0.07 6.87 69.39 13.48
12/25/2020 10:15:00 PM 1.35 34.43 0.07 6.88 51.17 13.49
12/25/2020 10:30:00 PM 1.32 34.376 0.07 6.89 63.76 13.51
12/25/2020 10:45:00 PM 1.29 34.322 0.07 6.9 44.53 13.53
12/25/2020 11:00:00 PM 1.27 34.286 0.071 6.91 49.08 13.53
12/25/2020 11:15:00 PM 1.24 34.232 0.071 6.88 31.62 13.55
12/25/2020 11:30:00 PM 1.22 34.196 0.071 6.91 34.5 13.57
12/25/2020 11:45:00 PM 1.19 34.142 0.071 6.91 41.23 13.58
12/26/2020 12:00:00 AM 1.15 34.07 0.071 6.9 35.55 13.59
12/26/2020 12:15:00 AM 1.12 34.016 0.071 6.93 42.43 13.62
12/26/2020 12:30:00 AM 1.09 33.962 0.072 6.93 39.68 13.63
12/26/2020 12:45:00 AM 1.07 33.926 0.07 6.92 37.7 13.64
12/26/2020 1:00:00 AM 1.03 33.854 0.072 6.92 36.67 13.66
12/26/2020 1:15:00 AM 1 33.8 0.072 6.93 38.84 13.67
12/26/2020 1:30:00 AM 0.96 33.728 0.072 6.93 36.25 13.69
12/26/2020 1:45:00 AM 0.91 33.638 0.072 6.92 36.6 13.7
12/26/2020 2:00:00 AM 0.88 33.584 0.073 6.94 42.05 13.73
12/26/2020 2:15:00 AM 0.84 33.512 0.073 6.95 32.39 13.74
12/26/2020 2:30:00 AM 0.8 33.44 0.073 6.94 37.07 13.76
12/26/2020 2:45:00 AM 0.77 33.386 0.073 6.93 31.55 13.77
12/26/2020 3:00:00 AM 0.73 33.314 0.06 6.94 31.22 13.79
12/26/2020 3:15:00 AM 0.7 33.26 0.073 6.94 31.69 13.81
12/26/2020 3:30:00 AM 0.66 33.188 0.073 6.95 41.47 13.82
12/26/2020 3:45:00 AM 0.62 33.116 0.074 6.94 32.65 13.85
12/26/2020 4:00:00 AM 0.59 33.062 0.074 6.95 39.27 13.86
12/26/2020 4:15:00 AM 0.56 33.008 0.074 6.96 36.17 13.87
12/26/2020 4:30:00 AM 0.53 32.954 0.074 6.97 37.79 13.89
12/26/2020 4:45:00 AM 0.5 32.9 0.074 6.96 40.82 13.9
12/26/2020 5:00:00 AM 0.46 32.828 0.074 6.98 39.85 13.92
12/26/2020 5:15:00 AM 0.43 32.774 0.075 6.95 29.66 13.94
12/26/2020 5:30:00 AM 0.4 32.72 0.075 6.99 30.44 13.95
12/26/2020 5:45:00 AM 0.38 32.684 0.075 6.97 28.38 13.96
12/26/2020 6:00:00 AM 0.35 32.63 0.075 6.98 43.85 13.97
12/26/2020 6:15:00 AM 0.32 32.576 0.075 6.98 35.67 13.99
12/26/2020 6:30:00 AM 0.28 32.504 0.075 6.98 25.35 14.01
12/26/2020 6:45:00 AM 0.25 32.45 0.075 6.98 25.93 14.03
12/26/2020 7:00:00 AM 0.21 32.378 0.076 6.98 21.7 14.04
12/26/2020 7:15:00 AM 0.18 32.324 0.076 6.99 25.79 14.06
12/26/2020 7:30:00 AM 0.15 32.27 0.076 7 30.63 14.07
12/26/2020 7:45:00 AM 0.13 32.234 0.076 7 25.31 14.09
12/26/2020 8:00:00 AM 0.1 32.18 0.076 7 24.72 14.1
12/26/2020 8:15:00 AM 0.08 32.144 0.076 7 25.39 14.11
12/26/2020 8:30:00 AM 0.07 32.126 0.076 7 25.76 14.12
12/26/2020 8:45:00 AM 0.07 32.126 0.076 6.99 30.7 14.14
12/26/2020 9:00:00 AM 0.06 32.108 0.077 7 25.44 14.15
12/26/2020 9:15:00 AM 0.06 32.108 0.077 7 21.48 14.16
12/26/2020 9:30:00 AM 0.06 32.108 0.077 7 24.35 14.17
12/26/2020 9:45:00 AM 0.04 32.072 0.077 6.99 21.03 14.17
12/26/2020 10:00:00 AM 0.04 32.072 0.077 7 24.44 14.18
12/26/2020 10:15:00 AM 0.04 32.072 0.077 7 23.33 14.19
12/26/2020 10:30:00 AM 0.04 32.072 0.077 7 18.3 14.19
12/26/2020 10:45:00 AM 0.04 32.072 0.077 7 25.86 14.2
12/26/2020 11:00:00 AM 0.05 32.09 0.078 7.01 26.17 14.2
12/26/2020 11:15:00 AM 0.06 32.108 0.078 7.02 25.51 14.2
12/26/2020 11:30:00 AM 0.06 32.108 0.078 7.03 21.28 14.21
12/26/2020 11:45:00 AM 0.07 32.126 0.078 7.04 19.4 14.21
12/26/2020 12:00:00 PM 0.07 32.126 0.078 7.04 18.18 14.21
12/26/2020 12:15:00 PM 0.08 32.144 0.078 7.04 18.37 14.21
12/26/2020 12:30:00 PM 0.09 32.162 0.078 7.04 19.67 14.2
12/26/2020 12:45:00 PM 0.11 32.198 0.078 7.04 23.3 14.21
12/26/2020 1:00:00 PM 0.13 32.234 0.078 7.05 18.68 14.2
12/26/2020 1:15:00 PM 0.15 32.27 0.079 7.05 17.34 14.2
12/26/2020 1:30:00 PM 0.16 32.288 0.079 7.05 18 14.19
12/26/2020 1:45:00 PM 0.17 32.306 0.079 7.05 19.2 14.19
12/26/2020 2:00:00 PM 0.17 32.306 0.079 7.05 17.34 14.19
12/26/2020 2:15:00 PM 0.17 32.306 0.079 7.06 17.8 14.19
12/26/2020 2:30:00 PM 0.17 32.306 0.079 7.06 17.51 14.19
12/26/2020 2:45:00 PM 0.16 32.288 0.079 7.05 16.03 14.19
12/26/2020 3:00:00 PM 0.15 32.27 0.079 7.06 14.85 14.19
12/26/2020 3:15:00 PM 0.15 32.27 0.079 7.06 23.05 14.19
12/26/2020 3:30:00 PM 0.13 32.234 0.079 7.06 16.35 14.19
12/26/2020 3:45:00 PM 0.12 32.216 0.08 7.06 19.79 14.2
12/26/2020 4:00:00 PM 0.11 32.198 0.08 7.06 16.93 14.21
12/26/2020 4:15:00 PM 0.08 32.144 0.08 7.07 20.35 14.21
12/26/2020 4:30:00 PM 0.06 32.108 0.08 7.06 16.02 14.22
12/26/2020 4:45:00 PM 0.05 32.09 0.08 7.07 15.93 14.22
12/26/2020 5:00:00 PM 0.05 32.09 0.08 7.07 16.74 14.23
12/26/2020 5:15:00 PM 0.04 32.072 0.08 7.06 16.62 14.23
12/26/2020 5:30:00 PM 0.04 32.072 0.08 7.07 17.33 14.23
12/26/2020 5:45:00 PM 0.04 32.072 0.08 7.06 16.32 14.24
12/26/2020 6:00:00 PM 0.03 32.054 0.081 7.07 13.35 14.23
12/26/2020 6:15:00 PM 0.03 32.054 0.081 7.07 15.99 14.23
12/26/2020 6:30:00 PM 0.03 32.054 0.081 7.07 15.83 14.24
12/26/2020 6:45:00 PM 0.03 32.054 0.081 7.07 19.03 14.24
12/26/2020 7:00:00 PM 0.03 32.054 0.081 7.07 16.2 14.24
12/26/2020 7:15:00 PM 0.01 32.018 0.081 7.07 17.31 14.24
12/26/2020 7:30:00 PM 0 32 0.081 7.07 15.18 14.25
12/26/2020 7:45:00 PM -0.02 31.964 0.081 7.07 16.11 14.26
12/26/2020 8:00:00 PM -0.02 31.964 0.081 7.07 14.41 14.26
12/26/2020 8:15:00 PM -0.02 31.964 0.081 7.07 11.58 14.26
12/26/2020 8:30:00 PM -0.01 31.982 0.081 7.07 13.25 14.27
12/26/2020 8:45:00 PM -0.01 31.982 0.082 7.07 20.63 14.27
12/26/2020 9:00:00 PM -0.01 31.982 0.082 7.07 15.86 14.28
12/26/2020 9:15:00 PM -0.01 31.982 0.082 7.08 25.95 14.28
12/26/2020 9:30:00 PM -0.01 31.982 0.082 7.07 13.55 14.28
12/26/2020 9:45:00 PM 0 32 0.082 7.08 12.23 14.28
12/26/2020 10:00:00 PM -0.01 31.982 0.082 7.08 13.19 14.28
12/26/2020 10:15:00 PM -0.01 31.982 0.082 7.07 11.86 14.29
12/26/2020 10:30:00 PM -0.01 31.982 0.082 7.08 13.68 14.3
12/26/2020 10:45:00 PM -0.01 31.982 0.083 7.08 14.51 14.29
12/26/2020 11:00:00 PM 0 32 0.083 7.08 11.37 14.29
12/26/2020 11:15:00 PM 0 32 0.083 7.08 14.27 14.3
12/26/2020 11:30:00 PM 0.01 32.018 0.083 7.08 12.75 14.29
12/26/2020 11:45:00 PM 0.01 32.018 0.083 7.09 19.69 14.29
12/27/2020 12:00:00 AM 0.01 32.018 0.083 7.08 13.04 14.3
12/27/2020 12:15:00 AM 0 32 0.083 7.08 12.6 14.29
12/27/2020 12:30:00 AM 0 32 0.083 7.08 13.11 14.3
12/27/2020 12:45:00 AM 0 32 0.083 7.08 12.21 14.3
12/27/2020 1:00:00 AM 0 32 0.083 7.09 12.56 14.3
12/27/2020 1:15:00 AM 0.01 32.018 0.083 7.09 11.97 14.32
12/27/2020 1:30:00 AM 0 32 0.083 7.08 12.17 14.31
12/27/2020 1:45:00 AM 0.01 32.018 0.084 7.09 12 14.32
12/27/2020 2:00:00 AM 0.01 32.018 0.084 7.09 15.56 14.32
12/27/2020 2:15:00 AM 0 32 0.084 7.09 12.58 14.32
12/27/2020 2:30:00 AM 0 32 0.084 7.08 12.3 14.33
12/27/2020 2:45:00 AM 0.01 32.018 0.084 7.09 13.1 14.33
12/27/2020 3:00:00 AM 0.01 32.018 0.084 7.09 11.68 14.33
12/27/2020 3:15:00 AM 0 32 0.084 7.09 11.75 14.33
12/27/2020 3:30:00 AM 0.01 32.018 0.084 7.09 11.9 14.33
12/27/2020 3:45:00 AM 0 32 0.084 7.09 11.89 14.34
12/27/2020 4:00:00 AM 0 32 0.084 7.09 11.2 14.34
12/27/2020 4:15:00 AM 0 32 0.085 7.09 11.76 14.35
12/27/2020 4:30:00 AM 0.01 32.018 0.085 7.09 11.6 14.35
12/27/2020 4:45:00 AM 0 32 0.085 7.09 10.64 14.35
12/27/2020 5:00:00 AM 0.01 32.018 0.085 7.09 11.12 14.35
12/27/2020 5:15:00 AM 0.01 32.018 0.085 7.09 11.44 14.36
12/27/2020 5:30:00 AM 0.01 32.018 0.085 7.09 11.05 14.35
12/27/2020 5:45:00 AM 0.01 32.018 0.085 7.09 10.89 14.36
12/27/2020 6:00:00 AM 0 32 0.085 7.09 10.69 14.36
12/27/2020 6:15:00 AM 0.01 32.018 0.086 7.09 10.8 14.37
12/27/2020 6:30:00 AM 0.01 32.018 0.086 7.09 10.64 14.37
12/27/2020 6:45:00 AM 0 32 0.086 7.09 10.52 14.38
12/27/2020 7:00:00 AM 0 32 0.086 7.1 11.3 14.38
12/27/2020 7:15:00 AM 0.01 32.018 0.086 7.09 10.59 14.38
12/27/2020 7:30:00 AM 0.01 32.018 0.086 7.09 11.28 14.38
12/27/2020 7:45:00 AM 0.01 32.018 0.086 7.1 10.18 14.39
12/27/2020 8:00:00 AM 0.01 32.018 0.086 7.1 10.04 14.38
12/27/2020 8:15:00 AM 0 32 0.087 7.1 10.33 14.39
12/27/2020 8:30:00 AM 0.01 32.018 0.087 7.1 10.01 14.4
12/27/2020 8:45:00 AM 0.01 32.018 0.087 7.1 10.37 14.39
12/27/2020 9:00:00 AM 0.01 32.018 0.087 7.1 9.96 14.39
12/27/2020 9:15:00 AM 0.01 32.018 0.087 7.1 10.26 14.39
12/27/2020 9:30:00 AM 0.01 32.018 0.087 7.1 10.36 14.4
12/27/2020 9:45:00 AM 0.01 32.018 0.087 7.1 10.24 14.4
12/27/2020 10:00:00 AM 0.02 32.036 0.087 7.11 9.94 14.4
12/27/2020 10:15:00 AM 0.02 32.036 0.088 7.11 10.31 14.4
12/27/2020 10:30:00 AM 0.02 32.036 0.088 7.1 10.23 14.4
12/27/2020 10:45:00 AM 0.02 32.036 0.088 7.1 11.06 14.41
12/27/2020 11:00:00 AM 0.03 32.054 0.088 7.1 10.51 14.4
12/27/2020 11:15:00 AM 0.03 32.054 0.088 7.1 11.58 14.39
12/27/2020 11:30:00 AM 0.03 32.054 0.088 7.1 11.57 14.39
12/27/2020 11:45:00 AM 0.03 32.054 0.088 7.1 11.84 14.38
12/27/2020 12:00:00 PM 0.03 32.054 0.088 7.1 11.67 14.37
12/27/2020 12:15:00 PM 0.04 32.072 0.088 7.1 12.88 14.37
12/27/2020 12:30:00 PM 0.07 32.126 0.088 7.11 12.16 14.35
12/27/2020 12:45:00 PM 0.08 32.144 0.089 7.1 12.69 14.36
12/27/2020 1:00:00 PM 0.09 32.162 0.089 7.11 12.46 14.34
12/27/2020 1:15:00 PM 0.08 32.144 0.089 7.11 14.55 14.35
12/27/2020 1:30:00 PM 0.09 32.162 0.089 7.11 12.73 14.34
12/27/2020 1:45:00 PM 0.09 32.162 0.089 7.11 12.06 14.36
12/27/2020 2:00:00 PM 0.12 32.216 0.089 7.12 12.92 14.34
12/27/2020 2:15:00 PM 0.15 32.27 0.089 7.12 12.61 14.33
12/27/2020 2:30:00 PM 0.15 32.27 0.089 7.12 12.18 14.31
12/27/2020 2:45:00 PM 0.17 32.306 0.089 7.12 12.2 14.31
12/27/2020 3:00:00 PM 0.19 32.342 0.09 7.13 12.21 14.31
12/27/2020 3:15:00 PM 0.21 32.378 0.09 7.13 12.03 14.3
12/27/2020 3:30:00 PM 0.23 32.414 0.09 7.13 11.58 14.29
12/27/2020 3:45:00 PM 0.26 32.468 0.09 7.12 10.54 14.29
12/27/2020 4:00:00 PM 0.28 32.504 0.09 7.13 10.45 14.29
12/27/2020 4:15:00 PM 0.3 32.54 0.09 7.13 10.66 14.28
12/27/2020 4:30:00 PM 0.31 32.558 0.09 7.13 11.36 14.27
12/27/2020 4:45:00 PM 0.33 32.594 0.09 7.13 9.97 14.26
12/27/2020 5:00:00 PM 0.33 32.594 0.09 7.13 10.19 14.26
12/27/2020 5:15:00 PM 0.33 32.594 0.091 7.14 10.71 14.26
12/27/2020 5:30:00 PM 0.33 32.594 0.091 7.13 10.13 14.25
12/27/2020 5:45:00 PM 0.33 32.594 0.091 7.14 10.57 14.25
12/27/2020 6:00:00 PM 0.33 32.594 0.091 7.14 10.42 14.25
12/27/2020 6:15:00 PM 0.32 32.576 0.091 7.13 10.08 14.25
12/27/2020 6:30:00 PM 0.31 32.558 0.091 7.14 10.21 14.26
12/27/2020 6:45:00 PM 0.31 32.558 0.091 7.14 9.71 14.25
12/27/2020 7:00:00 PM 0.3 32.54 0.091 7.14 9.69 14.25
12/27/2020 7:15:00 PM 0.3 32.54 0.091 7.14 9.92 14.25
12/27/2020 7:30:00 PM 0.29 32.522 0.091 7.14 10.3 14.26
12/27/2020 7:45:00 PM 0.28 32.504 0.091 7.14 9.95 14.26
12/27/2020 8:00:00 PM 0.27 32.486 0.091 7.14 9.33 14.26
12/27/2020 8:15:00 PM 0.25 32.45 0.091 7.14 9.18 14.26
12/27/2020 8:30:00 PM 0.25 32.45 0.091 7.14 9.49 14.26
12/27/2020 8:45:00 PM 0.24 32.432 0.092 7.14 9.46 14.27
12/27/2020 9:00:00 PM 0.23 32.414 0.092 7.14 9.47 14.28
12/27/2020 9:15:00 PM 0.22 32.396 0.092 7.14 9.94 14.28
12/27/2020 9:30:00 PM 0.21 32.378 0.092 7.14 8.89 14.28
12/27/2020 9:45:00 PM 0.2 32.36 0.092 7.14 9.44 14.28
12/27/2020 10:00:00 PM 0.21 32.378 0.092 7.14 9.33 14.27
12/27/2020 10:15:00 PM 0.21 32.378 0.092 7.14 9.82 14.28
12/27/2020 10:30:00 PM 0.2 32.36 0.092 7.15 9.35 14.27
12/27/2020 10:45:00 PM 0.2 32.36 0.092 7.14 9.27 14.28
12/27/2020 11:00:00 PM 0.2 32.36 0.092 7.14 9.06 14.28
12/27/2020 11:15:00 PM 0.19 32.342 0.092 7.14 8.82 14.28
12/27/2020 11:30:00 PM 0.2 32.36 0.092 7.15 9.04 14.27
12/27/2020 11:45:00 PM 0.21 32.378 0.092 7.15 9.17 14.27
12/28/2020 12:00:00 AM 0.21 32.378 0.093 7.15 9.31 14.26
12/28/2020 12:15:00 AM 0.23 32.414 0.093 7.15 8.4 14.25
12/28/2020 12:30:00 AM 0.23 32.414 0.093 7.15 8.56 14.25
12/28/2020 12:45:00 AM 0.24 32.432 0.093 7.14 8.51 14.24
12/28/2020 1:00:00 AM 0.26 32.468 0.093 7.15 8.81 14.23
12/28/2020 1:15:00 AM 0.27 32.486 0.093 7.15 8.56 14.22
12/28/2020 1:30:00 AM 0.28 32.504 0.093 7.15 9.13 14.21
12/28/2020 1:45:00 AM 0.29 32.522 0.093 7.15 8.83 14.2
12/28/2020 2:00:00 AM 0.31 32.558 0.093 7.15 9.14 14.2
12/28/2020 2:15:00 AM 0.31 32.558 0.093 7.15 8.83 14.2
12/28/2020 2:30:00 AM 0.31 32.558 0.093 7.16 8.69 14.19
12/28/2020 2:45:00 AM 0.33 32.594 0.093 7.16 8.73 14.18
12/28/2020 3:00:00 AM 0.33 32.594 0.094 7.16 9.04 14.18
12/28/2020 3:15:00 AM 0.34 32.612 0.094 7.15 8.68 14.18
12/28/2020 3:30:00 AM 0.35 32.63 0.094 7.16 8.5 14.17
12/28/2020 3:45:00 AM 0.35 32.63 0.094 7.16 8.26 14.17
12/28/2020 4:00:00 AM 0.37 32.666 0.094 7.16 8.27 14.16
12/28/2020 4:15:00 AM 0.37 32.666 0.094 7.16 8.29 14.16
12/28/2020 4:30:00 AM 0.37 32.666 0.094 7.16 8.24 14.15
12/28/2020 4:45:00 AM 0.39 32.702 0.094 7.16 9.1 14.15
12/28/2020 5:00:00 AM 0.39 32.702 0.094 7.16 8.59 14.15
12/28/2020 5:15:00 AM 0.4 32.72 0.094 7.16 9.05 14.15
12/28/2020 5:30:00 AM 0.39 32.702 0.094 7.16 8.22 14.15
12/28/2020 5:45:00 AM 0.41 32.738 0.094 7.16 8.21 14.16
12/28/2020 6:00:00 AM 0.42 32.756 0.094 7.17 8.8 14.14
12/28/2020 6:15:00 AM 0.41 32.738 0.094 7.16 8.57 14.15
12/28/2020 6:30:00 AM 0.4 32.72 0.094 7.17 8.37 14.14
12/28/2020 6:45:00 AM 0.41 32.738 0.094 7.17 8.54 14.14
12/28/2020 7:00:00 AM 0.41 32.738 0.095 7.17 9.02 14.13
12/28/2020 7:15:00 AM 0.43 32.774 0.095 7.17 9.44 14.13
12/28/2020 7:30:00 AM 0.44 32.792 0.095 7.17 7.99 14.13
12/28/2020 7:45:00 AM 0.45 32.81 0.095 7.17 8.83 14.13
12/28/2020 8:00:00 AM 0.45 32.81 0.095 7.16 7.91 14.13
12/28/2020 8:15:00 AM 0.47 32.846 0.095 7.16 8 14.12
12/28/2020 8:30:00 AM 0.48 32.864 0.095 7.16 8.35 14.13
12/28/2020 8:45:00 AM 0.49 32.882 0.095 7.16 8.45 14.12
12/28/2020 9:00:00 AM 0.51 32.918 0.095 7.17 8.13 14.12
12/28/2020 9:15:00 AM 0.54 32.972